Darstellungsparameter: Aktuell verwendete Einstellungen:
Skalierung der Graphiken ... ?
xyx+y,   Skalierungsfaktor:      Skalierung: Modus: x, Faktor: 1
Darstellungszeitraum ... ?
Vom - - bis: - -   Zeitraum: 05.08.2010 - 04.08.2020
Min/Max/Avg-Anzeige ... ?
Zeige MMA aktuell
Zeige MMA Monat
Zeige MMA alles
Zeige --A aktuell
Zeige --A Monat
Zeige --A alles
Keine MMA-Anzeige
MMA:
Average (ber die Originaldaten)
MMA-Basis: 23.02.2003 - 03.08.2020
Quicknavigation für Darstellung... ?
Tage:      1T, 2T, 3T, 5T -1T -2T -3T -5T +1T +2T +3T +5T
Wochen: 1W, 2W, 3W -1W -2W -3W +1W +2W +3W
Monate: 1M, 3M, 6M -1M -3M -6M +1M +3M +6M
Jahre:    1J, 3J, 5J, 10J -1J -3J -5J -10J +1J +3J +5J +10J
Nutze für die Darstellung ... ?
Originaldaten oder ...
Mittelwerte Minima Maxima auf...
Stundenbasis Tagesbasis Wochenbasis
Monatsbasis Jahresbasis      Datenbasis: Mittelwerte auf Stundenbasis
Darstellen als:
Statistik (Auto) Statistik J:M      Darstellung:
Zur Graphik,    zurück zur Übersicht aller Sensoren.
 
Tabellarische Datenbersicht: ?
 
Sensor: Nr:Datum:Temp:Abs-Feuchte:Windchill:Wind:
Aussen-T/F 1 05-08-2010 00:00:00 16.78 C 12.37 g/m*3 16.78 C 0 km/h
2 05-08-2010 01:00:00 16.28 C 12.44 g/m*3 16.28 C 0 km/h
3 05-08-2010 02:00:00 15.82 C 12.37 g/m*3 15.82 C 0 km/h
4 05-08-2010 03:00:00 15.54 C 12.3 g/m*3 15.54 C 0 km/h
5 05-08-2010 04:00:00 15.3 C 12.14 g/m*3 15.3 C 0 km/h
6 05-08-2010 05:00:00 15.32 C 12.21 g/m*3 15.32 C 0 km/h
7 05-08-2010 06:00:00 15.68 C 12.56 g/m*3 15.68 C 0 km/h
8 05-08-2010 07:00:00 15.72 C 12.57 g/m*3 15.72 C 0 km/h
9 05-08-2010 08:00:00 16.2 C 12.55 g/m*3 16.2 C 0 km/h
10 05-08-2010 09:00:00 16.84 C 11.44 g/m*3 16.84 C 0 km/h
11 05-08-2010 10:00:00 17.46 C 10.38 g/m*3 17.46 C 0 km/h
12 05-08-2010 11:00:00 18.36 C 9.67 g/m*3 18.36 C 0 km/h
13 05-08-2010 12:00:00 18.42 C 9.35 g/m*3 18.42 C 0 km/h
14 05-08-2010 13:00:00 18.98 C 8.2 g/m*3 18.98 C 0 km/h
15 05-08-2010 14:00:00 21.28 C 7.56 g/m*3 21.28 C 0 km/h
16 05-08-2010 15:00:00 23 C 6.41 g/m*3 23 C 0 km/h
17 05-08-2010 16:00:00 25.08 C 5.69 g/m*3 25.08 C 0 km/h
18 05-08-2010 17:00:00 23.98 C 5.3 g/m*3 23.98 C 0 km/h
19 05-08-2010 18:00:00 22.7 C 5.62 g/m*3 22.7 C 0 km/h
20 05-08-2010 19:00:00 21.26 C 6.17 g/m*3 21.26 C 0 km/h
21 05-08-2010 20:00:00 20.22 C 6.9 g/m*3 20.22 C 0 km/h
22 05-08-2010 21:00:00 18.94 C 7.15 g/m*3 18.94 C 0 km/h
23 05-08-2010 22:00:00 17.7 C 7.48 g/m*3 17.7 C 0 km/h
24 05-08-2010 23:00:00 17 C 8.1 g/m*3 17 C 0 km/h
25 06-08-2010 00:00:00 16.02 C 8.48 g/m*3 16.02 C 0 km/h
Sensor: Nr:Datum:Temp:Abs-Feuchte:Windchill:Wind:
Aussen-T/F 26 06-08-2010 01:00:00 15.26 C 8.62 g/m*3 15.26 C 0 km/h
27 06-08-2010 02:00:00 14.52 C 8.87 g/m*3 14.52 C 0 km/h
28 06-08-2010 03:00:00 13.96 C 8.86 g/m*3 13.96 C 0 km/h
29 06-08-2010 04:00:00 13.44 C 9.3 g/m*3 13.44 C 0 km/h
30 06-08-2010 05:00:00 12.96 C 9.34 g/m*3 12.96 C 0 km/h
31 06-08-2010 06:00:00 13.34 C 9.29 g/m*3 13.34 C 0 km/h
32 06-08-2010 07:00:00 13.18 C 9.27 g/m*3 13.18 C 0 km/h
33 06-08-2010 08:00:00 13.48 C 9.49 g/m*3 13.48 C 0 km/h
34 06-08-2010 09:00:00 15.46 C 9.44 g/m*3 15.46 C 0 km/h
35 06-08-2010 10:00:00 17.84 C 8.31 g/m*3 17.84 C 0 km/h
36 06-08-2010 11:00:00 19.84 C 7.22 g/m*3 19.84 C 0 km/h
37 06-08-2010 12:00:00 21.34 C 6.17 g/m*3 21.34 C 0 km/h
38 06-08-2010 13:00:00 23.7 C 4.79 g/m*3 23.7 C 0 km/h
39 06-08-2010 14:00:00 24.84 C 4.56 g/m*3 24.84 C 0 km/h
40 06-08-2010 15:00:00 25.28 C 4.68 g/m*3 25.28 C 0 km/h
41 06-08-2010 16:00:00 28.1 C 5.47 g/m*3 28.1 C 0 km/h
42 06-08-2010 17:00:00 24.86 C 7.63 g/m*3 24.86 C 0 km/h
43 06-08-2010 18:00:00 26.42 C 4.98 g/m*3 26.42 C 0 km/h
44 06-08-2010 19:00:00 26.2 C 4.92 g/m*3 26.2 C 0 km/h
45 06-08-2010 20:00:00 23.66 C 5.29 g/m*3 23.66 C 0 km/h
46 06-08-2010 21:00:00 19.3 C 6.14 g/m*3 19.3 C 0 km/h
47 06-08-2010 22:00:00 17.72 C 6.34 g/m*3 17.72 C 0 km/h
48 06-08-2010 23:00:00 16.4 C 6.67 g/m*3 16.4 C 0 km/h
49 07-08-2010 00:00:00 15.04 C 7.15 g/m*3 15.04 C 0 km/h
50 07-08-2010 01:00:00 13.94 C 7.55 g/m*3 13.94 C 0 km/h
Sensor: Nr:Datum:Temp:Abs-Feuchte:Windchill:Wind:
Aussen-T/F 51 07-08-2010 02:00:00 13 C 7.89 g/m*3 13 C 0 km/h
52 07-08-2010 03:00:00 12.32 C 7.74 g/m*3 12.32 C 0 km/h
53 07-08-2010 04:00:00 11.64 C 7.71 g/m*3 11.64 C 0 km/h
54 07-08-2010 05:00:00 11.06 C 7.7 g/m*3 11.06 C 0 km/h
55 07-08-2010 06:00:00 10.48 C 7.77 g/m*3 10.48 C 0 km/h
56 07-08-2010 07:00:00 10.7 C 7.96 g/m*3 10.7 C 0 km/h
57 07-08-2010 08:00:00 11.74 C 8.07 g/m*3 11.74 C 0 km/h
58 07-08-2010 09:00:00 14.06 C 8.4 g/m*3 14.06 C 0 km/h
59 07-08-2010 10:00:00 18.22 C 8.5 g/m*3 18.22 C 0 km/h
60 07-08-2010 11:00:00 21.26 C 6.36 g/m*3 21.26 C 0 km/h
61 07-08-2010 12:00:00 22.86 C 5.46 g/m*3 22.86 C 0 km/h
62 07-08-2010 13:00:00 25.48 C 4.87 g/m*3 25.48 C 0 km/h
63 07-08-2010 14:00:00 26.66 C 5.05 g/m*3 26.66 C 0 km/h
64 07-08-2010 15:00:00 27.78 C 5.37 g/m*3 27.78 C 0 km/h
65 07-08-2010 16:00:00 29.2 C 5.81 g/m*3 29.2 C 0 km/h
66 07-08-2010 17:00:00 29.3 C 5.84 g/m*3 29.3 C 0 km/h
67 07-08-2010 18:00:00 27.4 C 6.26 g/m*3 27.4 C 0 km/h
68 07-08-2010 19:00:00 25.16 C 6.83 g/m*3 25.16 C 0 km/h
69 07-08-2010 20:00:00 23.86 C 6.99 g/m*3 23.86 C 0 km/h
70 07-08-2010 21:00:00 22.46 C 7.05 g/m*3 22.46 C 0 km/h
71 07-08-2010 22:00:00 21.96 C 7.4 g/m*3 21.96 C 0 km/h
72 07-08-2010 23:00:00 21.6 C 7.74 g/m*3 21.6 C 0 km/h
73 08-08-2010 00:00:00 21.04 C 8.12 g/m*3 21.04 C 0 km/h
74 08-08-2010 01:00:00 20.16 C 8.44 g/m*3 20.16 C 0 km/h
75 08-08-2010 02:00:00 19.82 C 9.44 g/m*3 19.82 C 0 km/h
Sensor: Nr:Datum:Temp:Abs-Feuchte:Windchill:Wind:
Aussen-T/F 76 08-08-2010 03:00:00 18.68 C 10.01 g/m*3 18.68 C 0 km/h
77 08-08-2010 04:00:00 18.36 C 10.39 g/m*3 18.36 C 0 km/h
78 08-08-2010 05:00:00 17.56 C 11.46 g/m*3 17.56 C 0 km/h
79 08-08-2010 06:00:00 16.68 C 12.49 g/m*3 16.68 C 0 km/h
80 08-08-2010 07:00:00 16.66 C 12.96 g/m*3 16.66 C 0 km/h
81 08-08-2010 08:00:00 17.2 C 13.47 g/m*3 17.2 C 0 km/h
82 08-08-2010 09:00:00 17.64 C 13.35 g/m*3 17.64 C 0 km/h
83 08-08-2010 10:00:00 18.46 C 12.66 g/m*3 18.46 C 0 km/h
84 08-08-2010 11:00:00 16.48 C 12.15 g/m*3 16.48 C 0 km/h
85 08-08-2010 12:00:00 16.58 C 12.56 g/m*3 16.58 C 0 km/h
86 08-08-2010 13:00:00 17.16 C 12.86 g/m*3 17.16 C 0 km/h
87 08-08-2010 14:00:00 18.98 C 12.57 g/m*3 18.98 C 0 km/h
88 08-08-2010 15:00:00 20.18 C 12.5 g/m*3 20.18 C 0 km/h
89 08-08-2010 16:00:00 19.94 C 12.36 g/m*3 19.94 C 0 km/h
90 08-08-2010 17:00:00 21.68 C 12 g/m*3 21.68 C 0 km/h
91 08-08-2010 18:00:00 21.42 C 10.21 g/m*3 21.42 C 0 km/h
92 08-08-2010 19:00:00 19.98 C 10.77 g/m*3 19.98 C 0 km/h
93 08-08-2010 20:00:00 17.72 C 11.81 g/m*3 17.72 C 0 km/h
94 08-08-2010 21:00:00 17.46 C 11.42 g/m*3 17.46 C 0 km/h
95 08-08-2010 22:00:00 17.1 C 11.5 g/m*3 17.1 C 0 km/h
96 08-08-2010 23:00:00 16.7 C 11.68 g/m*3 16.7 C 0 km/h
97 09-08-2010 00:00:00 16.42 C 12.05 g/m*3 16.42 C 0 km/h
98 09-08-2010 01:00:00 16.44 C 12.17 g/m*3 16.44 C 0 km/h
99 09-08-2010 02:00:00 15.6 C 11.68 g/m*3 15.6 C 0 km/h
100 09-08-2010 03:00:00 15.6 C 11.7 g/m*3 15.6 C 0 km/h
Sensor: Nr:Datum:Temp:Abs-Feuchte:Windchill:Wind:
Aussen-T/F 101 09-08-2010 04:00:00 15.74 C 11.4 g/m*3 15.74 C 0 km/h
102 09-08-2010 05:00:00 14.84 C 10.97 g/m*3 14.84 C 0 km/h
103 09-08-2010 06:00:00 14.6 C 11.31 g/m*3 14.6 C 0 km/h
104 09-08-2010 07:00:00 14.6 C 11.34 g/m*3 14.6 C 0 km/h
105 09-08-2010 08:00:00 15.22 C 11.05 g/m*3 15.22 C 0 km/h
106 09-08-2010 09:00:00 15.8 C 10.82 g/m*3 15.8 C 0 km/h
107 09-08-2010 10:00:00 17.4 C 10.55 g/m*3 17.4 C 0 km/h
108 09-08-2010 11:00:00 19.6 C 9.25 g/m*3 19.6 C 0 km/h
109 09-08-2010 12:00:00 21.3 C 8.61 g/m*3 21.3 C 0 km/h
110 09-08-2010 13:00:00 24.36 C 8.17 g/m*3 24.36 C 0 km/h
111 09-08-2010 14:00:00 24.1 C 7.83 g/m*3 24.1 C 0 km/h
112 09-08-2010 15:00:00 25.54 C 7.59 g/m*3 25.54 C 0 km/h
113 09-08-2010 16:00:00 26.18 C 6.84 g/m*3 26.18 C 0 km/h
114 09-08-2010 17:00:00 26.22 C 8.08 g/m*3 26.22 C 0 km/h
115 09-08-2010 18:00:00 27.5 C 7.88 g/m*3 27.5 C 0 km/h
116 09-08-2010 19:00:00 23.52 C 8.81 g/m*3 23.52 C 0 km/h
117 09-08-2010 20:00:00 21.26 C 8.55 g/m*3 21.26 C 0 km/h
118 09-08-2010 21:00:00 19.76 C 8.79 g/m*3 19.76 C 0 km/h
119 09-08-2010 22:00:00 18.64 C 8.97 g/m*3 18.64 C 0 km/h
120 09-08-2010 23:00:00 18.12 C 9.25 g/m*3 18.12 C 0 km/h
121 10-08-2010 00:00:00 17.62 C 9.79 g/m*3 17.62 C 0 km/h
122 10-08-2010 01:00:00 17.52 C 10.15 g/m*3 17.52 C 0 km/h
123 10-08-2010 02:00:00 17.38 C 10.04 g/m*3 17.38 C 0 km/h
124 10-08-2010 03:00:00 17.14 C 10.1 g/m*3 17.14 C 0 km/h
125 10-08-2010 04:00:00 16.86 C 10.24 g/m*3 16.86 C 0 km/h
Sensor: Nr:Datum:Temp:Abs-Feuchte:Windchill:Wind:
Aussen-T/F 126 10-08-2010 05:00:00 15.62 C 10.09 g/m*3 15.62 C 0 km/h
127 10-08-2010 06:00:00 14.66 C 9.92 g/m*3 14.66 C 0 km/h
128 10-08-2010 07:00:00 14.88 C 10.31 g/m*3 14.88 C 0 km/h
129 10-08-2010 08:00:00 15.84 C 10.71 g/m*3 15.84 C 0 km/h
130 10-08-2010 09:00:00 18.2 C 10.6 g/m*3 18.2 C 0 km/h
131 10-08-2010 10:00:00 20.92 C 11.01 g/m*3 20.92 C 0 km/h
132 10-08-2010 11:00:00 23.74 C 9.52 g/m*3 23.74 C 0 km/h
133 10-08-2010 12:00:00 25.9 C 6.83 g/m*3 25.9 C 0 km/h
134 10-08-2010 13:00:00 28.16 C 5.98 g/m*3 28.16 C 0 km/h
135 10-08-2010 14:00:00 29.04 C 6.22 g/m*3 29.04 C 0 km/h
136 10-08-2010 15:00:00 28.46 C 7.36 g/m*3 28.46 C 0 km/h
137 10-08-2010 16:00:00 29.88 C 6.51 g/m*3 29.88 C 0 km/h
138 10-08-2010 17:00:00 29.94 C 6.47 g/m*3 29.94 C 0 km/h
139 10-08-2010 18:00:00 29.68 C 6.74 g/m*3 29.68 C 0 km/h
140 10-08-2010 19:00:00 26.94 C 8.16 g/m*3 26.94 C 0 km/h
141 10-08-2010 20:00:00 24.76 C 8.27 g/m*3 24.76 C 0 km/h
142 10-08-2010 21:00:00 23.36 C 8.77 g/m*3 23.36 C 0 km/h
143 10-08-2010 22:00:00 22.86 C 8.93 g/m*3 22.86 C 0 km/h
144 10-08-2010 23:00:00 21.9 C 9.26 g/m*3 21.9 C 0 km/h
145 11-08-2010 00:00:00 21.46 C 9.67 g/m*3 21.46 C 0 km/h
146 11-08-2010 01:00:00 20.54 C 10.56 g/m*3 20.54 C 0 km/h
147 11-08-2010 02:00:00 18.38 C 12.32 g/m*3 18.38 C 0 km/h
148 11-08-2010 03:00:00 17.64 C 13.14 g/m*3 17.64 C 0 km/h
149 11-08-2010 04:00:00 17.52 C 13.4 g/m*3 17.52 C 0 km/h
150 11-08-2010 05:00:00 17.42 C 13.24 g/m*3 17.42 C 0 km/h
Sensor: Nr:Datum:Temp:Abs-Feuchte:Windchill:Wind:
Aussen-T/F 151 11-08-2010 06:00:00 17.4 C 13.04 g/m*3 17.4 C 0 km/h
152 11-08-2010 07:00:00 17.62 C 13.03 g/m*3 17.62 C 0 km/h
153 11-08-2010 08:00:00 18.68 C 13.02 g/m*3 18.68 C 0 km/h
154 11-08-2010 09:00:00 19.64 C 11.51 g/m*3 19.64 C 0 km/h
155 11-08-2010 10:00:00 20.8 C 11.08 g/m*3 20.8 C 0 km/h
156 11-08-2010 11:00:00 20.62 C 11.18 g/m*3 20.62 C 0 km/h
157 11-08-2010 12:00:00 22.46 C 11 g/m*3 22.46 C 0 km/h
158 11-08-2010 13:00:00 23.8 C 10.37 g/m*3 23.8 C 0 km/h
159 11-08-2010 14:00:00 24.4 C 10.1 g/m*3 24.4 C 0 km/h
160 11-08-2010 15:00:00 25.56 C 9.88 g/m*3 25.56 C 0 km/h
161 11-08-2010 16:00:00 22.88 C 12 g/m*3 22.88 C 0 km/h
162 11-08-2010 17:00:00 21.74 C 14 g/m*3 21.74 C 0 km/h
163 11-08-2010 18:00:00 22.86 C 14.31 g/m*3 22.86 C 0 km/h
164 11-08-2010 19:00:00 21.28 C 13.7 g/m*3 21.28 C 0 km/h
165 11-08-2010 20:00:00 19.56 C 13.57 g/m*3 19.56 C 0 km/h
166 11-08-2010 21:00:00 18.84 C 14.4 g/m*3 18.84 C 0 km/h
167 11-08-2010 22:00:00 18.48 C 14.38 g/m*3 18.48 C 0 km/h
168 11-08-2010 23:00:00 18.3 C 14.38 g/m*3 18.3 C 0 km/h
169 12-08-2010 00:00:00 17.88 C 14.27 g/m*3 17.88 C 0 km/h
170 12-08-2010 01:00:00 17.52 C 14.03 g/m*3 17.52 C 0 km/h
171 12-08-2010 02:00:00 17.16 C 13.73 g/m*3 17.16 C 0 km/h
172 12-08-2010 03:00:00 16.86 C 13.49 g/m*3 16.86 C 0 km/h
173 12-08-2010 04:00:00 16.46 C 13.22 g/m*3 16.46 C 0 km/h
174 12-08-2010 05:00:00 16.48 C 13.3 g/m*3 16.48 C 0 km/h
175 12-08-2010 06:00:00 16.72 C 13.52 g/m*3 16.72 C 0 km/h
Sensor: Nr:Datum:Temp:Abs-Feuchte:Windchill:Wind:
Aussen-T/F 176 12-08-2010 07:00:00 16.86 C 13.6 g/m*3 16.86 C 0 km/h
177 12-08-2010 08:00:00 16.64 C 12.89 g/m*3 16.64 C 0 km/h
178 12-08-2010 09:00:00 17.72 C 13.44 g/m*3 17.72 C 0 km/h
179 12-08-2010 10:00:00 18.58 C 12.24 g/m*3 18.58 C 0 km/h
180 12-08-2010 11:00:00 18.62 C 12.17 g/m*3 18.62 C 0 km/h
181 12-08-2010 12:00:00 19.56 C 11.25 g/m*3 19.56 C 0 km/h
182 12-08-2010 13:00:00 20.26 C 9.58 g/m*3 20.26 C 0 km/h
183 12-08-2010 14:00:00 20.3 C 9.04 g/m*3 20.3 C 0 km/h
184 12-08-2010 15:00:00 23.02 C 8.4 g/m*3 23.02 C 0 km/h
185 12-08-2010 16:00:00 22.56 C 7.14 g/m*3 22.56 C 0 km/h
186 12-08-2010 17:00:00 25.42 C 5.89 g/m*3 25.42 C 0 km/h
187 12-08-2010 18:00:00 23.3 C 6.65 g/m*3 23.3 C 0 km/h
188 12-08-2010 19:00:00 21.68 C 8.23 g/m*3 21.68 C 0 km/h
189 12-08-2010 20:00:00 20.1 C 8.45 g/m*3 20.1 C 0 km/h
190 12-08-2010 21:00:00 19.14 C 7.99 g/m*3 19.14 C 0 km/h
191 12-08-2010 22:00:00 18.44 C 8.58 g/m*3 18.44 C 0 km/h
192 12-08-2010 23:00:00 17.34 C 9.19 g/m*3 17.34 C 0 km/h
193 13-08-2010 00:00:00 16.82 C 9.42 g/m*3 16.82 C 0 km/h
194 13-08-2010 01:00:00 16.18 C 9.26 g/m*3 16.18 C 0 km/h
195 13-08-2010 02:00:00 15.82 C 9.68 g/m*3 15.82 C 0 km/h
196 13-08-2010 03:00:00 15.34 C 9.84 g/m*3 15.34 C 0 km/h
197 13-08-2010 04:00:00 15.04 C 10 g/m*3 15.04 C 0 km/h
198 13-08-2010 05:00:00 14.76 C 9.98 g/m*3 14.76 C 0 km/h
199 13-08-2010 06:00:00 14.7 C 10.05 g/m*3 14.7 C 0 km/h
200 13-08-2010 07:00:00 15.02 C 10.12 g/m*3 15.02 C 0 km/h
Sensor: Nr:Datum:Temp:Abs-Feuchte:Windchill:Wind:
Aussen-T/F 201 13-08-2010 08:00:00 15.16 C 10.33 g/m*3 15.16 C 0 km/h
202 13-08-2010 09:00:00 16.26 C 10.3 g/m*3 16.26 C 0 km/h
203 13-08-2010 10:00:00 18.84 C 9.65 g/m*3 18.84 C 0 km/h
204 13-08-2010 11:00:00 21.24 C 8.4 g/m*3 21.24 C 0 km/h
205 13-08-2010 12:00:00 22.2 C 7.74 g/m*3 22.2 C 0 km/h
206 13-08-2010 13:00:00 23 C 6.99 g/m*3 23 C 0 km/h
207 13-08-2010 14:00:00 23.92 C 6.5 g/m*3 23.92 C 0 km/h
208 13-08-2010 15:00:00 24.42 C 6.02 g/m*3 24.42 C 0 km/h
209 13-08-2010 16:00:00 24.24 C 6.75 g/m*3 24.24 C 0 km/h
210 13-08-2010 17:00:00 23.66 C 7.43 g/m*3 23.66 C 0 km/h
211 13-08-2010 18:00:00 22.5 C 8.15 g/m*3 22.5 C 0 km/h
212 13-08-2010 19:00:00 21.84 C 7.88 g/m*3 21.84 C 0 km/h
213 13-08-2010 20:00:00 19.9 C 7.94 g/m*3 19.9 C 0 km/h
214 13-08-2010 21:00:00 17.66 C 7.83 g/m*3 17.66 C 0 km/h
215 13-08-2010 22:00:00 16.72 C 8.2 g/m*3 16.72 C 0 km/h
216 13-08-2010 23:00:00 15.44 C 8.64 g/m*3 15.44 C 0 km/h
217 14-08-2010 00:00:00 14.7 C 8.91 g/m*3 14.7 C 0 km/h
218 14-08-2010 01:00:00 13.98 C 9.11 g/m*3 13.98 C 0 km/h
219 14-08-2010 02:00:00 13.32 C 9 g/m*3 13.32 C 0 km/h
220 14-08-2010 03:00:00 12.6 C 8.87 g/m*3 12.6 C 0 km/h
221 14-08-2010 04:00:00 12.06 C 8.75 g/m*3 12.06 C 0 km/h
222 14-08-2010 05:00:00 11.62 C 8.76 g/m*3 11.62 C 0 km/h
223 14-08-2010 06:00:00 11.12 C 8.73 g/m*3 11.12 C 0 km/h
224 14-08-2010 07:00:00 11.28 C 8.9 g/m*3 11.28 C 0 km/h
225 14-08-2010 08:00:00 12.32 C 9.42 g/m*3 12.32 C 0 km/h
Sensor: Nr:Datum:Temp:Abs-Feuchte:Windchill:Wind:
Aussen-T/F 226 14-08-2010 09:00:00 14.4 C 9.94 g/m*3 14.4 C 0 km/h
227 14-08-2010 10:00:00 17.62 C 10.39 g/m*3 17.62 C 0 km/h
228 14-08-2010 11:00:00 20.68 C 10.36 g/m*3 20.68 C 0 km/h
229 14-08-2010 12:00:00 22.96 C 9.19 g/m*3 22.96 C 0 km/h
230 14-08-2010 13:00:00 26.24 C 7.4 g/m*3 26.24 C 0 km/h
231 14-08-2010 14:00:00 27.62 C 6.98 g/m*3 27.62 C 0 km/h
232 14-08-2010 15:00:00 28.04 C 6.7 g/m*3 28.04 C 0 km/h
233 14-08-2010 16:00:00 30.1 C 6.46 g/m*3 30.1 C 0 km/h
234 14-08-2010 17:00:00 30.88 C 6.36 g/m*3 30.88 C 0 km/h
235 14-08-2010 18:00:00 31.22 C 6.48 g/m*3 31.22 C 0 km/h
236 14-08-2010 19:00:00 27.86 C 7.56 g/m*3 27.86 C 0 km/h
237 14-08-2010 20:00:00 24.86 C 8.18 g/m*3 24.86 C 0 km/h
238 14-08-2010 21:00:00 22.14 C 8.73 g/m*3 22.14 C 0 km/h
239 14-08-2010 22:00:00 21.24 C 9.14 g/m*3 21.24 C 0 km/h
240 14-08-2010 23:00:00 20.36 C 9.14 g/m*3 20.36 C 0 km/h
241 15-08-2010 00:00:00 19.74 C 8.82 g/m*3 19.74 C 0 km/h
242 15-08-2010 01:00:00 19.38 C 8.73 g/m*3 19.38 C 0 km/h
243 15-08-2010 02:00:00 18.98 C 8.98 g/m*3 18.98 C 0 km/h
244 15-08-2010 03:00:00 18.6 C 9.29 g/m*3 18.6 C 0 km/h
245 15-08-2010 04:00:00 18.14 C 9.14 g/m*3 18.14 C 0 km/h
246 15-08-2010 05:00:00 18.06 C 8.88 g/m*3 18.06 C 0 km/h
247 15-08-2010 06:00:00 17.9 C 9.04 g/m*3 17.9 C 0 km/h
248 15-08-2010 07:00:00 17.1 C 9.69 g/m*3 17.1 C 0 km/h
249 15-08-2010 08:00:00 15.24 C 11.48 g/m*3 15.24 C 0 km/h
250 15-08-2010 09:00:00 15.2 C 11.99 g/m*3 15.2 C 0 km/h
Sensor: Nr:Datum:Temp:Abs-Feuchte:Windchill:Wind:
Aussen-T/F 251 15-08-2010 10:00:00 15.48 C 12.44 g/m*3 15.48 C 0 km/h
252 15-08-2010 11:00:00 15.82 C 12.8 g/m*3 15.82 C 0 km/h
253 15-08-2010 12:00:00 16.04 C 12.97 g/m*3 16.04 C 0 km/h
254 15-08-2010 13:00:00 16.14 C 13.05 g/m*3 16.14 C 0 km/h
255 15-08-2010 14:00:00 16.44 C 13.29 g/m*3 16.44 C 0 km/h
256 15-08-2010 15:00:00 16.4 C 13.26 g/m*3 16.4 C 0 km/h
257 15-08-2010 16:00:00 16.48 C 13.32 g/m*3 16.48 C 0 km/h
258 15-08-2010 17:00:00 16.68 C 13.48 g/m*3 16.68 C 0 km/h
259 15-08-2010 18:00:00 16.6 C 13.42 g/m*3 16.6 C 0 km/h
260 15-08-2010 19:00:00 16.6 C 13.42 g/m*3 16.6 C 0 km/h
261 15-08-2010 20:00:00 16.38 C 13.24 g/m*3 16.38 C 0 km/h
262 15-08-2010 21:00:00 16.24 C 13.13 g/m*3 16.24 C 0 km/h
263 15-08-2010 22:00:00 16.14 C 13.05 g/m*3 16.14 C 0 km/h
264 15-08-2010 23:00:00 15.5 C 12.56 g/m*3 15.5 C 0 km/h
265 16-08-2010 00:00:00 14.9 C 12.11 g/m*3 14.9 C 0 km/h
266 16-08-2010 01:00:00 14.72 C 11.87 g/m*3 14.72 C 0 km/h
267 16-08-2010 02:00:00 14.6 C 11.61 g/m*3 14.6 C 0 km/h
268 16-08-2010 03:00:00 14.6 C 11.64 g/m*3 14.6 C 0 km/h
269 16-08-2010 04:00:00 14.5 C 11.34 g/m*3 14.5 C 0 km/h
270 16-08-2010 05:00:00 14.5 C 11.39 g/m*3 14.5 C 0 km/h
271 16-08-2010 06:00:00 14.54 C 11.37 g/m*3 14.54 C 0 km/h
272 16-08-2010 07:00:00 14.84 C 11.45 g/m*3 14.84 C 0 km/h
273 16-08-2010 08:00:00 15.92 C 11.44 g/m*3 15.92 C 0 km/h
274 16-08-2010 09:00:00 17.4 C 11.09 g/m*3 17.4 C 0 km/h
275 16-08-2010 10:00:00 17.2 C 10.84 g/m*3 17.2 C 0 km/h
Sensor: Nr:Datum:Temp:Abs-Feuchte:Windchill:Wind:
Aussen-T/F 276 16-08-2010 11:00:00 17.7 C 11.09 g/m*3 17.7 C 0 km/h
277 16-08-2010 12:00:00 17.76 C 11.45 g/m*3 17.76 C 0 km/h
278 16-08-2010 13:00:00 18.38 C 10.59 g/m*3 18.38 C 0 km/h
279 16-08-2010 14:00:00 19.88 C 9.88 g/m*3 19.88 C 0 km/h
280 16-08-2010 15:00:00 19.72 C 9.42 g/m*3 19.72 C 0 km/h
281 16-08-2010 16:00:00 19.76 C 9.75 g/m*3 19.76 C 0 km/h
282 16-08-2010 17:00:00 19.96 C 9.79 g/m*3 19.96 C 0 km/h
283 16-08-2010 18:00:00 19.76 C 9.65 g/m*3 19.76 C 0 km/h
284 16-08-2010 19:00:00 18.6 C 10.06 g/m*3 18.6 C 0 km/h
285 16-08-2010 20:00:00 17.9 C 10.63 g/m*3 17.9 C 0 km/h
286 16-08-2010 21:00:00 17.44 C 11.32 g/m*3 17.44 C 0 km/h
287 16-08-2010 22:00:00 17.58 C 11.83 g/m*3 17.58 C 0 km/h
288 16-08-2010 23:00:00 17.76 C 12.05 g/m*3 17.76 C 0 km/h
289 17-08-2010 00:00:00 17.62 C 11.95 g/m*3 17.62 C 0 km/h
290 17-08-2010 01:00:00 16.68 C 12.29 g/m*3 16.68 C 0 km/h
291 17-08-2010 02:00:00 16.48 C 12.37 g/m*3 16.48 C 0 km/h
292 17-08-2010 03:00:00 16.42 C 11.79 g/m*3 16.42 C 0 km/h
293 17-08-2010 04:00:00 16.42 C 11.18 g/m*3 16.42 C 0 km/h
294 17-08-2010 05:00:00 15.62 C 11.34 g/m*3 15.62 C 0 km/h
295 17-08-2010 06:00:00 15.84 C 11.23 g/m*3 15.84 C 0 km/h
296 17-08-2010 07:00:00 16.36 C 10.83 g/m*3 16.36 C 0 km/h
297 17-08-2010 08:00:00 16.72 C 10.33 g/m*3 16.72 C 0 km/h
298 17-08-2010 09:00:00 16.98 C 9.65 g/m*3 16.98 C 0 km/h
299 17-08-2010 10:00:00 17.06 C 9.35 g/m*3 17.06 C 0 km/h
300 17-08-2010 11:00:00 17.58 C 9.2 g/m*3 17.58 C 0 km/h
Sensor: Nr:Datum:Temp:Abs-Feuchte:Windchill:Wind:
Aussen-T/F 301 17-08-2010 12:00:00 16.62 C 10.13 g/m*3 16.62 C 0 km/h
302 17-08-2010 13:00:00 17.3 C 11.73 g/m*3 17.3 C 0 km/h
303 17-08-2010 14:00:00 17.74 C 9.16 g/m*3 17.74 C 0 km/h
304 17-08-2010 15:00:00 17.08 C 8.75 g/m*3 17.08 C 0 km/h
305 17-08-2010 16:00:00 14.7 C 9.74 g/m*3 14.7 C 0 km/h
306 17-08-2010 17:00:00 14.42 C 9.98 g/m*3 14.42 C 0 km/h
307 17-08-2010 18:00:00 14.8 C 11 g/m*3 14.8 C 0 km/h
308 17-08-2010 19:00:00 14.84 C 11.05 g/m*3 14.84 C 0 km/h
309 17-08-2010 20:00:00 14.32 C 11.02 g/m*3 14.32 C 0 km/h
310 17-08-2010 21:00:00 14.38 C 11.31 g/m*3 14.38 C 0 km/h
311 17-08-2010 22:00:00 14.62 C 10.75 g/m*3 14.62 C 0 km/h
312 17-08-2010 23:00:00 15 C 10.05 g/m*3 15 C 0 km/h
313 18-08-2010 00:00:00 15.52 C 9.66 g/m*3 15.52 C 0 km/h
314 18-08-2010 01:00:00 15.76 C 9.43 g/m*3 15.76 C 0 km/h
315 18-08-2010 02:00:00 15.54 C 9.43 g/m*3 15.54 C 0 km/h
316 18-08-2010 03:00:00 15.46 C 9.49 g/m*3 15.46 C 0 km/h
317 18-08-2010 04:00:00 15.2 C 9.55 g/m*3 15.2 C 0 km/h
318 18-08-2010 05:00:00 14.96 C 9.8 g/m*3 14.96 C 0 km/h
319 18-08-2010 06:00:00 15.08 C 9.56 g/m*3 15.08 C 0 km/h
320 18-08-2010 07:00:00 15.44 C 9.69 g/m*3 15.44 C 0 km/h
321 18-08-2010 08:00:00 16.16 C 9.88 g/m*3 16.16 C 0 km/h
322 18-08-2010 09:00:00 17.1 C 10.16 g/m*3 17.1 C 0 km/h
323 18-08-2010 10:00:00 18.16 C 10.2 g/m*3 18.16 C 0 km/h
324 18-08-2010 11:00:00 18.7 C 10.18 g/m*3 18.7 C 0 km/h
325 18-08-2010 12:00:00 18.82 C 10.67 g/m*3 18.82 C 0 km/h
Sensor: Nr:Datum:Temp:Abs-Feuchte:Windchill:Wind:
Aussen-T/F 326 18-08-2010 13:00:00 20.8 C 10.25 g/m*3 20.8 C 0 km/h
327 18-08-2010 14:00:00 22.84 C 9.04 g/m*3 22.84 C 0 km/h
328 18-08-2010 15:00:00 22.24 C 9.01 g/m*3 22.24 C 0 km/h
329 18-08-2010 16:00:00 23.68 C 9.02 g/m*3 23.68 C 0 km/h
330 18-08-2010 17:00:00 23.88 C 8.86 g/m*3 23.88 C 0 km/h
331 18-08-2010 18:00:00 22.36 C 9.15 g/m*3 22.36 C 0 km/h
332 18-08-2010 19:00:00 20.68 C 9.35 g/m*3 20.68 C 0 km/h
333 18-08-2010 20:00:00 19.44 C 10 g/m*3 19.44 C 0 km/h
334 18-08-2010 21:00:00 18.82 C 10.19 g/m*3 18.82 C 0 km/h
335 18-08-2010 22:00:00 17.6 C 10.59 g/m*3 17.6 C 0 km/h
336 18-08-2010 23:00:00 17.58 C 10.19 g/m*3 17.58 C 0 km/h
337 19-08-2010 00:00:00 17.36 C 9.14 g/m*3 17.36 C 0 km/h
338 19-08-2010 01:00:00 16.86 C 9.18 g/m*3 16.86 C 0 km/h
339 19-08-2010 02:00:00 16.32 C 8.81 g/m*3 16.32 C 0 km/h
340 19-08-2010 03:00:00 15.9 C 9.21 g/m*3 15.9 C 0 km/h
341 19-08-2010 04:00:00 15.54 C 9.38 g/m*3 15.54 C 0 km/h
342 19-08-2010 05:00:00 15.1 C 9.31 g/m*3 15.1 C 0 km/h
343 19-08-2010 06:00:00 14.18 C 8.9 g/m*3 14.18 C 0 km/h
344 19-08-2010 07:00:00 13.92 C 8.21 g/m*3 13.92 C 0 km/h
345 19-08-2010 08:00:00 14.78 C 8.05 g/m*3 14.78 C 0 km/h
346 19-08-2010 09:00:00 15.72 C 8.06 g/m*3 15.72 C 0 km/h
347 19-08-2010 10:00:00 17.9 C 7.7 g/m*3 17.9 C 0 km/h
348 19-08-2010 11:00:00 20 C 7.26 g/m*3 20 C 0 km/h
349 19-08-2010 12:00:00 21.44 C 6.65 g/m*3 21.44 C 0 km/h
350 19-08-2010 13:00:00 22.64 C 6.16 g/m*3 22.64 C 0 km/h
Sensor: Nr:Datum:Temp:Abs-Feuchte:Windchill:Wind:
Aussen-T/F 351 19-08-2010 14:00:00 23.04 C 6.02 g/m*3 23.04 C 0 km/h
352 19-08-2010 15:00:00 23.74 C 6.22 g/m*3 23.74 C 0 km/h
353 19-08-2010 16:00:00 23.28 C 7.64 g/m*3 23.28 C 0 km/h
354 19-08-2010 17:00:00 23.9 C 7.53 g/m*3 23.9 C 0 km/h
355 19-08-2010 18:00:00 25.42 C 5.75 g/m*3 25.42 C 0 km/h
356 19-08-2010 19:00:00 25.24 C 6.63 g/m*3 25.24 C 0 km/h
357 19-08-2010 20:00:00 20.5 C 7.15 g/m*3 20.5 C 0 km/h
358 19-08-2010 21:00:00 18.08 C 7.78 g/m*3 18.08 C 0 km/h
359 19-08-2010 22:00:00 16.86 C 8.01 g/m*3 16.86 C 0 km/h
360 19-08-2010 23:00:00 15.62 C 8.36 g/m*3 15.62 C 0 km/h
361 20-08-2010 00:00:00 14.72 C 8.55 g/m*3 14.72 C 0 km/h
362 20-08-2010 01:00:00 14.04 C 8.61 g/m*3 14.04 C 0 km/h
363 20-08-2010 02:00:00 13.34 C 8.59 g/m*3 13.34 C 0 km/h
364 20-08-2010 03:00:00 12.8 C 8.62 g/m*3 12.8 C 0 km/h
365 20-08-2010 04:00:00 12.26 C 8.58 g/m*3 12.26 C 0 km/h
366 20-08-2010 05:00:00 11.9 C 8.56 g/m*3 11.9 C 0 km/h
367 20-08-2010 06:00:00 11.48 C 8.54 g/m*3 11.48 C 0 km/h
368 20-08-2010 07:00:00 11.76 C 8.78 g/m*3 11.76 C 0 km/h
369 20-08-2010 08:00:00 12.54 C 9.19 g/m*3 12.54 C 0 km/h
370 20-08-2010 09:00:00 14.5 C 9.85 g/m*3 14.5 C 0 km/h
371 20-08-2010 10:00:00 18.02 C 10.3 g/m*3 18.02 C 0 km/h
372 20-08-2010 11:00:00 20.98 C 10.87 g/m*3 20.98 C 0 km/h
373 20-08-2010 12:00:00 23.76 C 10.86 g/m*3 23.76 C 0 km/h
374 20-08-2010 13:00:00 26.76 C 9.04 g/m*3 26.76 C 0 km/h
375 20-08-2010 14:00:00 28.36 C 7.82 g/m*3 28.36 C 0 km/h
Sensor: Nr:Datum:Temp:Abs-Feuchte:Windchill:Wind:
Aussen-T/F 376 20-08-2010 15:00:00 29.54 C 7.45 g/m*3 29.54 C 0 km/h
377 20-08-2010 16:00:00 30.72 C 7.57 g/m*3 30.72 C 0 km/h
378 20-08-2010 17:00:00 31.16 C 7.29 g/m*3 31.16 C 0 km/h
379 20-08-2010 18:00:00 31.22 C 7.64 g/m*3 31.22 C 0 km/h
380 20-08-2010 19:00:00 29.58 C 8.42 g/m*3 29.58 C 0 km/h
381 20-08-2010 20:00:00 25.1 C 9.07 g/m*3 25.1 C 0 km/h
382 20-08-2010 21:00:00 23.08 C 9.58 g/m*3 23.08 C 0 km/h
383 20-08-2010 22:00:00 22.025 C 10.2 g/m*3 22.03 C 0 km/h
384 20-08-2010 23:00:00 20.9 C 10.64 g/m*3 20.9 C 0 km/h
385 21-08-2010 00:00:00 19.76 C 10.77 g/m*3 19.76 C 0 km/h
386 21-08-2010 01:00:00 18.84 C 11.01 g/m*3 18.84 C 0 km/h
387 21-08-2010 02:00:00 18.16 C 11.04 g/m*3 18.16 C 0 km/h
388 21-08-2010 03:00:00 17.66 C 11.11 g/m*3 17.66 C 0 km/h
389 21-08-2010 04:00:00 17.06 C 11.12 g/m*3 17.06 C 0 km/h
390 21-08-2010 05:00:00 16.46 C 10.95 g/m*3 16.46 C 0 km/h
391 21-08-2010 06:00:00 16.04 C 10.9 g/m*3 16.04 C 0 km/h
392 21-08-2010 07:00:00 16 C 11.06 g/m*3 16 C 0 km/h
393 21-08-2010 08:00:00 16.78 C 11.54 g/m*3 16.78 C 0 km/h
394 21-08-2010 09:00:00 18.42 C 12.22 g/m*3 18.42 C 0 km/h
395 21-08-2010 10:00:00 21.4 C 12.86 g/m*3 21.4 C 0 km/h
396 21-08-2010 11:00:00 24.76 C 12.17 g/m*3 24.76 C 0 km/h
397 21-08-2010 12:00:00 27.54 C 9.81 g/m*3 27.54 C 0 km/h
398 21-08-2010 13:00:00 29.12 C 9.19 g/m*3 29.12 C 0 km/h
399 21-08-2010 14:00:00 30.42 C 8.69 g/m*3 30.42 C 0 km/h
400 21-08-2010 15:00:00 31.28 C 8.51 g/m*3 31.28 C 0 km/h
Sensor: Nr:Datum:Temp:Abs-Feuchte:Windchill:Wind:
Aussen-T/F 401 21-08-2010 16:00:00 32.14 C 7.89 g/m*3 32.14 C 0 km/h
402 21-08-2010 17:00:00 32.38 C 7.58 g/m*3 32.38 C 0 km/h
403 21-08-2010 18:00:00 32.42 C 7.39 g/m*3 32.42 C 0 km/h
404 21-08-2010 19:00:00 31.66 C 7.96 g/m*3 31.66 C 0 km/h
405 21-08-2010 20:00:00 28.82 C 9.33 g/m*3 28.82 C 0 km/h
406 21-08-2010 21:00:00 25.72 C 10.26 g/m*3 25.72 C 0 km/h
407 21-08-2010 22:00:00 24.34 C 10.87 g/m*3 24.34 C 0 km/h
408 21-08-2010 23:00:00 23.16 C 11.24 g/m*3 23.16 C 0 km/h
409 22-08-2010 00:00:00 22 C 11.45 g/m*3 22 C 0 km/h
410 22-08-2010 01:00:00 21.04 C 11.68 g/m*3 21.04 C 0 km/h
411 22-08-2010 02:00:00 20.14 C 11.88 g/m*3 20.14 C 0 km/h
412 22-08-2010 03:00:00 19.52 C 12.1 g/m*3 19.52 C 0 km/h
413 22-08-2010 04:00:00 19.16 C 12.11 g/m*3 19.16 C 0 km/h
414 22-08-2010 05:00:00 18.54 C 12.08 g/m*3 18.54 C 0 km/h
415 22-08-2010 06:00:00 18 C 12.01 g/m*3 18 C 0 km/h
416 22-08-2010 07:00:00 18.3 C 12.2 g/m*3 18.3 C 0 km/h
417 22-08-2010 08:00:00 18.96 C 12.62 g/m*3 18.96 C 0 km/h
418 22-08-2010 09:00:00 20.32 C 12.64 g/m*3 20.32 C 0 km/h
419 22-08-2010 10:00:00 23.1 C 12.69 g/m*3 23.1 C 0 km/h
420 22-08-2010 11:00:00 24.88 C 12.71 g/m*3 24.88 C 0 km/h
421 22-08-2010 12:00:00 27.46 C 11.67 g/m*3 27.46 C 0 km/h
422 22-08-2010 13:00:00 28.44 C 10.53 g/m*3 28.44 C 0 km/h
423 22-08-2010 14:00:00 28.74 C 10.48 g/m*3 28.74 C 0 km/h
424 22-08-2010 15:00:00 25.76 C 12.2 g/m*3 25.76 C 0 km/h
425 22-08-2010 16:00:00 27.8 C 11.89 g/m*3 27.8 C 0 km/h
Sensor: Nr:Datum:Temp:Abs-Feuchte:Windchill:Wind:
Aussen-T/F 426 22-08-2010 17:00:00 26.68 C 11.88 g/m*3 26.68 C 0 km/h
427 22-08-2010 18:00:00 26.28 C 11.72 g/m*3 26.28 C 0 km/h
428 22-08-2010 19:00:00 25.52 C 11.57 g/m*3 25.52 C 0 km/h
429 22-08-2010 20:00:00 24.42 C 10.65 g/m*3 24.42 C 0 km/h
430 22-08-2010 21:00:00 23.16 C 11.49 g/m*3 23.16 C 0 km/h
431 22-08-2010 22:00:00 22.66 C 11.69 g/m*3 22.66 C 0 km/h
432 22-08-2010 23:00:00 21.52 C 11.89 g/m*3 21.52 C 0 km/h
433 23-08-2010 00:00:00 20.88 C 12.01 g/m*3 20.88 C 0 km/h
434 23-08-2010 01:00:00 20.38 C 12.16 g/m*3 20.38 C 0 km/h
435 23-08-2010 02:00:00 20.02 C 12.32 g/m*3 20.02 C 0 km/h
436 23-08-2010 03:00:00 19.82 C 12.31 g/m*3 19.82 C 0 km/h
437 23-08-2010 04:00:00 19.52 C 12.33 g/m*3 19.52 C 0 km/h
438 23-08-2010 05:00:00 19.44 C 12.21 g/m*3 19.44 C 0 km/h
439 23-08-2010 06:00:00 19.48 C 12.34 g/m*3 19.48 C 0 km/h
440 23-08-2010 07:00:00 19.92 C 12.49 g/m*3 19.92 C 0 km/h
441 23-08-2010 08:00:00 19.74 C 13.31 g/m*3 19.74 C 0 km/h
442 23-08-2010 09:00:00 19.44 C 14.52 g/m*3 19.44 C 0 km/h
443 23-08-2010 10:00:00 20.64 C 15.07 g/m*3 20.64 C 0 km/h
444 23-08-2010 11:00:00 22.26 C 14.78 g/m*3 22.26 C 0 km/h
445 23-08-2010 12:00:00 23.08 C 15.61 g/m*3 23.08 C 0 km/h
446 23-08-2010 13:00:00 23.68 C 14.36 g/m*3 23.68 C 0 km/h
447 23-08-2010 14:00:00 24.34 C 14.28 g/m*3 24.34 C 0 km/h
448 23-08-2010 15:00:00 25.86 C 12.32 g/m*3 25.86 C 0 km/h
449 23-08-2010 16:00:00 25.94 C 11.4 g/m*3 25.94 C 0 km/h
450 23-08-2010 17:00:00 23.58 C 11.98 g/m*3 23.58 C 0 km/h
Sensor: Nr:Datum:Temp:Abs-Feuchte:Windchill:Wind:
Aussen-T/F 451 23-08-2010 18:00:00 21.12 C 13.76 g/m*3 21.12 C 0 km/h
452 23-08-2010 19:00:00 20.76 C 13.77 g/m*3 20.76 C 0 km/h
453 23-08-2010 20:00:00 20.34 C 12.94 g/m*3 20.34 C 0 km/h
454 23-08-2010 21:00:00 19.8 C 12.61 g/m*3 19.8 C 0 km/h
455 23-08-2010 22:00:00 19.58 C 12.24 g/m*3 19.58 C 0 km/h
456 23-08-2010 23:00:00 19.3 C 11.94 g/m*3 19.3 C 0 km/h
457 24-08-2010 00:00:00 19.18 C 12.09 g/m*3 19.18 C 0 km/h
458 24-08-2010 01:00:00 19.2 C 12.43 g/m*3 19.2 C 0 km/h
459 24-08-2010 02:00:00 19.68 C 12.28 g/m*3 19.68 C 0 km/h
460 24-08-2010 03:00:00 18.34 C 11.85 g/m*3 18.34 C 0 km/h
461 24-08-2010 04:00:00 18.06 C 9.53 g/m*3 18.06 C 0 km/h
462 24-08-2010 05:00:00 17.24 C 9.51 g/m*3 17.24 C 0 km/h
463 24-08-2010 06:00:00 17.08 C 9.48 g/m*3 17.08 C 0 km/h
464 24-08-2010 07:00:00 16.44 C 9.23 g/m*3 16.44 C 0 km/h
465 24-08-2010 08:00:00 16.16 C 8.45 g/m*3 16.16 C 0 km/h
466 24-08-2010 09:00:00 16.76 C 7.3 g/m*3 16.76 C 0 km/h
467 24-08-2010 10:00:00 17.88 C 7.23 g/m*3 17.88 C 0 km/h
468 24-08-2010 11:00:00 19.08 C 6.88 g/m*3 19.08 C 0 km/h
469 24-08-2010 12:00:00 20.04 C 6.34 g/m*3 20.04 C 0 km/h
470 24-08-2010 13:00:00 21 C 5.94 g/m*3 21 C 0 km/h
471 24-08-2010 14:00:00 21.46 C 5.49 g/m*3 21.46 C 0 km/h
472 24-08-2010 15:00:00 21.82 C 5.11 g/m*3 21.82 C 0 km/h
473 24-08-2010 16:00:00 23.04 C 4.61 g/m*3 23.04 C 0 km/h
474 24-08-2010 17:00:00 23.22 C 4.7 g/m*3 23.22 C 0 km/h
475 24-08-2010 18:00:00 22.92 C 5.11 g/m*3 22.92 C 0 km/h
Sensor: Nr:Datum:Temp:Abs-Feuchte:Windchill:Wind:
Aussen-T/F 476 24-08-2010 19:00:00 21.68 C 5.18 g/m*3 21.68 C 0 km/h
477 24-08-2010 20:00:00 19.76 C 5.79 g/m*3 19.76 C 0 km/h
478 24-08-2010 21:00:00 18.28 C 6.12 g/m*3 18.28 C 0 km/h
479 24-08-2010 22:00:00 17.4 C 6.28 g/m*3 17.4 C 0 km/h
480 24-08-2010 23:00:00 16.78 C 6.43 g/m*3 16.78 C 0 km/h
481 25-08-2010 00:00:00 16.16 C 6.55 g/m*3 16.16 C 0 km/h
482 25-08-2010 01:00:00 15.52 C 6.8 g/m*3 15.52 C 0 km/h
483 25-08-2010 02:00:00 14.66 C 7.11 g/m*3 14.66 C 0 km/h
484 25-08-2010 03:00:00 13.76 C 7.56 g/m*3 13.76 C 0 km/h
485 25-08-2010 04:00:00 13.4 C 7.7 g/m*3 13.4 C 0 km/h
486 25-08-2010 05:00:00 13.38 C 7.52 g/m*3 13.38 C 0 km/h
487 25-08-2010 06:00:00 12.94 C 7.71 g/m*3 12.94 C 0 km/h
488 25-08-2010 07:00:00 12.76 C 7.84 g/m*3 12.76 C 0 km/h
489 25-08-2010 08:00:00 13.54 C 7.86 g/m*3 13.54 C 0 km/h
490 25-08-2010 09:00:00 14.92 C 7.91 g/m*3 14.92 C 0 km/h
491 25-08-2010 10:00:00 16.3 C 7.8 g/m*3 16.3 C 0 km/h
492 25-08-2010 11:00:00 17.9 C 7.82 g/m*3 17.9 C 0 km/h
493 25-08-2010 12:00:00 20 C 7.19 g/m*3 20 C 0 km/h
494 25-08-2010 13:00:00 20.82 C 6.67 g/m*3 20.82 C 0 km/h
495 25-08-2010 14:00:00 21.46 C 6.43 g/m*3 21.46 C 0 km/h
496 25-08-2010 15:00:00 23.54 C 6.1 g/m*3 23.54 C 0 km/h
497 25-08-2010 16:00:00 24.46 C 5.67 g/m*3 24.46 C 0 km/h
498 25-08-2010 17:00:00 23.2 C 6.65 g/m*3 23.2 C 0 km/h
499 25-08-2010 18:00:00 21.9 C 7.1 g/m*3 21.9 C 0 km/h
500 25-08-2010 19:00:00 20.22 C 7.91 g/m*3 20.22 C 0 km/h
Sensor: Nr:Datum:Temp:Abs-Feuchte:Windchill:Wind:
Aussen-T/F 501 25-08-2010 20:00:00 19.04 C 8.23 g/m*3 19.04 C 0 km/h
502 25-08-2010 21:00:00 18.12 C 8.35 g/m*3 18.12 C 0 km/h
503 25-08-2010 22:00:00 17.56 C 8.5 g/m*3 17.56 C 0 km/h
504 25-08-2010 23:00:00 17.3 C 8.81 g/m*3 17.3 C 0 km/h
505 26-08-2010 00:00:00 17.28 C 9.06 g/m*3 17.28 C 0 km/h
506 26-08-2010 01:00:00 17.48 C 9.11 g/m*3 17.48 C 0 km/h
507 26-08-2010 02:00:00 16.88 C 9.97 g/m*3 16.88 C 0 km/h
508 26-08-2010 03:00:00 16.86 C 10.04 g/m*3 16.86 C 0 km/h
509 26-08-2010 04:00:00 16.94 C 9.86 g/m*3 16.94 C 0 km/h
510 26-08-2010 05:00:00 18.28 C 10.31 g/m*3 18.28 C 0 km/h
511 26-08-2010 06:00:00 18.18 C 10.53 g/m*3 18.18 C 0 km/h
512 26-08-2010 07:00:00 19.26 C 10.69 g/m*3 19.26 C 0 km/h
513 26-08-2010 08:00:00 20.2 C 11.12 g/m*3 20.2 C 0 km/h
514 26-08-2010 09:00:00 21.52 C 11.33 g/m*3 21.52 C 0 km/h
515 26-08-2010 10:00:00 22.76 C 11.19 g/m*3 22.76 C 0 km/h
516 26-08-2010 11:00:00 23.76 C 11.16 g/m*3 23.76 C 0 km/h
517 26-08-2010 12:00:00 23.54 C 11.15 g/m*3 23.54 C 0 km/h
518 26-08-2010 13:00:00 22.96 C 11.2 g/m*3 22.96 C 0 km/h
519 26-08-2010 14:00:00 23.8 C 11.19 g/m*3 23.8 C 0 km/h
520 26-08-2010 15:00:00 23.68 C 11.32 g/m*3 23.68 C 0 km/h
521 26-08-2010 16:00:00 23.94 C 11.28 g/m*3 23.94 C 0 km/h
522 26-08-2010 17:00:00 23.62 C 11.29 g/m*3 23.62 C 0 km/h
523 26-08-2010 18:00:00 23.18 C 11.67 g/m*3 23.18 C 0 km/h
524 26-08-2010 19:00:00 21.66 C 13.36 g/m*3 21.66 C 0 km/h
525 26-08-2010 20:00:00 20.94 C 14.49 g/m*3 20.94 C 0 km/h
Sensor: Nr:Datum:Temp:Abs-Feuchte:Windchill:Wind:
Aussen-T/F 526 26-08-2010 21:00:00 20.42 C 14.03 g/m*3 20.42 C 0 km/h
527 26-08-2010 22:00:00 19.76 C 14.62 g/m*3 19.76 C 0 km/h
528 26-08-2010 23:00:00 19.44 C 14.95 g/m*3 19.44 C 0 km/h
529 27-08-2010 00:00:00 18.98 C 14.91 g/m*3 18.98 C 0 km/h
530 27-08-2010 01:00:00 18.76 C 14.97 g/m*3 18.76 C 0 km/h
531 27-08-2010 02:00:00 18.62 C 14.98 g/m*3 18.62 C 0 km/h
532 27-08-2010 03:00:00 18.38 C 14.77 g/m*3 18.38 C 0 km/h
533 27-08-2010 04:00:00 18.34 C 14.73 g/m*3 18.34 C 0 km/h
534 27-08-2010 05:00:00 18.4 C 14.88 g/m*3 18.4 C 0 km/h
535 27-08-2010 06:00:00 18.82 C 15.32 g/m*3 18.82 C 0 km/h
536 27-08-2010 07:00:00 18.68 C 15.03 g/m*3 18.68 C 0 km/h
537 27-08-2010 08:00:00 18.58 C 14.94 g/m*3 18.58 C 0 km/h
538 27-08-2010 09:00:00 19.26 C 15.06 g/m*3 19.26 C 0 km/h
539 27-08-2010 10:00:00 19.32 C 14.35 g/m*3 19.32 C 0 km/h
540 27-08-2010 11:00:00 18.16 C 13.58 g/m*3 18.16 C 0 km/h
541 27-08-2010 12:00:00 20.1 C 13.52 g/m*3 20.1 C 0 km/h
542 27-08-2010 13:00:00 22.92 C 12.6 g/m*3 22.92 C 0 km/h
543 27-08-2010 14:00:00 20.76 C 12.07 g/m*3 20.76 C 0 km/h
544 27-08-2010 15:00:00 18.92 C 13.49 g/m*3 18.92 C 0 km/h
545 27-08-2010 16:00:00 21.9 C 12.89 g/m*3 21.9 C 0 km/h
546 27-08-2010 17:00:00 21.3 C 11.71 g/m*3 21.3 C 0 km/h
547 27-08-2010 18:00:00 16.8 C 12.01 g/m*3 16.8 C 0 km/h
548 27-08-2010 19:00:00 15.64 C 10.93 g/m*3 15.64 C 0 km/h
549 27-08-2010 20:00:00 15.12 C 10.44 g/m*3 15.12 C 0 km/h
550 27-08-2010 21:00:00 14.58 C 10.17 g/m*3 14.58 C 0 km/h
Sensor: Nr:Datum:Temp:Abs-Feuchte:Windchill:Wind:
Aussen-T/F 551 27-08-2010 22:00:00 14.74 C 10.02 g/m*3 14.74 C 0 km/h
552 27-08-2010 23:00:00 13.96 C 9.34 g/m*3 13.96 C 0 km/h
553 28-08-2010 00:00:00 13.78 C 9.21 g/m*3 13.78 C 0 km/h
554 28-08-2010 01:00:00 13.1 C 9.88 g/m*3 13.1 C 0 km/h
555 28-08-2010 02:00:00 13.14 C 9.82 g/m*3 13.14 C 0 km/h
556 28-08-2010 03:00:00 13.1 C 9.56 g/m*3 13.1 C 0 km/h
557 28-08-2010 04:00:00 12.54 C 9.3 g/m*3 12.54 C 0 km/h
558 28-08-2010 05:00:00 12.12 C 9.15 g/m*3 12.12 C 0 km/h
559 28-08-2010 06:00:00 11.58 C 8.76 g/m*3 11.58 C 0 km/h
560 28-08-2010 07:00:00 11.72 C 8.88 g/m*3 11.72 C 0 km/h
561 28-08-2010 08:00:00 13.08 C 8.94 g/m*3 13.08 C 0 km/h
562 28-08-2010 09:00:00 14.22 C 8.58 g/m*3 14.22 C 0 km/h
563 28-08-2010 10:00:00 15.14 C 8.35 g/m*3 15.14 C 0 km/h
564 28-08-2010 11:00:00 16.44 C 7.81 g/m*3 16.44 C 0 km/h
565 28-08-2010 12:00:00 15.42 C 8.71 g/m*3 15.42 C 0 km/h
566 28-08-2010 13:00:00 16.24 C 10.62 g/m*3 16.24 C 0 km/h
567 28-08-2010 14:00:00 15.6 C 7.69 g/m*3 15.6 C 0 km/h
568 28-08-2010 15:00:00 16.72 C 7.46 g/m*3 16.72 C 0 km/h
569 28-08-2010 16:00:00 15.1 C 8.08 g/m*3 15.1 C 0 km/h
570 28-08-2010 17:00:00 15.6 C 8.67 g/m*3 15.6 C 0 km/h
571 28-08-2010 18:00:00 17.56 C 7.42 g/m*3 17.56 C 0 km/h
572 28-08-2010 19:00:00 15.26 C 8.34 g/m*3 15.26 C 0 km/h
573 28-08-2010 20:00:00 13.1 C 9.04 g/m*3 13.1 C 0 km/h
574 28-08-2010 21:00:00 12.46 C 9.12 g/m*3 12.46 C 0 km/h
575 28-08-2010 22:00:00 12.24 C 8.96 g/m*3 12.24 C 0 km/h
Sensor: Nr:Datum:Temp:Abs-Feuchte:Windchill:Wind:
Aussen-T/F 576 28-08-2010 23:00:00 12.36 C 8.72 g/m*3 12.36 C 0 km/h
577 29-08-2010 00:00:00 11.9 C 8.47 g/m*3 11.9 C 0 km/h
578 29-08-2010 01:00:00 11.5 C 8.45 g/m*3 11.5 C 0 km/h
579 29-08-2010 02:00:00 11.74 C 8.54 g/m*3 11.74 C 0 km/h
580 29-08-2010 03:00:00 11.76 C 8.48 g/m*3 11.76 C 0 km/h
581 29-08-2010 04:00:00 11.5 C 8.39 g/m*3 11.5 C 0 km/h
582 29-08-2010 05:00:00 11.74 C 8.33 g/m*3 11.74 C 0 km/h
583 29-08-2010 06:00:00 12.1 C 8.3 g/m*3 12.1 C 0 km/h
584 29-08-2010 07:00:00 12.2 C 8.33 g/m*3 12.2 C 0 km/h
585 29-08-2010 08:00:00 12.44 C 8.35 g/m*3 12.44 C 0 km/h
586 29-08-2010 09:00:00 14 C 8.18 g/m*3 14 C 0 km/h
587 29-08-2010 10:00:00 15.4 C 8.04 g/m*3 15.4 C 0 km/h
588 29-08-2010 11:00:00 16.26 C 7.92 g/m*3 16.26 C 0 km/h
589 29-08-2010 12:00:00 15.12 C 9.04 g/m*3 15.12 C 0 km/h
590 29-08-2010 13:00:00 16.04 C 8.71 g/m*3 16.04 C 0 km/h
591 29-08-2010 14:00:00 16.46 C 8.4 g/m*3 16.46 C 0 km/h
592 29-08-2010 15:00:00 15.08 C 8.92 g/m*3 15.08 C 0 km/h
593 29-08-2010 16:00:00 15.76 C 8.51 g/m*3 15.76 C 0 km/h
594 29-08-2010 17:00:00 14.96 C 8.31 g/m*3 14.96 C 0 km/h
595 29-08-2010 18:00:00 13.06 C 9.31 g/m*3 13.06 C 0 km/h
596 29-08-2010 19:00:00 12 C 9.29 g/m*3 12 C 0 km/h
597 29-08-2010 20:00:00 11.78 C 8.96 g/m*3 11.78 C 0 km/h
598 29-08-2010 21:00:00 11.64 C 8.71 g/m*3 11.64 C 0 km/h
599 29-08-2010 22:00:00 9.2 C 8.02 g/m*3 9.2 C 0 km/h
600 29-08-2010 23:00:00 9.12 C 8.16 g/m*3 9.12 C 0 km/h
Sensor: Nr:Datum:Temp:Abs-Feuchte:Windchill:Wind:
Aussen-T/F 601 30-08-2010 00:00:00 9.2 C 7.98 g/m*3 9.2 C 0 km/h
602 30-08-2010 01:00:00 9.94 C 7.84 g/m*3 9.94 C 0 km/h
603 30-08-2010 02:00:00 10.52 C 7.77 g/m*3 10.52 C 0 km/h
604 30-08-2010 03:00:00 10.82 C 7.66 g/m*3 10.82 C 0 km/h
605 30-08-2010 04:00:00 10.26 C 7.99 g/m*3 10.26 C 0 km/h
606 30-08-2010 05:00:00 9.62 C 8.02 g/m*3 9.62 C 0 km/h
607 30-08-2010 06:00:00 10.06 C 8.47 g/m*3 10.06 C 0 km/h
608 30-08-2010 07:00:00 9.96 C 8.4 g/m*3 9.96 C 0 km/h
609 30-08-2010 08:00:00 10.82 C 8.63 g/m*3 10.82 C 0 km/h
610 30-08-2010 09:00:00 10.98 C 8.64 g/m*3 10.98 C 0 km/h
611 30-08-2010 10:00:00 11.86 C 8.83 g/m*3 11.86 C 0 km/h
612 30-08-2010 11:00:00 13 C 8.32 g/m*3 13 C 0 km/h
613 30-08-2010 12:00:00 14.02 C 7.63 g/m*3 14.02 C 0 km/h
614 30-08-2010 13:00:00 16.04 C 6.77 g/m*3 16.04 C 0 km/h
615 30-08-2010 14:00:00 16.28 C 7.73 g/m*3 16.28 C 0 km/h
616 30-08-2010 15:00:00 17.48 C 7.8 g/m*3 17.48 C 0 km/h
617 30-08-2010 16:00:00 15.86 C 9.16 g/m*3 15.86 C 0 km/h
618 30-08-2010 17:00:00 15.04 C 9.23 g/m*3 15.04 C 0 km/h
619 30-08-2010 18:00:00 14.32 C 8.76 g/m*3 14.32 C 0 km/h
620 30-08-2010 19:00:00 14.04 C 8.97 g/m*3 14.04 C 0 km/h
621 30-08-2010 20:00:00 13.76 C 8.72 g/m*3 13.76 C 0 km/h
622 30-08-2010 21:00:00 12.72 C 9.56 g/m*3 12.72 C 0 km/h
623 30-08-2010 22:00:00 12.72 C 9.92 g/m*3 12.72 C 0 km/h
624 30-08-2010 23:00:00 12.3 C 9.69 g/m*3 12.3 C 0 km/h
625 31-08-2010 00:00:00 12.22 C 9.62 g/m*3 12.22 C 0 km/h
Sensor: Nr:Datum:Temp:Abs-Feuchte:Windchill:Wind:
Aussen-T/F 626 31-08-2010 01:00:00 12.42 C 9.45 g/m*3 12.42 C 0 km/h
627 31-08-2010 02:00:00 12.36 C 9.31 g/m*3 12.36 C 0 km/h
628 31-08-2010 03:00:00 12.1 C 9.07 g/m*3 12.1 C 0 km/h
629 31-08-2010 04:00:00 11.52 C 9.06 g/m*3 11.52 C 0 km/h
630 31-08-2010 05:00:00 11.38 C 9.04 g/m*3 11.38 C 0 km/h
631 31-08-2010 06:00:00 11.7 C 9.22 g/m*3 11.7 C 0 km/h
632 31-08-2010 07:00:00 12.2 C 9.09 g/m*3 12.2 C 0 km/h
633 31-08-2010 08:00:00 12.64 C 9.07 g/m*3 12.64 C 0 km/h
634 31-08-2010 09:00:00 13.58 C 8.86 g/m*3 13.58 C 0 km/h
635 31-08-2010 10:00:00 14.14 C 8.35 g/m*3 14.14 C 0 km/h
636 31-08-2010 11:00:00 15.6 C 8.09 g/m*3 15.6 C 0 km/h
637 31-08-2010 12:00:00 16.88 C 7.93 g/m*3 16.88 C 0 km/h
638 31-08-2010 13:00:00 17.96 C 6.99 g/m*3 17.96 C 0 km/h
639 31-08-2010 14:00:00 20.16 C 6.45 g/m*3 20.16 C 0 km/h
640 31-08-2010 15:00:00 21.2 C 5.86 g/m*3 21.2 C 0 km/h
641 31-08-2010 16:00:00 21.46 C 5.64 g/m*3 21.46 C 0 km/h
642 31-08-2010 17:00:00 21.82 C 5.57 g/m*3 21.82 C 0 km/h
643 31-08-2010 18:00:00 22.26 C 5.67 g/m*3 22.26 C 0 km/h
644 31-08-2010 19:00:00 20.32 C 6.55 g/m*3 20.32 C 0 km/h
645 31-08-2010 20:00:00 16.38 C 7.17 g/m*3 16.38 C 0 km/h
646 31-08-2010 21:00:00 14.44 C 7.61 g/m*3 14.44 C 0 km/h
647 31-08-2010 22:00:00 13.24 C 8.1 g/m*3 13.24 C 0 km/h
648 31-08-2010 23:00:00 12.32 C 8.09 g/m*3 12.32 C 0 km/h
649 01-09-2010 00:00:00 11.58 C 8.08 g/m*3 11.58 C 0 km/h
650 01-09-2010 01:00:00 10.98 C 8.1 g/m*3 10.98 C 0 km/h
Sensor: Nr:Datum:Temp:Abs-Feuchte:Windchill:Wind:
Aussen-T/F 651 01-09-2010 02:00:00 10.36 C 7.96 g/m*3 10.36 C 0 km/h
652 01-09-2010 03:00:00 9.74 C 7.97 g/m*3 9.74 C 0 km/h
653 01-09-2010 04:00:00 9.14 C 7.86 g/m*3 9.14 C 0 km/h
654 01-09-2010 05:00:00 8.92 C 7.95 g/m*3 8.92 C 0 km/h
655 01-09-2010 06:00:00 8.94 C 8.04 g/m*3 8.94 C 0 km/h
656 01-09-2010 07:00:00 9.02 C 7.98 g/m*3 9.02 C 0 km/h
657 01-09-2010 08:00:00 9.26 C 8.05 g/m*3 9.26 C 0 km/h
658 01-09-2010 09:00:00 10.22 C 8.14 g/m*3 10.22 C 0 km/h
659 01-09-2010 10:00:00 12.1 C 8.56 g/m*3 12.1 C 0 km/h
660 01-09-2010 11:00:00 14.26 C 8.78 g/m*3 14.26 C 0 km/h
661 01-09-2010 12:00:00 17.24 C 8.54 g/m*3 17.24 C 0 km/h
662 01-09-2010 13:00:00 19.52 C 7.96 g/m*3 19.52 C 0 km/h
663 01-09-2010 14:00:00 21.18 C 7.03 g/m*3 21.18 C 0 km/h
664 01-09-2010 15:00:00 23.6 C 6 g/m*3 23.6 C 0 km/h
665 01-09-2010 16:00:00 23.8 C 6.02 g/m*3 23.8 C 0 km/h
666 01-09-2010 17:00:00 22.04 C 6.38 g/m*3 22.04 C 0 km/h
667 01-09-2010 18:00:00 21.1 C 6.96 g/m*3 21.1 C 0 km/h
668 01-09-2010 19:00:00 19.62 C 7.88 g/m*3 19.62 C 0 km/h
669 01-09-2010 20:00:00 17.36 C 8.72 g/m*3 17.36 C 0 km/h
670 01-09-2010 21:00:00 16.24 C 8.85 g/m*3 16.24 C 0 km/h
671 01-09-2010 22:00:00 15.55 C 8.82 g/m*3 15.55 C 0 km/h
672 01-09-2010 23:00:00 14.16 C 8.28 g/m*3 14.16 C 0 km/h
673 02-09-2010 00:00:00 13.02 C 8.22 g/m*3 13.02 C 0 km/h
674 02-09-2010 01:00:00 12.32 C 8.37 g/m*3 12.32 C 0 km/h
675 02-09-2010 02:00:00 11.6 C 8.56 g/m*3 11.6 C 0 km/h
Sensor: Nr:Datum:Temp:Abs-Feuchte:Windchill:Wind:
Aussen-T/F 676 02-09-2010 03:00:00 11 C 8.31 g/m*3 11 C 0 km/h
677 02-09-2010 04:00:00 10.44 C 8.29 g/m*3 10.44 C 0 km/h
678 02-09-2010 05:00:00 10.32 C 8.5 g/m*3 10.32 C 0 km/h
679 02-09-2010 06:00:00 10.34 C 8.6 g/m*3 10.34 C 0 km/h
680 02-09-2010 07:00:00 10.68 C 8.81 g/m*3 10.68 C 0 km/h
681 02-09-2010 08:00:00 11.34 C 8.96 g/m*3 11.34 C 0 km/h
682 02-09-2010 09:00:00 12.4 C 8.98 g/m*3 12.4 C 0 km/h
683 02-09-2010 10:00:00 14.02 C 8.65 g/m*3 14.02 C 0 km/h
684 02-09-2010 11:00:00 15.46 C 9.02 g/m*3 15.46 C 0 km/h
685 02-09-2010 12:00:00 18.66 C 8.75 g/m*3 18.66 C 0 km/h
686 02-09-2010 13:00:00 20.84 C 7.37 g/m*3 20.84 C 0 km/h
687 02-09-2010 14:00:00 22.2 C 7.22 g/m*3 22.2 C 0 km/h
688 02-09-2010 15:00:00 21.42 C 6.91 g/m*3 21.42 C 0 km/h
689 02-09-2010 16:00:00 20.6 C 6.91 g/m*3 20.6 C 0 km/h
690 02-09-2010 17:00:00 19.54 C 7.13 g/m*3 19.54 C 0 km/h
691 02-09-2010 18:00:00 18.66 C 7.41 g/m*3 18.66 C 0 km/h
692 02-09-2010 19:00:00 17.64 C 8.93 g/m*3 17.64 C 0 km/h
693 02-09-2010 20:00:00 15.14 C 10.01 g/m*3 15.14 C 0 km/h
694 02-09-2010 21:00:00 14.42 C 9.85 g/m*3 14.42 C 0 km/h
695 02-09-2010 22:00:00 13.84 C 9.34 g/m*3 13.84 C 0 km/h
696 02-09-2010 23:00:00 12.98 C 9.2 g/m*3 12.98 C 0 km/h
697 03-09-2010 00:00:00 12.42 C 9.1 g/m*3 12.42 C 0 km/h
698 03-09-2010 01:00:00 11.82 C 8.92 g/m*3 11.82 C 0 km/h
699 03-09-2010 02:00:00 11.24 C 8.76 g/m*3 11.24 C 0 km/h
700 03-09-2010 03:00:00 10.72 C 8.63 g/m*3 10.72 C 0 km/h
Sensor: Nr:Datum:Temp:Abs-Feuchte:Windchill:Wind:
Aussen-T/F 701 03-09-2010 04:00:00 10.34 C 8.6 g/m*3 10.34 C 0 km/h
702 03-09-2010 05:00:00 10.4 C 8.75 g/m*3 10.4 C 0 km/h
703 03-09-2010 06:00:00 11.08 C 9.24 g/m*3 11.08 C 0 km/h
704 03-09-2010 07:00:00 11.36 C 9.32 g/m*3 11.36 C 0 km/h
705 03-09-2010 08:00:00 11.64 C 9.34 g/m*3 11.64 C 0 km/h
706 03-09-2010 09:00:00 12.44 C 9.29 g/m*3 12.44 C 0 km/h
707 03-09-2010 10:00:00 13.58 C 9.22 g/m*3 13.58 C 0 km/h
708 03-09-2010 11:00:00 15.9 C 8.94 g/m*3 15.9 C 0 km/h
709 03-09-2010 12:00:00 17.86 C 8.47 g/m*3 17.86 C 0 km/h
710 03-09-2010 13:00:00 19.68 C 8.18 g/m*3 19.68 C 0 km/h
711 03-09-2010 14:00:00 20.4 C 7.64 g/m*3 20.4 C 0 km/h
712 03-09-2010 15:00:00 22.78 C 7.02 g/m*3 22.78 C 0 km/h
713 03-09-2010 16:00:00 25.12 C 6.58 g/m*3 25.12 C 0 km/h
714 03-09-2010 17:00:00 24.12 C 6.53 g/m*3 24.12 C 0 km/h
715 03-09-2010 18:00:00 22.7 C 8.12 g/m*3 22.7 C 0 km/h
716 03-09-2010 19:00:00 20.7 C 8.86 g/m*3 20.7 C 0 km/h
717 03-09-2010 20:00:00 18.62 C 8.25 g/m*3 18.62 C 0 km/h
718 03-09-2010 21:00:00 16.32 C 8.56 g/m*3 16.32 C 0 km/h
719 03-09-2010 22:00:00 15.36 C 8.86 g/m*3 15.36 C 0 km/h
720 03-09-2010 23:00:00 15.34 C 9.22 g/m*3 15.34 C 0 km/h
721 04-09-2010 00:00:00 15.1 C 9.29 g/m*3 15.1 C 0 km/h
722 04-09-2010 01:00:00 14.82 C 9.41 g/m*3 14.82 C 0 km/h
723 04-09-2010 02:00:00 14.28 C 9.4 g/m*3 14.28 C 0 km/h
724 04-09-2010 03:00:00 13.72 C 9.41 g/m*3 13.72 C 0 km/h
725 04-09-2010 04:00:00 13.2 C 9.48 g/m*3 13.2 C 0 km/h
Sensor: Nr:Datum:Temp:Abs-Feuchte:Windchill:Wind:
Aussen-T/F 726 04-09-2010 05:00:00 13.1 C 9.59 g/m*3 13.1 C 0 km/h
727 04-09-2010 06:00:00 12.54 C 9.3 g/m*3 12.54 C 0 km/h
728 04-09-2010 07:00:00 12.08 C 9.25 g/m*3 12.08 C 0 km/h
729 04-09-2010 08:00:00 12.8 C 9.77 g/m*3 12.8 C 0 km/h
730 04-09-2010 09:00:00 14.44 C 9.96 g/m*3 14.44 C 0 km/h
731 04-09-2010 10:00:00 16.3 C 9.49 g/m*3 16.3 C 0 km/h
732 04-09-2010 11:00:00 18.88 C 8.77 g/m*3 18.88 C 0 km/h
733 04-09-2010 12:00:00 18.86 C 7.89 g/m*3 18.86 C 0 km/h
734 04-09-2010 13:00:00 19.58 C 7.62 g/m*3 19.58 C 0 km/h
735 04-09-2010 14:00:00 22.2 C 6.71 g/m*3 22.2 C 0 km/h
736 04-09-2010 15:00:00 22.88 C 6.29 g/m*3 22.88 C 0 km/h
737 04-09-2010 16:00:00 22.42 C 5.53 g/m*3 22.42 C 0 km/h
738 04-09-2010 17:00:00 23.12 C 4.88 g/m*3 23.12 C 0 km/h
739 04-09-2010 18:00:00 22.74 C 4.37 g/m*3 22.74 C 0 km/h
740 04-09-2010 19:00:00 19.74 C 5.55 g/m*3 19.74 C 0 km/h
741 04-09-2010 20:00:00 16.14 C 6.54 g/m*3 16.14 C 0 km/h
742 04-09-2010 21:00:00 14.92 C 6.94 g/m*3 14.92 C 0 km/h
743 04-09-2010 22:00:00 14.16 C 7.26 g/m*3 14.16 C 0 km/h
744 04-09-2010 23:00:00 13.12 C 7.59 g/m*3 13.12 C 0 km/h
745 05-09-2010 00:00:00 12.16 C 7.62 g/m*3 12.16 C 0 km/h
746 05-09-2010 01:00:00 11.22 C 7.53 g/m*3 11.22 C 0 km/h
747 05-09-2010 02:00:00 10.44 C 7.52 g/m*3 10.44 C 0 km/h
748 05-09-2010 03:00:00 9.72 C 7.4 g/m*3 9.72 C 0 km/h
749 05-09-2010 04:00:00 9.12 C 7.27 g/m*3 9.12 C 0 km/h
750 05-09-2010 05:00:00 8.64 C 7.27 g/m*3 8.64 C 0 km/h
Sensor: Nr:Datum:Temp:Abs-Feuchte:Windchill:Wind:
Aussen-T/F 751 05-09-2010 06:00:00 8.08 C 7.25 g/m*3 8.08 C 0 km/h
752 05-09-2010 07:00:00 8.4 C 7.52 g/m*3 8.4 C 0 km/h
753 05-09-2010 08:00:00 9.82 C 7.91 g/m*3 9.82 C 0 km/h
754 05-09-2010 09:00:00 11.1 C 7.88 g/m*3 11.1 C 0 km/h
755 05-09-2010 10:00:00 12.36 C 8.44 g/m*3 12.36 C 0 km/h
756 05-09-2010 11:00:00 15.42 C 8.16 g/m*3 15.42 C 0 km/h
757 05-09-2010 12:00:00 18.02 C 6.52 g/m*3 18.02 C 0 km/h
758 05-09-2010 13:00:00 20.14 C 5.92 g/m*3 20.14 C 0 km/h
759 05-09-2010 14:00:00 23.5 C 5.2 g/m*3 23.5 C 0 km/h
760 05-09-2010 15:00:00 24.16 C 4.83 g/m*3 24.16 C 0 km/h
761 05-09-2010 16:00:00 24.4 C 4.67 g/m*3 24.4 C 0 km/h
762 05-09-2010 17:00:00 24.6 C 5.04 g/m*3 24.6 C 0 km/h
763 05-09-2010 18:00:00 24.84 C 5.29 g/m*3 24.84 C 0 km/h
764 05-09-2010 19:00:00 19.38 C 6.4 g/m*3 19.38 C 0 km/h
765 05-09-2010 20:00:00 16.44 C 6.38 g/m*3 16.44 C 0 km/h
766 05-09-2010 21:00:00 14.9 C 6.81 g/m*3 14.9 C 0 km/h
767 05-09-2010 22:00:00 14.12 C 7.1 g/m*3 14.12 C 0 km/h
768 05-09-2010 23:00:00 13.94 C 6.92 g/m*3 13.94 C 0 km/h
769 06-09-2010 00:00:00 13.22 C 7.08 g/m*3 13.22 C 0 km/h
770 06-09-2010 01:00:00 12.36 C 7.11 g/m*3 12.36 C 0 km/h
771 06-09-2010 02:00:00 11.62 C 7.2 g/m*3 11.62 C 0 km/h
772 06-09-2010 03:00:00 11.1 C 7.15 g/m*3 11.1 C 0 km/h
773 06-09-2010 04:00:00 10.7 C 7.09 g/m*3 10.7 C 0 km/h
774 06-09-2010 05:00:00 10.24 C 7.02 g/m*3 10.24 C 0 km/h
775 06-09-2010 06:00:00 9.56 C 7 g/m*3 9.56 C 0 km/h
Sensor: Nr:Datum:Temp:Abs-Feuchte:Windchill:Wind:
Aussen-T/F 776 06-09-2010 07:00:00 9.28 C 7.07 g/m*3 9.28 C 0 km/h
777 06-09-2010 08:00:00 9.68 C 7.22 g/m*3 9.68 C 0 km/h
778 06-09-2010 09:00:00 10.94 C 7.52 g/m*3 10.94 C 0 km/h
779 06-09-2010 10:00:00 13.48 C 7.52 g/m*3 13.48 C 0 km/h
780 06-09-2010 11:00:00 16.32 C 7.14 g/m*3 16.32 C 0 km/h
781 06-09-2010 12:00:00 18.64 C 5.58 g/m*3 18.64 C 0 km/h
782 06-09-2010 13:00:00 20.24 C 5.4 g/m*3 20.24 C 0 km/h
783 06-09-2010 14:00:00 22.34 C 4.51 g/m*3 22.34 C 0 km/h
784 06-09-2010 15:00:00 24 C 4.35 g/m*3 24 C 0 km/h
785 06-09-2010 16:00:00 23.88 C 4.32 g/m*3 23.88 C 0 km/h
786 06-09-2010 17:00:00 24.42 C 4.46 g/m*3 24.42 C 0 km/h
787 06-09-2010 18:00:00 21.44 C 5.34 g/m*3 21.44 C 0 km/h
788 06-09-2010 19:00:00 18.72 C 5.87 g/m*3 18.72 C 0 km/h
789 06-09-2010 20:00:00 17.1 C 5.62 g/m*3 17.1 C 0 km/h
790 06-09-2010 21:00:00 16.22 C 5.44 g/m*3 16.22 C 0 km/h
791 06-09-2010 22:00:00 15.5 C 5.6 g/m*3 15.5 C 0 km/h
792 06-09-2010 23:00:00 15.2 C 5.63 g/m*3 15.2 C 0 km/h
793 07-09-2010 00:00:00 15.38 C 5.51 g/m*3 15.38 C 0 km/h
794 07-09-2010 01:00:00 15.42 C 5.39 g/m*3 15.42 C 0 km/h
795 07-09-2010 02:00:00 15.46 C 5.38 g/m*3 15.46 C 0 km/h
796 07-09-2010 03:00:00 14.34 C 6.03 g/m*3 14.34 C 0 km/h
797 07-09-2010 04:00:00 13.06 C 7.01 g/m*3 13.06 C 0 km/h
798 07-09-2010 05:00:00 12.98 C 7.11 g/m*3 12.98 C 0 km/h
799 07-09-2010 06:00:00 12.5 C 7.04 g/m*3 12.5 C 0 km/h
800 07-09-2010 07:00:00 12.12 C 7.09 g/m*3 12.12 C 0 km/h
Sensor: Nr:Datum:Temp:Abs-Feuchte:Windchill:Wind:
Aussen-T/F 801 07-09-2010 08:00:00 11.56 C 8.11 g/m*3 11.56 C 0 km/h
802 07-09-2010 09:00:00 11.46 C 8.41 g/m*3 11.46 C 0 km/h
803 07-09-2010 10:00:00 11.46 C 8.88 g/m*3 11.46 C 0 km/h
804 07-09-2010 11:00:00 11.64 C 9.21 g/m*3 11.64 C 0 km/h
805 07-09-2010 12:00:00 12.42 C 9.5 g/m*3 12.42 C 0 km/h
806 07-09-2010 13:00:00 12.78 C 9.31 g/m*3 12.78 C 0 km/h
807 07-09-2010 14:00:00 13.36 C 9.37 g/m*3 13.36 C 0 km/h
808 07-09-2010 15:00:00 14.58 C 9.12 g/m*3 14.58 C 0 km/h
809 07-09-2010 16:00:00 15.52 C 9.11 g/m*3 15.52 C 0 km/h
810 07-09-2010 17:00:00 14.88 C 9.06 g/m*3 14.88 C 0 km/h
811 07-09-2010 18:00:00 13.98 C 9.08 g/m*3 13.98 C 0 km/h
812 07-09-2010 19:00:00 13.78 C 9.38 g/m*3 13.78 C 0 km/h
813 07-09-2010 20:00:00 13.24 C 9.55 g/m*3 13.24 C 0 km/h
814 07-09-2010 21:00:00 12.96 C 9.89 g/m*3 12.96 C 0 km/h
815 07-09-2010 22:00:00 12.86 C 10.03 g/m*3 12.86 C 0 km/h
816 07-09-2010 23:00:00 12.92 C 10.16 g/m*3 12.92 C 0 km/h
817 08-09-2010 00:00:00 12.88 C 10.24 g/m*3 12.88 C 0 km/h
818 08-09-2010 01:00:00 13 C 10.37 g/m*3 13 C 0 km/h
819 08-09-2010 02:00:00 13.2 C 10.61 g/m*3 13.2 C 0 km/h
820 08-09-2010 03:00:00 13.56 C 10.92 g/m*3 13.56 C 0 km/h
821 08-09-2010 04:00:00 13.56 C 10.92 g/m*3 13.56 C 0 km/h
822 08-09-2010 05:00:00 14.16 C 11.4 g/m*3 14.16 C 0 km/h
823 08-09-2010 06:00:00 14.36 C 11.44 g/m*3 14.36 C 0 km/h
824 08-09-2010 07:00:00 14.22 C 11.25 g/m*3 14.22 C 0 km/h
825 08-09-2010 08:00:00 14.22 C 11.25 g/m*3 14.22 C 0 km/h
Sensor: Nr:Datum:Temp:Abs-Feuchte:Windchill:Wind:
Aussen-T/F 826 08-09-2010 09:00:00 15.22 C 11.62 g/m*3 15.22 C 0 km/h
827 08-09-2010 10:00:00 15.52 C 11.41 g/m*3 15.52 C 0 km/h
828 08-09-2010 11:00:00 15.24 C 11.03 g/m*3 15.24 C 0 km/h
829 08-09-2010 12:00:00 14.74 C 11.26 g/m*3 14.74 C 0 km/h
830 08-09-2010 13:00:00 16.22 C 12.12 g/m*3 16.22 C 0 km/h
831 08-09-2010 14:00:00 17.58 C 11.56 g/m*3 17.58 C 0 km/h
832 08-09-2010 15:00:00 17.94 C 11.17 g/m*3 17.94 C 0 km/h
833 08-09-2010 16:00:00 18.54 C 10.69 g/m*3 18.54 C 0 km/h
834 08-09-2010 17:00:00 19.88 C 10.23 g/m*3 19.88 C 0 km/h
835 08-09-2010 18:00:00 19.06 C 10.24 g/m*3 19.06 C 0 km/h
836 08-09-2010 19:00:00 18.2 C 10.54 g/m*3 18.2 C 0 km/h
837 08-09-2010 20:00:00 16.8 C 10.52 g/m*3 16.8 C 0 km/h
838 08-09-2010 21:00:00 15.72 C 9.7 g/m*3 15.72 C 0 km/h
839 08-09-2010 22:00:00 14.78 C 9.79 g/m*3 14.78 C 0 km/h
840 08-09-2010 23:00:00 14.48 C 10.01 g/m*3 14.48 C 0 km/h
841 09-09-2010 00:00:00 14.38 C 10.2 g/m*3 14.38 C 0 km/h
842 09-09-2010 01:00:00 15.04 C 10.08 g/m*3 15.04 C 0 km/h
843 09-09-2010 02:00:00 15.14 C 9.93 g/m*3 15.14 C 0 km/h
844 09-09-2010 03:00:00 15.32 C 9.78 g/m*3 15.32 C 0 km/h
845 09-09-2010 04:00:00 15.22 C 9.33 g/m*3 15.22 C 0 km/h
846 09-09-2010 05:00:00 14.9 C 9.02 g/m*3 14.9 C 0 km/h
847 09-09-2010 06:00:00 14.78 C 8.88 g/m*3 14.78 C 0 km/h
848 09-09-2010 07:00:00 14.58 C 9.07 g/m*3 14.58 C 0 km/h
849 09-09-2010 08:00:00 14.8 C 9.1 g/m*3 14.8 C 0 km/h
850 09-09-2010 09:00:00 15.26 C 9.09 g/m*3 15.26 C 0 km/h
Sensor: Nr:Datum:Temp:Abs-Feuchte:Windchill:Wind:
Aussen-T/F 851 09-09-2010 10:00:00 16.76 C 9.1 g/m*3 16.76 C 0 km/h
852 09-09-2010 11:00:00 17.78 C 8.88 g/m*3 17.78 C 0 km/h
853 09-09-2010 12:00:00 18.64 C 8.17 g/m*3 18.64 C 0 km/h
854 09-09-2010 13:00:00 18.8 C 8.21 g/m*3 18.8 C 0 km/h
855 09-09-2010 14:00:00 18.98 C 8.59 g/m*3 18.98 C 0 km/h
856 09-09-2010 15:00:00 19.38 C 9.13 g/m*3 19.38 C 0 km/h
857 09-09-2010 16:00:00 17.1 C 10.92 g/m*3 17.1 C 0 km/h
858 09-09-2010 17:00:00 17.92 C 11.62 g/m*3 17.92 C 0 km/h
859 09-09-2010 18:00:00 17.7 C 10.47 g/m*3 17.7 C 0 km/h
860 09-09-2010 19:00:00 16.54 C 9.46 g/m*3 16.54 C 0 km/h
861 09-09-2010 20:00:00 15.4 C 9.78 g/m*3 15.4 C 0 km/h
862 09-09-2010 21:00:00 14.8 C 10.26 g/m*3 14.8 C 0 km/h
863 09-09-2010 22:00:00 14.74 C 10.17 g/m*3 14.74 C 0 km/h
864 09-09-2010 23:00:00 14.98 C 9.71 g/m*3 14.98 C 0 km/h
865 10-09-2010 00:00:00 14.66 C 9.92 g/m*3 14.66 C 0 km/h
866 10-09-2010 01:00:00 14 C 9.77 g/m*3 14 C 0 km/h
867 10-09-2010 02:00:00 13.9 C 9.95 g/m*3 13.9 C 0 km/h
868 10-09-2010 03:00:00 13.9 C 10.07 g/m*3 13.9 C 0 km/h
869 10-09-2010 04:00:00 13.84 C 10.25 g/m*3 13.84 C 0 km/h
870 10-09-2010 05:00:00 13.06 C 9.99 g/m*3 13.06 C 0 km/h
871 10-09-2010 06:00:00 13.12 C 10.24 g/m*3 13.12 C 0 km/h
872 10-09-2010 07:00:00 13.18 C 9.84 g/m*3 13.18 C 0 km/h
873 10-09-2010 08:00:00 13.32 C 9.95 g/m*3 13.32 C 0 km/h
874 10-09-2010 09:00:00 14.6 C 9.54 g/m*3 14.6 C 0 km/h
875 10-09-2010 10:00:00 16.16 C 9.35 g/m*3 16.16 C 0 km/h
Sensor: Nr:Datum:Temp:Abs-Feuchte:Windchill:Wind:
Aussen-T/F 876 10-09-2010 11:00:00 17.88 C 9.21 g/m*3 17.88 C 0 km/h
877 10-09-2010 12:00:00 18.74 C 9.18 g/m*3 18.74 C 0 km/h
878 10-09-2010 13:00:00 19.18 C 8.66 g/m*3 19.18 C 0 km/h
879 10-09-2010 14:00:00 19.94 C 8.75 g/m*3 19.94 C 0 km/h
880 10-09-2010 15:00:00 20.82 C 8.59 g/m*3 20.82 C 0 km/h
881 10-09-2010 16:00:00 21.1 C 8.44 g/m*3 21.1 C 0 km/h
882 10-09-2010 17:00:00 20.18 C 8.98 g/m*3 20.18 C 0 km/h
883 10-09-2010 18:00:00 17.86 C 10.21 g/m*3 17.86 C 0 km/h
884 10-09-2010 19:00:00 16.26 C 11.43 g/m*3 16.26 C 0 km/h
885 10-09-2010 20:00:00 15.68 C 11.57 g/m*3 15.68 C 0 km/h
886 10-09-2010 21:00:00 15.8 C 11.68 g/m*3 15.8 C 0 km/h
887 10-09-2010 22:00:00 15.68 C 11.44 g/m*3 15.68 C 0 km/h
888 10-09-2010 23:00:00 15.46 C 11.18 g/m*3 15.46 C 0 km/h
889 11-09-2010 00:00:00 15.14 C 10.86 g/m*3 15.14 C 0 km/h
890 11-09-2010 01:00:00 15 C 10.8 g/m*3 15 C 0 km/h
891 11-09-2010 02:00:00 14.74 C 10.73 g/m*3 14.74 C 0 km/h
892 11-09-2010 03:00:00 14.08 C 10.42 g/m*3 14.08 C 0 km/h
893 11-09-2010 04:00:00 13.14 C 9.86 g/m*3 13.14 C 0 km/h
894 11-09-2010 05:00:00 12.64 C 9.78 g/m*3 12.64 C 0 km/h
895 11-09-2010 06:00:00 12.74 C 9.91 g/m*3 12.74 C 0 km/h
896 11-09-2010 07:00:00 12.16 C 9.54 g/m*3 12.16 C 0 km/h
897 11-09-2010 08:00:00 13.04 C 10.23 g/m*3 13.04 C 0 km/h
898 11-09-2010 09:00:00 13.76 C 10.55 g/m*3 13.76 C 0 km/h
899 11-09-2010 10:00:00 15.66 C 11.32 g/m*3 15.66 C 0 km/h
900 11-09-2010 11:00:00 18.24 C 11.37 g/m*3 18.24 C 0 km/h
Sensor: Nr:Datum:Temp:Abs-Feuchte:Windchill:Wind:
Aussen-T/F 901 11-09-2010 12:00:00 19.9 C 9.59 g/m*3 19.9 C 0 km/h
902 11-09-2010 13:00:00 21.76 C 8.81 g/m*3 21.76 C 0 km/h
903 11-09-2010 14:00:00 24.2 C 8.14 g/m*3 24.2 C 0 km/h
904 11-09-2010 15:00:00 26.04 C 7.86 g/m*3 26.04 C 0 km/h
905 11-09-2010 16:00:00 26.34 C 8.19 g/m*3 26.34 C 0 km/h
906 11-09-2010 17:00:00 27.62 C 8.31 g/m*3 27.62 C 0 km/h
907 11-09-2010 18:00:00 26.06 C 9.28 g/m*3 26.06 C 0 km/h
908 11-09-2010 19:00:00 21.76 C 9.72 g/m*3 21.76 C 0 km/h
909 11-09-2010 20:00:00 19.34 C 9.51 g/m*3 19.34 C 0 km/h
910 11-09-2010 21:00:00 18.1 C 10.01 g/m*3 18.1 C 0 km/h
911 11-09-2010 22:00:00 17.2 C 10.28 g/m*3 17.2 C 0 km/h
912 11-09-2010 23:00:00 16.56 C 10.4 g/m*3 16.56 C 0 km/h
913 12-09-2010 00:00:00 16.06 C 10.42 g/m*3 16.06 C 0 km/h
914 12-09-2010 01:00:00 15.34 C 10.34 g/m*3 15.34 C 0 km/h
915 12-09-2010 02:00:00 14.88 C 10.39 g/m*3 14.88 C 0 km/h
916 12-09-2010 03:00:00 14.46 C 10.2 g/m*3 14.46 C 0 km/h
917 12-09-2010 04:00:00 14.1 C 10.07 g/m*3 14.1 C 0 km/h
918 12-09-2010 05:00:00 13.76 C 9.98 g/m*3 13.76 C 0 km/h
919 12-09-2010 06:00:00 13.52 C 9.93 g/m*3 13.52 C 0 km/h
920 12-09-2010 07:00:00 13.7 C 10.14 g/m*3 13.7 C 0 km/h
921 12-09-2010 08:00:00 14.26 C 10.3 g/m*3 14.26 C 0 km/h
922 12-09-2010 09:00:00 14.84 C 10.51 g/m*3 14.84 C 0 km/h
923 12-09-2010 10:00:00 16.94 C 11.16 g/m*3 16.94 C 0 km/h
924 12-09-2010 11:00:00 20.02 C 10.69 g/m*3 20.02 C 0 km/h
925 12-09-2010 12:00:00 21.62 C 10.75 g/m*3 21.62 C 0 km/h
Sensor: Nr:Datum:Temp:Abs-Feuchte:Windchill:Wind:
Aussen-T/F 926 12-09-2010 13:00:00 24.4 C 9.84 g/m*3 24.4 C 0 km/h
927 12-09-2010 14:00:00 23.86 C 9.2 g/m*3 23.86 C 0 km/h
928 12-09-2010 15:00:00 19.32 C 8.87 g/m*3 19.32 C 0 km/h
929 12-09-2010 16:00:00 17.78 C 9.19 g/m*3 17.78 C 0 km/h
930 12-09-2010 17:00:00 16.2 C 9.68 g/m*3 16.2 C 0 km/h
931 12-09-2010 18:00:00 14.92 C 10.59 g/m*3 14.92 C 0 km/h
932 12-09-2010 19:00:00 14.26 C 10.79 g/m*3 14.26 C 0 km/h
933 12-09-2010 20:00:00 13.82 C 10.81 g/m*3 13.82 C 0 km/h
934 12-09-2010 21:00:00 13.78 C 10.97 g/m*3 13.78 C 0 km/h
935 12-09-2010 22:00:00 13.78 C 11.07 g/m*3 13.78 C 0 km/h
936 12-09-2010 23:00:00 13.58 C 10.93 g/m*3 13.58 C 0 km/h
937 13-09-2010 00:00:00 13.68 C 11 g/m*3 13.68 C 0 km/h
938 13-09-2010 01:00:00 13.7 C 11.01 g/m*3 13.7 C 0 km/h
939 13-09-2010 02:00:00 13.52 C 10.89 g/m*3 13.52 C 0 km/h
940 13-09-2010 03:00:00 13.26 C 10.58 g/m*3 13.26 C 0 km/h
941 13-09-2010 04:00:00 13 C 10.21 g/m*3 13 C 0 km/h
942 13-09-2010 05:00:00 13.26 C 9.77 g/m*3 13.26 C 0 km/h
943 13-09-2010 06:00:00 13.3 C 9.57 g/m*3 13.3 C 0 km/h
944 13-09-2010 07:00:00 12.72 C 9.18 g/m*3 12.72 C 0 km/h
945 13-09-2010 08:00:00 13.04 C 9.62 g/m*3 13.04 C 0 km/h
946 13-09-2010 09:00:00 13.98 C 9.47 g/m*3 13.98 C 0 km/h
947 13-09-2010 10:00:00 15.32 C 9.05 g/m*3 15.32 C 0 km/h
948 13-09-2010 11:00:00 16.5 C 8.57 g/m*3 16.5 C 0 km/h
949 13-09-2010 12:00:00 17.24 C 7.93 g/m*3 17.24 C 0 km/h
950 13-09-2010 13:00:00 18.94 C 7.53 g/m*3 18.94 C 0 km/h
Sensor: Nr:Datum:Temp:Abs-Feuchte:Windchill:Wind:
Aussen-T/F 951 13-09-2010 14:00:00 20.18 C 6.95 g/m*3 20.18 C 0 km/h
952 13-09-2010 15:00:00 20.8 C 7.1 g/m*3 20.8 C 0 km/h
953 13-09-2010 16:00:00 21.56 C 6.93 g/m*3 21.56 C 0 km/h
954 13-09-2010 17:00:00 20.48 C 7.96 g/m*3 20.48 C 0 km/h
955 13-09-2010 18:00:00 18.22 C 8.62 g/m*3 18.22 C 0 km/h
956 13-09-2010 19:00:00 16.92 C 8.55 g/m*3 16.92 C 0 km/h
957 13-09-2010 20:00:00 15.24 C 8.9 g/m*3 15.24 C 0 km/h
958 13-09-2010 21:00:00 14.52 C 8.97 g/m*3 14.52 C 0 km/h
959 13-09-2010 22:00:00 13.7 C 8.86 g/m*3 13.7 C 0 km/h
960 13-09-2010 23:00:00 13.14 C 8.85 g/m*3 13.14 C 0 km/h
961 14-09-2010 00:00:00 12.82 C 9.2 g/m*3 12.82 C 0 km/h
962 14-09-2010 01:00:00 12.8 C 9.27 g/m*3 12.8 C 0 km/h
963 14-09-2010 02:00:00 13.1 C 9.33 g/m*3 13.1 C 0 km/h
964 14-09-2010 03:00:00 13.36 C 9.23 g/m*3 13.36 C 0 km/h
965 14-09-2010 04:00:00 12.94 C 9.42 g/m*3 12.94 C 0 km/h
966 14-09-2010 05:00:00 12.96 C 9.84 g/m*3 12.96 C 0 km/h
967 14-09-2010 06:00:00 13.9 C 9.28 g/m*3 13.9 C 0 km/h
968 14-09-2010 07:00:00 14.06 C 8.93 g/m*3 14.06 C 0 km/h
969 14-09-2010 08:00:00 14.1 C 9.32 g/m*3 14.1 C 0 km/h
970 14-09-2010 09:00:00 15.16 C 9.06 g/m*3 15.16 C 0 km/h
971 14-09-2010 10:00:00 16.1 C 9.07 g/m*3 16.1 C 0 km/h
972 14-09-2010 11:00:00 17.06 C 9.15 g/m*3 17.06 C 0 km/h
973 14-09-2010 12:00:00 18.44 C 9.18 g/m*3 18.44 C 0 km/h
974 14-09-2010 13:00:00 19.98 C 9.22 g/m*3 19.98 C 0 km/h
975 14-09-2010 14:00:00 19.66 C 8.84 g/m*3 19.66 C 0 km/h
Sensor: Nr:Datum:Temp:Abs-Feuchte:Windchill:Wind:
Aussen-T/F 976 14-09-2010 15:00:00 20.4 C 8.63 g/m*3 20.4 C 0 km/h
977 14-09-2010 16:00:00 20.68 C 7.88 g/m*3 20.68 C 0 km/h
978 14-09-2010 17:00:00 20.14 C 7.46 g/m*3 20.14 C 0 km/h
979 14-09-2010 18:00:00 19.34 C 7.81 g/m*3 19.34 C 0 km/h
980 14-09-2010 19:00:00 18.8 C 7.73 g/m*3 18.8 C 0 km/h
981 14-09-2010 20:00:00 18.6 C 7.7 g/m*3 18.6 C 0 km/h
982 14-09-2010 21:00:00 18.54 C 7.77 g/m*3 18.54 C 0 km/h
983 14-09-2010 22:00:00 18.5 C 7.83 g/m*3 18.5 C 0 km/h
984 14-09-2010 23:00:00 18.22 C 7.91 g/m*3 18.22 C 0 km/h
985 15-09-2010 00:00:00 18.02 C 7.87 g/m*3 18.02 C 0 km/h
986 15-09-2010 01:00:00 18.18 C 7.67 g/m*3 18.18 C 0 km/h
987 15-09-2010 02:00:00 18.32 C 7.64 g/m*3 18.32 C 0 km/h
988 15-09-2010 03:00:00 18.06 C 8.23 g/m*3 18.06 C 0 km/h
989 15-09-2010 04:00:00 17.7 C 9.11 g/m*3 17.7 C 0 km/h
990 15-09-2010 05:00:00 15 C 9.75 g/m*3 15 C 0 km/h
991 15-09-2010 06:00:00 12.78 C 10.09 g/m*3 12.78 C 0 km/h
992 15-09-2010 07:00:00 12.74 C 10.29 g/m*3 12.74 C 0 km/h
993 15-09-2010 08:00:00 12.7 C 10.35 g/m*3 12.7 C 0 km/h
994 15-09-2010 09:00:00 12.92 C 10.36 g/m*3 12.92 C 0 km/h
995 15-09-2010 10:00:00 14.06 C 9.95 g/m*3 14.06 C 0 km/h
996 15-09-2010 11:00:00 15.02 C 8.86 g/m*3 15.02 C 0 km/h
997 15-09-2010 12:00:00 16.5 C 7.02 g/m*3 16.5 C 0 km/h
998 15-09-2010 13:00:00 17.24 C 6.31 g/m*3 17.24 C 0 km/h
999 15-09-2010 14:00:00 18.38 C 5.66 g/m*3 18.38 C 0 km/h
1000 15-09-2010 15:00:00 19.52 C 5.75 g/m*3 19.52 C 0 km/h
Sensor: Nr:Datum:Temp:Abs-Feuchte:Windchill:Wind:
Aussen-T/F 1001 15-09-2010 16:00:00 19.52 C 5.98 g/m*3 19.52 C 0 km/h
1002 15-09-2010 17:00:00 19.68 C 5.8 g/m*3 19.68 C 0 km/h
1003 15-09-2010 18:00:00 17.84 C 5.32 g/m*3 17.84 C 0 km/h
1004 15-09-2010 19:00:00 16.6 C 5.65 g/m*3 16.6 C 0 km/h
1005 15-09-2010 20:00:00 15.84 C 6.26 g/m*3 15.84 C 0 km/h
1006 15-09-2010 21:00:00 15.18 C 6.38 g/m*3 15.18 C 0 km/h
1007 15-09-2010 22:00:00 14.96 C 5.96 g/m*3 14.96 C 0 km/h
1008 15-09-2010 23:00:00 14.86 C 5.64 g/m*3 14.86 C 0 km/h
1009 16-09-2010 00:00:00 14.18 C 5.9 g/m*3 14.18 C 0 km/h
1010 16-09-2010 01:00:00 14.1 C 5.41 g/m*3 14.1 C 0 km/h
1011 16-09-2010 02:00:00 13.94 C 5.79 g/m*3 13.94 C 0 km/h
1012 16-09-2010 03:00:00 13.84 C 6.71 g/m*3 13.84 C 0 km/h
1013 16-09-2010 04:00:00 13.58 C 6.98 g/m*3 13.58 C 0 km/h
1014 16-09-2010 05:00:00 13.36 C 7.26 g/m*3 13.36 C 0 km/h
1015 16-09-2010 06:00:00 12.44 C 8.08 g/m*3 12.44 C 0 km/h
1016 16-09-2010 07:00:00 11.78 C 8.68 g/m*3 11.78 C 0 km/h
1017 16-09-2010 08:00:00 11.86 C 8.83 g/m*3 11.86 C 0 km/h
1018 16-09-2010 09:00:00 12.64 C 9.25 g/m*3 12.64 C 0 km/h
1019 16-09-2010 10:00:00 14.12 C 8.65 g/m*3 14.12 C 0 km/h
1020 16-09-2010 11:00:00 15.26 C 8.23 g/m*3 15.26 C 0 km/h
1021 16-09-2010 12:00:00 17.02 C 7.68 g/m*3 17.02 C 0 km/h
1022 16-09-2010 13:00:00 17.32 C 7.17 g/m*3 17.32 C 0 km/h
1023 16-09-2010 14:00:00 15.28 C 8.71 g/m*3 15.28 C 0 km/h
1024 16-09-2010 15:00:00 17.22 C 9.15 g/m*3 17.22 C 0 km/h
1025 16-09-2010 16:00:00 16.36 C 8.49 g/m*3 16.36 C 0 km/h
Sensor: Nr:Datum:Temp:Abs-Feuchte:Windchill:Wind:
Aussen-T/F 1026 16-09-2010 17:00:00 15.3 C 9.51 g/m*3 15.3 C 0 km/h
1027 16-09-2010 18:00:00 14.9 C 8.95 g/m*3 14.9 C 0 km/h
1028 16-09-2010 19:00:00 13.42 C 9.68 g/m*3 13.42 C 0 km/h
1029 16-09-2010 20:00:00 12.84 C 10.02 g/m*3 12.84 C 0 km/h
1030 16-09-2010 21:00:00 12.62 C 10.08 g/m*3 12.62 C 0 km/h
1031 16-09-2010 22:00:00 12.2 C 9.58 g/m*3 12.2 C 0 km/h
1032 16-09-2010 23:00:00 12.1 C 9.29 g/m*3 12.1 C 0 km/h
1033 17-09-2010 00:00:00 12.16 C 9.24 g/m*3 12.16 C 0 km/h
1034 17-09-2010 01:00:00 12.06 C 9.26 g/m*3 12.06 C 0 km/h
1035 17-09-2010 02:00:00 11.96 C 9.29 g/m*3 11.96 C 0 km/h
1036 17-09-2010 03:00:00 12.06 C 8.94 g/m*3 12.06 C 0 km/h
1037 17-09-2010 04:00:00 11.94 C 8.73 g/m*3 11.94 C 0 km/h
1038 17-09-2010 05:00:00 11.2 C 8.23 g/m*3 11.2 C 0 km/h
1039 17-09-2010 06:00:00 10.6 C 8.59 g/m*3 10.6 C 0 km/h
1040 17-09-2010 07:00:00 10.02 C 8.15 g/m*3 10.02 C 0 km/h
1041 17-09-2010 08:00:00 10.22 C 7.66 g/m*3 10.22 C 0 km/h
1042 17-09-2010 09:00:00 10.86 C 7.28 g/m*3 10.86 C 0 km/h
1043 17-09-2010 10:00:00 12.06 C 7.55 g/m*3 12.06 C 0 km/h
1044 17-09-2010 11:00:00 13.72 C 7.56 g/m*3 13.72 C 0 km/h
1045 17-09-2010 12:00:00 15.7 C 6.58 g/m*3 15.7 C 0 km/h
1046 17-09-2010 13:00:00 16.66 C 5.9 g/m*3 16.66 C 0 km/h
1047 17-09-2010 14:00:00 17.62 C 5.29 g/m*3 17.62 C 0 km/h
1048 17-09-2010 15:00:00 17.48 C 5.06 g/m*3 17.48 C 0 km/h
1049 17-09-2010 16:00:00 19.06 C 4.94 g/m*3 19.06 C 0 km/h
1050 17-09-2010 17:00:00 19.46 C 4.45 g/m*3 19.46 C 0 km/h
Sensor: Nr:Datum:Temp:Abs-Feuchte:Windchill:Wind:
Aussen-T/F 1051 17-09-2010 18:00:00 16.66 C 6.1 g/m*3 16.66 C 0 km/h
1052 17-09-2010 19:00:00 15.24 C 6.69 g/m*3 15.24 C 0 km/h
1053 17-09-2010 20:00:00 14.26 C 7.06 g/m*3 14.26 C 0 km/h
1054 17-09-2010 21:00:00 13.48 C 7.15 g/m*3 13.48 C 0 km/h
1055 17-09-2010 22:00:00 13.34 C 6.72 g/m*3 13.34 C 0 km/h
1056 17-09-2010 23:00:00 12.58 C 6.81 g/m*3 12.58 C 0 km/h
1057 18-09-2010 00:00:00 12.12 C 6.94 g/m*3 12.12 C 0 km/h
1058 18-09-2010 01:00:00 10.9 C 7 g/m*3 10.9 C 0 km/h
1059 18-09-2010 02:00:00 10 C 7.2 g/m*3 10 C 0 km/h
1060 18-09-2010 03:00:00 9.38 C 7.3 g/m*3 9.38 C 0 km/h
1061 18-09-2010 04:00:00 8.54 C 7.19 g/m*3 8.54 C 0 km/h
1062 18-09-2010 05:00:00 7.94 C 7.18 g/m*3 7.94 C 0 km/h
1063 18-09-2010 06:00:00 7.62 C 7.36 g/m*3 7.62 C 0 km/h
1064 18-09-2010 07:00:00 7.5 C 7.3 g/m*3 7.5 C 0 km/h
1065 18-09-2010 08:00:00 7.46 C 7.23 g/m*3 7.46 C 0 km/h
1066 18-09-2010 09:00:00 8.12 C 7.55 g/m*3 8.12 C 0 km/h
1067 18-09-2010 10:00:00 10.2 C 8.18 g/m*3 10.2 C 0 km/h
1068 18-09-2010 11:00:00 13.46 C 6.65 g/m*3 13.46 C 0 km/h
1069 18-09-2010 12:00:00 15.14 C 5.92 g/m*3 15.14 C 0 km/h
1070 18-09-2010 13:00:00 15.6 C 5.43 g/m*3 15.6 C 0 km/h
1071 18-09-2010 14:00:00 15.26 C 4.77 g/m*3 15.26 C 0 km/h
1072 18-09-2010 15:00:00 16.3 C 4.58 g/m*3 16.3 C 0 km/h
1073 18-09-2010 16:00:00 16.22 C 4.86 g/m*3 16.22 C 0 km/h
1074 18-09-2010 17:00:00 15.86 C 5.73 g/m*3 15.86 C 0 km/h
1075 18-09-2010 18:00:00 15.66 C 6.06 g/m*3 15.66 C 0 km/h
Sensor: Nr:Datum:Temp:Abs-Feuchte:Windchill:Wind:
Aussen-T/F 1076 18-09-2010 19:00:00 13.26 C 6.08 g/m*3 13.26 C 0 km/h
1077 18-09-2010 20:00:00 11.08 C 6.6 g/m*3 11.08 C 0 km/h
1078 18-09-2010 21:00:00 10.02 C 6.62 g/m*3 10.02 C 0 km/h
1079 18-09-2010 22:00:00 8.98 C 6.69 g/m*3 8.98 C 0 km/h
1080 18-09-2010 23:00:00 8.2 C 6.77 g/m*3 8.2 C 0 km/h
1081 19-09-2010 00:00:00 7.56 C 6.72 g/m*3 7.56 C 0 km/h
1082 19-09-2010 01:00:00 6.92 C 6.54 g/m*3 6.92 C 0 km/h
1083 19-09-2010 02:00:00 6.44 C 6.53 g/m*3 6.44 C 0 km/h
1084 19-09-2010 03:00:00 6.42 C 6.57 g/m*3 6.42 C 0 km/h
1085 19-09-2010 04:00:00 6.2 C 6.5 g/m*3 6.2 C 0 km/h
1086 19-09-2010 05:00:00 6.04 C 6.42 g/m*3 6.04 C 0 km/h
1087 19-09-2010 06:00:00 5.76 C 6.33 g/m*3 5.76 C 0 km/h
1088 19-09-2010 07:00:00 6 C 6.46 g/m*3 6 C 0 km/h
1089 19-09-2010 08:00:00 6.96 C 6.79 g/m*3 6.96 C 0 km/h
1090 19-09-2010 09:00:00 8.12 C 6.98 g/m*3 8.12 C 0 km/h
1091 19-09-2010 10:00:00 10.72 C 6.69 g/m*3 10.72 C 0 km/h
1092 19-09-2010 11:00:00 12.92 C 6.27 g/m*3 12.92 C 0 km/h
1093 19-09-2010 12:00:00 14.94 C 5.67 g/m*3 14.94 C 0 km/h
1094 19-09-2010 13:00:00 16.12 C 5.54 g/m*3 16.12 C 0 km/h
1095 19-09-2010 14:00:00 17.38 C 5.68 g/m*3 17.38 C 0 km/h
1096 19-09-2010 15:00:00 18.62 C 5.45 g/m*3 18.62 C 0 km/h
1097 19-09-2010 16:00:00 19.04 C 5.29 g/m*3 19.04 C 0 km/h
1098 19-09-2010 17:00:00 18.78 C 5.69 g/m*3 18.78 C 0 km/h
1099 19-09-2010 18:00:00 17.08 C 5.99 g/m*3 17.08 C 0 km/h
1100 19-09-2010 19:00:00 15.78 C 5.97 g/m*3 15.78 C 0 km/h
Sensor: Nr:Datum:Temp:Abs-Feuchte:Windchill:Wind:
Aussen-T/F 1101 19-09-2010 20:00:00 14.46 C 6.3 g/m*3 14.46 C 0 km/h
1102 19-09-2010 21:00:00 13.96 C 6.62 g/m*3 13.96 C 0 km/h
1103 19-09-2010 22:00:00 13.32 C 6.78 g/m*3 13.32 C 0 km/h
1104 19-09-2010 23:00:00 12.28 C 6.77 g/m*3 12.28 C 0 km/h
1105 20-09-2010 00:00:00 11.68 C 6.87 g/m*3 11.68 C 0 km/h
1106 20-09-2010 01:00:00 10.44 C 6.78 g/m*3 10.44 C 0 km/h
1107 20-09-2010 02:00:00 9.84 C 6.88 g/m*3 9.84 C 0 km/h
1108 20-09-2010 03:00:00 9.64 C 7.02 g/m*3 9.64 C 0 km/h
1109 20-09-2010 04:00:00 8.98 C 6.89 g/m*3 8.98 C 0 km/h
1110 20-09-2010 05:00:00 8.32 C 6.89 g/m*3 8.32 C 0 km/h
1111 20-09-2010 06:00:00 8.48 C 7.03 g/m*3 8.48 C 0 km/h
1112 20-09-2010 07:00:00 8.52 C 7.1 g/m*3 8.52 C 0 km/h
1113 20-09-2010 08:00:00 9.18 C 6.87 g/m*3 9.18 C 0 km/h
1114 20-09-2010 09:00:00 9.84 C 6.92 g/m*3 9.84 C 0 km/h
1115 20-09-2010 10:00:00 12.4 C 7.21 g/m*3 12.4 C 0 km/h
1116 20-09-2010 11:00:00 14.62 C 6.99 g/m*3 14.62 C 0 km/h
1117 20-09-2010 12:00:00 16.26 C 6.34 g/m*3 16.26 C 0 km/h
1118 20-09-2010 13:00:00 18.02 C 6.12 g/m*3 18.02 C 0 km/h
1119 20-09-2010 14:00:00 20.02 C 5.81 g/m*3 20.02 C 0 km/h
1120 20-09-2010 15:00:00 21.42 C 5.86 g/m*3 21.42 C 0 km/h
1121 20-09-2010 16:00:00 22.46 C 6.22 g/m*3 22.46 C 0 km/h
1122 20-09-2010 17:00:00 22.28 C 6.11 g/m*3 22.28 C 0 km/h
1123 20-09-2010 18:00:00 21.3 C 6.67 g/m*3 21.3 C 0 km/h
1124 20-09-2010 19:00:00 17.5 C 7.19 g/m*3 17.5 C 0 km/h
1125 20-09-2010 20:00:00 15.34 C 7.54 g/m*3 15.34 C 0 km/h
Sensor: Nr:Datum:Temp:Abs-Feuchte:Windchill:Wind:
Aussen-T/F 1126 20-09-2010 21:00:00 14.2 C 7.72 g/m*3 14.2 C 0 km/h
1127 20-09-2010 22:00:00 13.22 C 8.07 g/m*3 13.22 C 0 km/h
1128 20-09-2010 23:00:00 12.28 C 8.05 g/m*3 12.28 C 0 km/h
1129 21-09-2010 00:00:00 11.52 C 7.88 g/m*3 11.52 C 0 km/h
1130 21-09-2010 01:00:00 10.9 C 7.8 g/m*3 10.9 C 0 km/h
1131 21-09-2010 02:00:00 10.24 C 7.69 g/m*3 10.24 C 0 km/h
1132 21-09-2010 03:00:00 9.74 C 7.71 g/m*3 9.74 C 0 km/h
1133 21-09-2010 04:00:00 9.22 C 7.51 g/m*3 9.22 C 0 km/h
1134 21-09-2010 05:00:00 8.78 C 7.46 g/m*3 8.78 C 0 km/h
1135 21-09-2010 06:00:00 8.34 C 7.37 g/m*3 8.34 C 0 km/h
1136 21-09-2010 07:00:00 8.14 C 7.34 g/m*3 8.14 C 0 km/h
1137 21-09-2010 08:00:00 8.26 C 7.53 g/m*3 8.26 C 0 km/h
1138 21-09-2010 09:00:00 9.18 C 7.97 g/m*3 9.18 C 0 km/h
1139 21-09-2010 10:00:00 11.12 C 8.71 g/m*3 11.12 C 0 km/h
1140 21-09-2010 11:00:00 14.12 C 8.65 g/m*3 14.12 C 0 km/h
1141 21-09-2010 12:00:00 16.14 C 8.99 g/m*3 16.14 C 0 km/h
1142 21-09-2010 13:00:00 17.02 C 9.65 g/m*3 17.02 C 0 km/h
1143 21-09-2010 14:00:00 17.82 C 9.48 g/m*3 17.82 C 0 km/h
1144 21-09-2010 15:00:00 23.12 C 8.2 g/m*3 23.12 C 0 km/h
1145 21-09-2010 16:00:00 25.16 C 7.62 g/m*3 25.16 C 0 km/h
1146 21-09-2010 17:00:00 24.6 C 7.56 g/m*3 24.6 C 0 km/h
1147 21-09-2010 18:00:00 22.18 C 7.88 g/m*3 22.18 C 0 km/h
1148 21-09-2010 19:00:00 18.64 C 8.36 g/m*3 18.64 C 0 km/h
1149 21-09-2010 20:00:00 16.3 C 8.52 g/m*3 16.3 C 0 km/h
1150 21-09-2010 21:00:00 15.06 C 8.49 g/m*3 15.06 C 0 km/h
Sensor: Nr:Datum:Temp:Abs-Feuchte:Windchill:Wind:
Aussen-T/F 1151 21-09-2010 22:00:00 13.9 C 8.51 g/m*3 13.9 C 0 km/h
1152 21-09-2010 23:00:00 12.98 C 8.54 g/m*3 12.98 C 0 km/h
1153 22-09-2010 00:00:00 12.2 C 8.55 g/m*3 12.2 C 0 km/h
1154 22-09-2010 01:00:00 11.5 C 8.41 g/m*3 11.5 C 0 km/h
1155 22-09-2010 02:00:00 10.78 C 8.15 g/m*3 10.78 C 0 km/h
1156 22-09-2010 03:00:00 10.22 C 8 g/m*3 10.22 C 0 km/h
1157 22-09-2010 04:00:00 9.72 C 7.94 g/m*3 9.72 C 0 km/h
1158 22-09-2010 05:00:00 9.84 C 8.15 g/m*3 9.84 C 0 km/h
1159 22-09-2010 06:00:00 9.78 C 8.15 g/m*3 9.78 C 0 km/h
1160 22-09-2010 07:00:00 9.56 C 8.04 g/m*3 9.56 C 0 km/h
1161 22-09-2010 08:00:00 9.36 C 7.96 g/m*3 9.36 C 0 km/h
1162 22-09-2010 09:00:00 10.18 C 8.15 g/m*3 10.18 C 0 km/h
1163 22-09-2010 10:00:00 12.42 C 8.64 g/m*3 12.42 C 0 km/h
1164 22-09-2010 11:00:00 13.78 C 9.19 g/m*3 13.78 C 0 km/h
1165 22-09-2010 12:00:00 16.54 C 9.97 g/m*3 16.54 C 0 km/h
1166 22-09-2010 13:00:00 19.76 C 10.09 g/m*3 19.76 C 0 km/h
1167 22-09-2010 14:00:00 22.86 C 10.07 g/m*3 22.86 C 0 km/h
1168 22-09-2010 15:00:00 25.06 C 9.29 g/m*3 25.06 C 0 km/h
1169 22-09-2010 16:00:00 27.32 C 8.59 g/m*3 27.32 C 0 km/h
1170 22-09-2010 17:00:00 27.06 C 8.16 g/m*3 27.06 C 0 km/h
1171 22-09-2010 18:00:00 24.88 C 9.1 g/m*3 24.88 C 0 km/h
1172 22-09-2010 19:00:00 20.88 C 9.2 g/m*3 20.88 C 0 km/h
1173 22-09-2010 20:00:00 18.54 C 9.1 g/m*3 18.54 C 0 km/h
1174 22-09-2010 21:00:00 17.46 C 9.31 g/m*3 17.46 C 0 km/h
1175 22-09-2010 22:00:00 16.18 C 9.26 g/m*3 16.18 C 0 km/h
Sensor: Nr:Datum:Temp:Abs-Feuchte:Windchill:Wind:
Aussen-T/F 1176 22-09-2010 23:00:00 14.92 C 8.78 g/m*3 14.92 C 0 km/h
1177 23-09-2010 00:00:00 14.02 C 8.65 g/m*3 14.02 C 0 km/h
1178 23-09-2010 01:00:00 13.22 C 8.71 g/m*3 13.22 C 0 km/h
1179 23-09-2010 02:00:00 12.44 C 8.7 g/m*3 12.44 C 0 km/h
1180 23-09-2010 03:00:00 11.8 C 8.57 g/m*3 11.8 C 0 km/h
1181 23-09-2010 04:00:00 11.16 C 8.39 g/m*3 11.16 C 0 km/h
1182 23-09-2010 05:00:00 10.64 C 8.22 g/m*3 10.64 C 0 km/h
1183 23-09-2010 06:00:00 10.46 C 8.2 g/m*3 10.46 C 0 km/h
1184 23-09-2010 07:00:00 10.52 C 8.25 g/m*3 10.52 C 0 km/h
1185 23-09-2010 08:00:00 10.88 C 8.42 g/m*3 10.88 C 0 km/h
1186 23-09-2010 09:00:00 11.64 C 8.65 g/m*3 11.64 C 0 km/h
1187 23-09-2010 10:00:00 12.98 C 9.24 g/m*3 12.98 C 0 km/h
1188 23-09-2010 11:00:00 15.64 C 10.08 g/m*3 15.64 C 0 km/h
1189 23-09-2010 12:00:00 18.66 C 10.61 g/m*3 18.66 C 0 km/h
1190 23-09-2010 13:00:00 22.3 C 10.7 g/m*3 22.3 C 0 km/h
1191 23-09-2010 14:00:00 24.06 C 10.22 g/m*3 24.06 C 0 km/h
1192 23-09-2010 15:00:00 25.04 C 9.37 g/m*3 25.04 C 0 km/h
1193 23-09-2010 16:00:00 25.14 C 9.88 g/m*3 25.14 C 0 km/h
1194 23-09-2010 17:00:00 23.48 C 10.73 g/m*3 23.48 C 0 km/h
1195 23-09-2010 18:00:00 22.12 C 10.63 g/m*3 22.12 C 0 km/h
1196 23-09-2010 19:00:00 19.9 C 11.06 g/m*3 19.9 C 0 km/h
1197 23-09-2010 20:00:00 18.5 C 11.3 g/m*3 18.5 C 0 km/h
1198 23-09-2010 21:00:00 18.5 C 11.49 g/m*3 18.5 C 0 km/h
1199 23-09-2010 22:00:00 17.94 C 11.82 g/m*3 17.94 C 0 km/h
1200 23-09-2010 23:00:00 16.44 C 12.26 g/m*3 16.44 C 0 km/h
Sensor: Nr:Datum:Temp:Abs-Feuchte:Windchill:Wind:
Aussen-T/F 1201 24-09-2010 00:00:00 15.7 C 12.18 g/m*3 15.7 C 0 km/h
1202 24-09-2010 01:00:00 15.54 C 12.3 g/m*3 15.54 C 0 km/h
1203 24-09-2010 02:00:00 15.38 C 12.15 g/m*3 15.38 C 0 km/h
1204 24-09-2010 03:00:00 14.94 C 11.91 g/m*3 14.94 C 0 km/h
1205 24-09-2010 04:00:00 14.78 C 11.89 g/m*3 14.78 C 0 km/h
1206 24-09-2010 05:00:00 14.54 C 11.72 g/m*3 14.54 C 0 km/h
1207 24-09-2010 06:00:00 14.7 C 11.83 g/m*3 14.7 C 0 km/h
1208 24-09-2010 07:00:00 14.4 C 11.62 g/m*3 14.4 C 0 km/h
1209 24-09-2010 08:00:00 14.58 C 11.82 g/m*3 14.58 C 0 km/h
1210 24-09-2010 09:00:00 14.88 C 12.07 g/m*3 14.88 C 0 km/h
1211 24-09-2010 10:00:00 14.98 C 12.06 g/m*3 14.98 C 0 km/h
1212 24-09-2010 11:00:00 15.22 C 12.22 g/m*3 15.22 C 0 km/h
1213 24-09-2010 12:00:00 15.14 C 12.18 g/m*3 15.14 C 0 km/h
1214 24-09-2010 13:00:00 14.56 C 11.73 g/m*3 14.56 C 0 km/h
1215 24-09-2010 14:00:00 13.54 C 11.02 g/m*3 13.54 C 0 km/h
1216 24-09-2010 15:00:00 13.08 C 10.8 g/m*3 13.08 C 0 km/h
1217 24-09-2010 16:00:00 13.8 C 11.32 g/m*3 13.8 C 0 km/h
1218 24-09-2010 17:00:00 13.48 C 11.03 g/m*3 13.48 C 0 km/h
1219 24-09-2010 18:00:00 13.26 C 10.83 g/m*3 13.26 C 0 km/h
1220 24-09-2010 19:00:00 12.84 C 10.64 g/m*3 12.84 C 0 km/h
1221 24-09-2010 20:00:00 12.7 C 10.58 g/m*3 12.7 C 0 km/h
1222 24-09-2010 21:00:00 12.82 C 10.65 g/m*3 12.82 C 0 km/h
1223 24-09-2010 22:00:00 12.7 C 10.58 g/m*3 12.7 C 0 km/h
1224 24-09-2010 23:00:00 12.4 C 10.38 g/m*3 12.4 C 0 km/h
1225 25-09-2010 00:00:00 12.48 C 10.43 g/m*3 12.48 C 0 km/h
Sensor: Nr:Datum:Temp:Abs-Feuchte:Windchill:Wind:
Aussen-T/F 1226 25-09-2010 01:00:00 12.52 C 10.46 g/m*3 12.52 C 0 km/h
1227 25-09-2010 02:00:00 12.6 C 10.51 g/m*3 12.6 C 0 km/h
1228 25-09-2010 03:00:00 12.62 C 10.52 g/m*3 12.62 C 0 km/h
1229 25-09-2010 04:00:00 12.54 C 10.47 g/m*3 12.54 C 0 km/h
1230 25-09-2010 05:00:00 12.38 C 10.35 g/m*3 12.38 C 0 km/h
1231 25-09-2010 06:00:00 12.06 C 10.06 g/m*3 12.06 C 0 km/h
1232 25-09-2010 07:00:00 11.88 C 9.94 g/m*3 11.88 C 0 km/h
1233 25-09-2010 08:00:00 11.26 C 9.5 g/m*3 11.26 C 0 km/h
1234 25-09-2010 09:00:00 10.48 C 8.81 g/m*3 10.48 C 0 km/h
1235 25-09-2010 10:00:00 11.04 C 8.25 g/m*3 11.04 C 0 km/h
1236 25-09-2010 11:00:00 12.3 C 7.45 g/m*3 12.3 C 0 km/h
1237 25-09-2010 12:00:00 12.44 C 6.9 g/m*3 12.44 C 0 km/h
1238 25-09-2010 13:00:00 13.26 C 6.04 g/m*3 13.26 C 0 km/h
1239 25-09-2010 14:00:00 14.24 C 5.36 g/m*3 14.24 C 0 km/h
1240 25-09-2010 15:00:00 15.04 C 4.68 g/m*3 15.04 C 0 km/h
1241 25-09-2010 16:00:00 14.72 C 4.97 g/m*3 14.72 C 0 km/h
1242 25-09-2010 17:00:00 15.6 C 5.08 g/m*3 15.6 C 0 km/h
1243 25-09-2010 18:00:00 14.22 C 5.06 g/m*3 14.22 C 0 km/h
1244 25-09-2010 19:00:00 12.98 C 5.75 g/m*3 12.98 C 0 km/h
1245 25-09-2010 20:00:00 11.7 C 5.88 g/m*3 11.7 C 0 km/h
1246 25-09-2010 21:00:00 10.12 C 6.31 g/m*3 10.12 C 0 km/h
1247 25-09-2010 22:00:00 10.28 C 6.68 g/m*3 10.28 C 0 km/h
1248 25-09-2010 23:00:00 9.28 C 7.4 g/m*3 9.28 C 0 km/h
1249 26-09-2010 00:00:00 9.44 C 7.76 g/m*3 9.44 C 0 km/h
1250 26-09-2010 01:00:00 9.48 C 7.24 g/m*3 9.48 C 0 km/h
Sensor: Nr:Datum:Temp:Abs-Feuchte:Windchill:Wind:
Aussen-T/F 1251 26-09-2010 02:00:00 9.42 C 7.05 g/m*3 9.42 C 0 km/h
1252 26-09-2010 03:00:00 9.2 C 7.07 g/m*3 9.2 C 0 km/h
1253 26-09-2010 04:00:00 8.88 C 7.28 g/m*3 8.88 C 0 km/h
1254 26-09-2010 05:00:00 9.02 C 7.33 g/m*3 9.02 C 0 km/h
1255 26-09-2010 06:00:00 8.9 C 7.38 g/m*3 8.9 C 0 km/h
1256 26-09-2010 07:00:00 8.8 C 7.45 g/m*3 8.8 C 0 km/h
1257 26-09-2010 08:00:00 9.62 C 7.3 g/m*3 9.62 C 0 km/h
1258 26-09-2010 09:00:00 10.26 C 7.18 g/m*3 10.26 C 0 km/h
1259 26-09-2010 10:00:00 11.84 C 6.75 g/m*3 11.84 C 0 km/h
1260 26-09-2010 11:00:00 13.22 C 6.44 g/m*3 13.22 C 0 km/h
1261 26-09-2010 12:00:00 14.48 C 6.39 g/m*3 14.48 C 0 km/h
1262 26-09-2010 13:00:00 13 C 7.58 g/m*3 13 C 0 km/h
1263 26-09-2010 14:00:00 13.3 C 8.3 g/m*3 13.3 C 0 km/h
1264 26-09-2010 15:00:00 14.18 C 8.12 g/m*3 14.18 C 0 km/h
1265 26-09-2010 16:00:00 14.92 C 7.04 g/m*3 14.92 C 0 km/h
1266 26-09-2010 17:00:00 15.18 C 6.61 g/m*3 15.18 C 0 km/h
1267 26-09-2010 18:00:00 12.96 C 6.95 g/m*3 12.96 C 0 km/h
1268 26-09-2010 19:00:00 12.24 C 7.1 g/m*3 12.24 C 0 km/h
1269 26-09-2010 20:00:00 11.78 C 7.21 g/m*3 11.78 C 0 km/h
1270 26-09-2010 21:00:00 11.16 C 7.12 g/m*3 11.16 C 0 km/h
1271 26-09-2010 22:00:00 9.7 C 7.06 g/m*3 9.7 C 0 km/h
1272 26-09-2010 23:00:00 8.84 C 7.17 g/m*3 8.84 C 0 km/h
1273 27-09-2010 00:00:00 8.12 C 7.07 g/m*3 8.12 C 0 km/h
1274 27-09-2010 01:00:00 7.46 C 7.04 g/m*3 7.46 C 0 km/h
1275 27-09-2010 02:00:00 6.84 C 6.86 g/m*3 6.84 C 0 km/h
Sensor: Nr:Datum:Temp:Abs-Feuchte:Windchill:Wind:
Aussen-T/F 1276 27-09-2010 03:00:00 6.46 C 6.75 g/m*3 6.46 C 0 km/h
1277 27-09-2010 04:00:00 6.24 C 6.8 g/m*3 6.24 C 0 km/h
1278 27-09-2010 05:00:00 6.24 C 6.83 g/m*3 6.24 C 0 km/h
1279 27-09-2010 06:00:00 6.32 C 6.89 g/m*3 6.32 C 0 km/h
1280 27-09-2010 07:00:00 6.74 C 7.13 g/m*3 6.74 C 0 km/h
1281 27-09-2010 08:00:00 7.7 C 7.61 g/m*3 7.7 C 0 km/h
1282 27-09-2010 09:00:00 9.24 C 8.2 g/m*3 9.24 C 0 km/h
1283 27-09-2010 10:00:00 10.76 C 7.57 g/m*3 10.76 C 0 km/h
1284 27-09-2010 11:00:00 11.98 C 6.79 g/m*3 11.98 C 0 km/h
1285 27-09-2010 12:00:00 12.78 C 6.82 g/m*3 12.78 C 0 km/h
1286 27-09-2010 13:00:00 13.48 C 6.73 g/m*3 13.48 C 0 km/h
1287 27-09-2010 14:00:00 13.26 C 6.66 g/m*3 13.26 C 0 km/h
1288 27-09-2010 15:00:00 13.4 C 6.65 g/m*3 13.4 C 0 km/h
1289 27-09-2010 16:00:00 13.38 C 7.2 g/m*3 13.38 C 0 km/h
1290 27-09-2010 17:00:00 12.9 C 7.69 g/m*3 12.9 C 0 km/h
1291 27-09-2010 18:00:00 11.94 C 7.73 g/m*3 11.94 C 0 km/h
1292 27-09-2010 19:00:00 10.58 C 8.13 g/m*3 10.58 C 0 km/h
1293 27-09-2010 20:00:00 10.3 C 8.39 g/m*3 10.3 C 0 km/h
1294 27-09-2010 21:00:00 10.34 C 8.55 g/m*3 10.34 C 0 km/h
1295 27-09-2010 22:00:00 10.3 C 8.6 g/m*3 10.3 C 0 km/h
1296 27-09-2010 23:00:00 10.16 C 8.64 g/m*3 10.16 C 0 km/h
1297 28-09-2010 00:00:00 10 C 8.68 g/m*3 10 C 0 km/h
1298 28-09-2010 01:00:00 9.98 C 8.75 g/m*3 9.98 C 0 km/h
1299 28-09-2010 02:00:00 9.9 C 8.78 g/m*3 9.9 C 0 km/h
1300 28-09-2010 03:00:00 9.9 C 8.87 g/m*3 9.9 C 0 km/h
Sensor: Nr:Datum:Temp:Abs-Feuchte:Windchill:Wind:
Aussen-T/F 1301 28-09-2010 04:00:00 9.92 C 8.86 g/m*3 9.92 C 0 km/h
1302 28-09-2010 05:00:00 10 C 8.93 g/m*3 10 C 0 km/h
1303 28-09-2010 06:00:00 10.08 C 8.97 g/m*3 10.08 C 0 km/h
1304 28-09-2010 07:00:00 10 C 8.93 g/m*3 10 C 0 km/h
1305 28-09-2010 08:00:00 10.04 C 8.95 g/m*3 10.04 C 0 km/h
1306 28-09-2010 09:00:00 10.24 C 9.06 g/m*3 10.24 C 0 km/h
1307 28-09-2010 10:00:00 10.58 C 9.26 g/m*3 10.58 C 0 km/h
1308 28-09-2010 11:00:00 11.18 C 9.62 g/m*3 11.18 C 0 km/h
1309 28-09-2010 12:00:00 11.48 C 9.72 g/m*3 11.48 C 0 km/h
1310 28-09-2010 13:00:00 11.74 C 9.71 g/m*3 11.74 C 0 km/h
1311 28-09-2010 14:00:00 11.76 C 9.66 g/m*3 11.76 C 0 km/h
1312 28-09-2010 15:00:00 11.74 C 9.73 g/m*3 11.74 C 0 km/h
1313 28-09-2010 16:00:00 11.84 C 9.85 g/m*3 11.84 C 0 km/h
1314 28-09-2010 17:00:00 11.98 C 10.01 g/m*3 11.98 C 0 km/h
1315 28-09-2010 18:00:00 11.86 C 9.99 g/m*3 11.86 C 0 km/h
1316 28-09-2010 19:00:00 11.72 C 9.95 g/m*3 11.72 C 0 km/h
1317 28-09-2010 20:00:00 11.6 C 9.87 g/m*3 11.6 C 0 km/h
1318 28-09-2010 21:00:00 11.58 C 9.86 g/m*3 11.58 C 0 km/h
1319 28-09-2010 22:00:00 11.62 C 9.89 g/m*3 11.62 C 0 km/h
1320 28-09-2010 23:00:00 11.6 C 9.87 g/m*3 11.6 C 0 km/h
1321 29-09-2010 00:00:00 11.64 C 9.9 g/m*3 11.64 C 0 km/h
1322 29-09-2010 01:00:00 11.62 C 9.89 g/m*3 11.62 C 0 km/h
1323 29-09-2010 02:00:00 11.56 C 9.85 g/m*3 11.56 C 0 km/h
1324 29-09-2010 03:00:00 11.48 C 9.8 g/m*3 11.48 C 0 km/h
1325 29-09-2010 04:00:00 11.48 C 9.8 g/m*3 11.48 C 0 km/h
Sensor: Nr:Datum:Temp:Abs-Feuchte:Windchill:Wind:
Aussen-T/F 1326 29-09-2010 05:00:00 11.4 C 9.75 g/m*3 11.4 C 0 km/h
1327 29-09-2010 06:00:00 11.52 C 9.82 g/m*3 11.52 C 0 km/h
1328 29-09-2010 07:00:00 11.04 C 9.53 g/m*3 11.04 C 0 km/h
1329 29-09-2010 08:00:00 11.18 C 9.62 g/m*3 11.18 C 0 km/h
1330 29-09-2010 09:00:00 11.44 C 9.57 g/m*3 11.44 C 0 km/h
1331 29-09-2010 10:00:00 12.92 C 8.98 g/m*3 12.92 C 0 km/h
1332 29-09-2010 11:00:00 13.96 C 8.42 g/m*3 13.96 C 0 km/h
1333 29-09-2010 12:00:00 14.4 C 8.03 g/m*3 14.4 C 0 km/h
1334 29-09-2010 13:00:00 15.74 C 7.89 g/m*3 15.74 C 0 km/h
1335 29-09-2010 14:00:00 16.82 C 7.64 g/m*3 16.82 C 0 km/h
1336 29-09-2010 15:00:00 19.16 C 6.88 g/m*3 19.16 C 0 km/h
1337 29-09-2010 16:00:00 18.14 C 7.62 g/m*3 18.14 C 0 km/h
1338 29-09-2010 17:00:00 18.3 C 7.54 g/m*3 18.3 C 0 km/h
1339 29-09-2010 18:00:00 14.62 C 7.84 g/m*3 14.62 C 0 km/h
1340 29-09-2010 19:00:00 13.08 C 7.68 g/m*3 13.08 C 0 km/h
1341 29-09-2010 20:00:00 13.12 C 7.7 g/m*3 13.12 C 0 km/h
1342 29-09-2010 21:00:00 12.5 C 7.94 g/m*3 12.5 C 0 km/h
1343 29-09-2010 22:00:00 12.38 C 8.36 g/m*3 12.38 C 0 km/h
1344 29-09-2010 23:00:00 11.96 C 8.33 g/m*3 11.96 C 0 km/h
1345 30-09-2010 00:00:00 12.16 C 8.44 g/m*3 12.16 C 0 km/h
1346 30-09-2010 01:00:00 11.86 C 7.75 g/m*3 11.86 C 0 km/h
1347 30-09-2010 02:00:00 11.46 C 7.62 g/m*3 11.46 C 0 km/h
1348 30-09-2010 03:00:00 11.16 C 7.87 g/m*3 11.16 C 0 km/h
1349 30-09-2010 04:00:00 11.02 C 7.88 g/m*3 11.02 C 0 km/h
1350 30-09-2010 05:00:00 10.76 C 7.79 g/m*3 10.76 C 0 km/h
Sensor: Nr:Datum:Temp:Abs-Feuchte:Windchill:Wind:
Aussen-T/F 1351 30-09-2010 06:00:00 10.7 C 7.33 g/m*3 10.7 C 0 km/h
1352 30-09-2010 07:00:00 10.66 C 7.66 g/m*3 10.66 C 0 km/h
1353 30-09-2010 08:00:00 10.9 C 7.76 g/m*3 10.9 C 0 km/h
1354 30-09-2010 09:00:00 11.4 C 7.86 g/m*3 11.4 C 0 km/h
1355 30-09-2010 10:00:00 11.64 C 8.27 g/m*3 11.64 C 0 km/h
1356 30-09-2010 11:00:00 11.86 C 8.47 g/m*3 11.86 C 0 km/h
1357 30-09-2010 12:00:00 11.98 C 8.94 g/m*3 11.98 C 0 km/h
1358 30-09-2010 13:00:00 12.58 C 9.55 g/m*3 12.58 C 0 km/h
1359 30-09-2010 14:00:00 12.94 C 9.9 g/m*3 12.94 C 0 km/h
1360 30-09-2010 15:00:00 13.26 C 10.12 g/m*3 13.26 C 0 km/h
1361 30-09-2010 16:00:00 13.4 C 10.16 g/m*3 13.4 C 0 km/h
1362 30-09-2010 17:00:00 12.96 C 9.98 g/m*3 12.96 C 0 km/h
1363 30-09-2010 18:00:00 12.48 C 9.82 g/m*3 12.48 C 0 km/h
1364 30-09-2010 19:00:00 12.14 C 9.78 g/m*3 12.14 C 0 km/h
1365 30-09-2010 20:00:00 12.16 C 9.92 g/m*3 12.16 C 0 km/h
1366 30-09-2010 21:00:00 12.08 C 9.96 g/m*3 12.08 C 0 km/h
1367 30-09-2010 22:00:00 11.96 C 9.93 g/m*3 11.96 C 0 km/h
1368 30-09-2010 23:00:00 12 C 10 g/m*3 12 C 0 km/h
1369 01-10-2010 00:00:00 12.02 C 10.05 g/m*3 12.02 C 0 km/h
1370 01-10-2010 01:00:00 11.58 C 9.86 g/m*3 11.58 C 0 km/h
1371 01-10-2010 02:00:00 11.44 C 9.78 g/m*3 11.44 C 0 km/h
1372 01-10-2010 03:00:00 11.56 C 9.85 g/m*3 11.56 C 0 km/h
1373 01-10-2010 04:00:00 11.7 C 9.94 g/m*3 11.7 C 0 km/h
1374 01-10-2010 05:00:00 11.62 C 9.89 g/m*3 11.62 C 0 km/h
1375 01-10-2010 06:00:00 11.4 C 9.75 g/m*3 11.4 C 0 km/h
Sensor: Nr:Datum:Temp:Abs-Feuchte:Windchill:Wind:
Aussen-T/F 1376 01-10-2010 07:00:00 11 C 9.51 g/m*3 11 C 0 km/h
1377 01-10-2010 08:00:00 10.3 C 9.1 g/m*3 10.3 C 0 km/h
1378 01-10-2010 09:00:00 11.24 C 9.65 g/m*3 11.24 C 0 km/h
1379 01-10-2010 10:00:00 11.72 C 9.63 g/m*3 11.72 C 0 km/h
1380 01-10-2010 11:00:00 12.46 C 8.84 g/m*3 12.46 C 0 km/h
1381 01-10-2010 12:00:00 12.68 C 8.49 g/m*3 12.68 C 0 km/h
1382 01-10-2010 13:00:00 13.18 C 8.12 g/m*3 13.18 C 0 km/h
1383 01-10-2010 14:00:00 13.32 C 7.94 g/m*3 13.32 C 0 km/h
1384 01-10-2010 15:00:00 15.3 C 7.78 g/m*3 15.3 C 0 km/h
1385 01-10-2010 16:00:00 16.74 C 7.61 g/m*3 16.74 C 0 km/h
1386 01-10-2010 17:00:00 16.14 C 8.35 g/m*3 16.14 C 0 km/h
1387 01-10-2010 18:00:00 14.34 C 8.79 g/m*3 14.34 C 0 km/h
1388 01-10-2010 19:00:00 12.18 C 8.56 g/m*3 12.18 C 0 km/h
1389 01-10-2010 20:00:00 11.26 C 8.51 g/m*3 11.26 C 0 km/h
1390 01-10-2010 21:00:00 10.86 C 8.53 g/m*3 10.86 C 0 km/h
1391 01-10-2010 22:00:00 10.98 C 8.76 g/m*3 10.98 C 0 km/h
1392 01-10-2010 23:00:00 11.06 C 8.74 g/m*3 11.06 C 0 km/h
1393 02-10-2010 00:00:00 11.12 C 8.71 g/m*3 11.12 C 0 km/h
1394 02-10-2010 01:00:00 10.92 C 8.74 g/m*3 10.92 C 0 km/h
1395 02-10-2010 02:00:00 10.96 C 8.97 g/m*3 10.96 C 0 km/h
1396 02-10-2010 03:00:00 11.1 C 9.15 g/m*3 11.1 C 0 km/h
1397 02-10-2010 04:00:00 11.08 C 9.26 g/m*3 11.08 C 0 km/h
1398 02-10-2010 05:00:00 10.98 C 9.3 g/m*3 10.98 C 0 km/h
1399 02-10-2010 06:00:00 11 C 9.39 g/m*3 11 C 0 km/h
1400 02-10-2010 07:00:00 11.14 C 9.55 g/m*3 11.14 C 0 km/h
Sensor: Nr:Datum:Temp:Abs-Feuchte:Windchill:Wind:
Aussen-T/F 1401 02-10-2010 08:00:00 11.46 C 9.79 g/m*3 11.46 C 0 km/h
1402 02-10-2010 09:00:00 12 C 10.12 g/m*3 12 C 0 km/h
1403 02-10-2010 10:00:00 13.14 C 10.75 g/m*3 13.14 C 0 km/h
1404 02-10-2010 11:00:00 14.32 C 11.27 g/m*3 14.32 C 0 km/h
1405 02-10-2010 12:00:00 15.04 C 11.52 g/m*3 15.04 C 0 km/h
1406 02-10-2010 13:00:00 15.74 C 11.53 g/m*3 15.74 C 0 km/h
1407 02-10-2010 14:00:00 15.64 C 11.41 g/m*3 15.64 C 0 km/h
1408 02-10-2010 15:00:00 16 C 11.47 g/m*3 16 C 0 km/h
1409 02-10-2010 16:00:00 16.24 C 11.09 g/m*3 16.24 C 0 km/h
1410 02-10-2010 17:00:00 16.28 C 10.92 g/m*3 16.28 C 0 km/h
1411 02-10-2010 18:00:00 15.42 C 10.92 g/m*3 15.42 C 0 km/h
1412 02-10-2010 19:00:00 14.94 C 10.94 g/m*3 14.94 C 0 km/h
1413 02-10-2010 20:00:00 14.8 C 11.1 g/m*3 14.8 C 0 km/h
1414 02-10-2010 21:00:00 14.5 C 11.02 g/m*3 14.5 C 0 km/h
1415 02-10-2010 22:00:00 14.48 C 11.16 g/m*3 14.48 C 0 km/h
1416 02-10-2010 23:00:00 14.56 C 11.13 g/m*3 14.56 C 0 km/h
1417 03-10-2010 00:00:00 14.44 C 11.08 g/m*3 14.44 C 0 km/h
1418 03-10-2010 01:00:00 14.7 C 10.7 g/m*3 14.7 C 0 km/h
1419 03-10-2010 02:00:00 14.58 C 10.32 g/m*3 14.58 C 0 km/h
1420 03-10-2010 03:00:00 13.92 C 10.59 g/m*3 13.92 C 0 km/h
1421 03-10-2010 04:00:00 14.08 C 10.62 g/m*3 14.08 C 0 km/h
1422 03-10-2010 05:00:00 14.26 C 10.34 g/m*3 14.26 C 0 km/h
1423 03-10-2010 06:00:00 13.46 C 10.24 g/m*3 13.46 C 0 km/h
1424 03-10-2010 07:00:00 13.42 C 10.43 g/m*3 13.42 C 0 km/h
1425 03-10-2010 08:00:00 13.98 C 10.41 g/m*3 13.98 C 0 km/h
Sensor: Nr:Datum:Temp:Abs-Feuchte:Windchill:Wind:
Aussen-T/F 1426 03-10-2010 09:00:00 15.12 C 10.08 g/m*3 15.12 C 0 km/h
1427 03-10-2010 10:00:00 16.78 C 9.91 g/m*3 16.78 C 0 km/h
1428 03-10-2010 11:00:00 18.14 C 10.13 g/m*3 18.14 C 0 km/h
1429 03-10-2010 12:00:00 19.68 C 9.74 g/m*3 19.68 C 0 km/h
1430 03-10-2010 13:00:00 21.36 C 9.43 g/m*3 21.36 C 0 km/h
1431 03-10-2010 14:00:00 23.34 C 9.09 g/m*3 23.34 C 0 km/h
1432 03-10-2010 15:00:00 24.72 C 8.61 g/m*3 24.72 C 0 km/h
1433 03-10-2010 16:00:00 25.12 C 8.67 g/m*3 25.12 C 0 km/h
1434 03-10-2010 17:00:00 25.22 C 9.37 g/m*3 25.22 C 0 km/h
1435 03-10-2010 18:00:00 21.54 C 10.55 g/m*3 21.54 C 0 km/h
1436 03-10-2010 19:00:00 18.78 C 10.84 g/m*3 18.78 C 0 km/h
1437 03-10-2010 20:00:00 18.34 C 10.88 g/m*3 18.34 C 0 km/h
1438 03-10-2010 21:00:00 17.96 C 11.03 g/m*3 17.96 C 0 km/h
1439 03-10-2010 22:00:00 17.56 C 10.86 g/m*3 17.56 C 0 km/h
1440 03-10-2010 23:00:00 17.56 C 10.32 g/m*3 17.56 C 0 km/h
1441 04-10-2010 00:00:00 17.28 C 9.86 g/m*3 17.28 C 0 km/h
1442 04-10-2010 01:00:00 17.18 C 9.59 g/m*3 17.18 C 0 km/h
1443 04-10-2010 02:00:00 16.82 C 9.65 g/m*3 16.82 C 0 km/h
1444 04-10-2010 03:00:00 15.76 C 9.96 g/m*3 15.76 C 0 km/h
1445 04-10-2010 04:00:00 15.1 C 9.99 g/m*3 15.1 C 0 km/h
1446 04-10-2010 05:00:00 14.3 C 9.95 g/m*3 14.3 C 0 km/h
1447 04-10-2010 06:00:00 13.92 C 9.94 g/m*3 13.92 C 0 km/h
1448 04-10-2010 07:00:00 13.62 C 9.83 g/m*3 13.62 C 0 km/h
1449 04-10-2010 08:00:00 14.26 C 9.8 g/m*3 14.26 C 0 km/h
1450 04-10-2010 09:00:00 15 C 9.23 g/m*3 15 C 0 km/h
Sensor: Nr:Datum:Temp:Abs-Feuchte:Windchill:Wind:
Aussen-T/F 1451 04-10-2010 10:00:00 15.66 C 8.97 g/m*3 15.66 C 0 km/h
1452 04-10-2010 11:00:00 17.62 C 8.92 g/m*3 17.62 C 0 km/h
1453 04-10-2010 12:00:00 17.84 C 8.76 g/m*3 17.84 C 0 km/h
1454 04-10-2010 13:00:00 18.72 C 8.62 g/m*3 18.72 C 0 km/h
1455 04-10-2010 14:00:00 19.76 C 8.72 g/m*3 19.76 C 0 km/h
1456 04-10-2010 15:00:00 22.5 C 8.63 g/m*3 22.5 C 0 km/h
1457 04-10-2010 16:00:00 23.64 C 8.23 g/m*3 23.64 C 0 km/h
1458 04-10-2010 17:00:00 21.14 C 9.16 g/m*3 21.14 C 0 km/h
1459 04-10-2010 18:00:00 18.68 C 9.66 g/m*3 18.68 C 0 km/h
1460 04-10-2010 19:00:00 16.52 C 10.09 g/m*3 16.52 C 0 km/h
1461 04-10-2010 20:00:00 16.22 C 10.02 g/m*3 16.22 C 0 km/h
1462 04-10-2010 21:00:00 15.42 C 9.94 g/m*3 15.42 C 0 km/h
1463 04-10-2010 22:00:00 14.56 C 9.91 g/m*3 14.56 C 0 km/h
1464 04-10-2010 23:00:00 14.2 C 9.92 g/m*3 14.2 C 0 km/h
1465 05-10-2010 00:00:00 14.2 C 10.01 g/m*3 14.2 C 0 km/h
1466 05-10-2010 01:00:00 13.94 C 9.9 g/m*3 13.94 C 0 km/h
1467 05-10-2010 02:00:00 13.52 C 9.84 g/m*3 13.52 C 0 km/h
1468 05-10-2010 03:00:00 13.6 C 10 g/m*3 13.6 C 0 km/h
1469 05-10-2010 04:00:00 13.6 C 10.1 g/m*3 13.6 C 0 km/h
1470 05-10-2010 05:00:00 13.6 C 10.14 g/m*3 13.6 C 0 km/h
1471 05-10-2010 06:00:00 13.42 C 10.38 g/m*3 13.42 C 0 km/h
1472 05-10-2010 07:00:00 13.4 C 10.56 g/m*3 13.4 C 0 km/h
1473 05-10-2010 08:00:00 13.14 C 10.41 g/m*3 13.14 C 0 km/h
1474 05-10-2010 09:00:00 13.3 C 10.68 g/m*3 13.3 C 0 km/h
1475 05-10-2010 10:00:00 14.8 C 11.81 g/m*3 14.8 C 0 km/h
Sensor: Nr:Datum:Temp:Abs-Feuchte:Windchill:Wind:
Aussen-T/F 1476 05-10-2010 11:00:00 17.48 C 13.01 g/m*3 17.48 C 0 km/h
1477 05-10-2010 12:00:00 18.1 C 11.43 g/m*3 18.1 C 0 km/h
1478 05-10-2010 13:00:00 19.18 C 11.23 g/m*3 19.18 C 0 km/h
1479 05-10-2010 14:00:00 19.26 C 10.95 g/m*3 19.26 C 0 km/h
1480 05-10-2010 15:00:00 18.8 C 12.63 g/m*3 18.8 C 0 km/h
1481 05-10-2010 16:00:00 18.5 C 12.47 g/m*3 18.5 C 0 km/h
1482 05-10-2010 17:00:00 17.1 C 11.67 g/m*3 17.1 C 0 km/h
1483 05-10-2010 18:00:00 17.02 C 11.44 g/m*3 17.02 C 0 km/h
1484 05-10-2010 19:00:00 16.66 C 11.31 g/m*3 16.66 C 0 km/h
1485 05-10-2010 20:00:00 16.36 C 10.94 g/m*3 16.36 C 0 km/h
1486 05-10-2010 21:00:00 15.68 C 10.26 g/m*3 15.68 C 0 km/h
1487 05-10-2010 22:00:00 15.3 C 9.98 g/m*3 15.3 C 0 km/h
1488 05-10-2010 23:00:00 15.6 C 9.97 g/m*3 15.6 C 0 km/h
1489 06-10-2010 00:00:00 15.6 C 9.97 g/m*3 15.6 C 0 km/h
1490 06-10-2010 01:00:00 15.5 C 9.99 g/m*3 15.5 C 0 km/h
1491 06-10-2010 02:00:00 15.44 C 10.17 g/m*3 15.44 C 0 km/h
1492 06-10-2010 03:00:00 15.28 C 10.1 g/m*3 15.28 C 0 km/h
1493 06-10-2010 04:00:00 15.1 C 10.09 g/m*3 15.1 C 0 km/h
1494 06-10-2010 05:00:00 14.92 C 10.26 g/m*3 14.92 C 0 km/h
1495 06-10-2010 06:00:00 14.82 C 10.1 g/m*3 14.82 C 0 km/h
1496 06-10-2010 07:00:00 14.66 C 9.95 g/m*3 14.66 C 0 km/h
1497 06-10-2010 08:00:00 14.52 C 10.19 g/m*3 14.52 C 0 km/h
1498 06-10-2010 09:00:00 15.54 C 10.12 g/m*3 15.54 C 0 km/h
1499 06-10-2010 10:00:00 16.24 C 9.93 g/m*3 16.24 C 0 km/h
1500 06-10-2010 11:00:00 17.76 C 9.27 g/m*3 17.76 C 0 km/h
Sensor: Nr:Datum:Temp:Abs-Feuchte:Windchill:Wind:
Aussen-T/F 1501 06-10-2010 12:00:00 19.04 C 8.69 g/m*3 19.04 C 0 km/h
1502 06-10-2010 13:00:00 20.2 C 8.5 g/m*3 20.2 C 0 km/h
1503 06-10-2010 14:00:00 21.62 C 8.24 g/m*3 21.62 C 0 km/h
1504 06-10-2010 15:00:00 23.06 C 8.25 g/m*3 23.06 C 0 km/h
1505 06-10-2010 16:00:00 22.84 C 8.96 g/m*3 22.84 C 0 km/h
1506 06-10-2010 17:00:00 21.08 C 10.16 g/m*3 21.08 C 0 km/h
1507 06-10-2010 18:00:00 18.94 C 10.23 g/m*3 18.94 C 0 km/h
1508 06-10-2010 19:00:00 17.3 C 10.19 g/m*3 17.3 C 0 km/h
1509 06-10-2010 20:00:00 16.9 C 10.13 g/m*3 16.9 C 0 km/h
1510 06-10-2010 21:00:00 16.36 C 10.42 g/m*3 16.36 C 0 km/h
1511 06-10-2010 22:00:00 15.74 C 10.52 g/m*3 15.74 C 0 km/h
1512 06-10-2010 23:00:00 14.9 C 10.32 g/m*3 14.9 C 0 km/h
1513 07-10-2010 00:00:00 14.22 C 10.17 g/m*3 14.22 C 0 km/h
1514 07-10-2010 01:00:00 14.24 C 10.5 g/m*3 14.24 C 0 km/h
1515 07-10-2010 02:00:00 14.24 C 10.43 g/m*3 14.24 C 0 km/h
1516 07-10-2010 03:00:00 14.08 C 10.35 g/m*3 14.08 C 0 km/h
1517 07-10-2010 04:00:00 13.82 C 10.31 g/m*3 13.82 C 0 km/h
1518 07-10-2010 05:00:00 13.3 C 10.17 g/m*3 13.3 C 0 km/h
1519 07-10-2010 06:00:00 13.84 C 10.51 g/m*3 13.84 C 0 km/h
1520 07-10-2010 07:00:00 14.12 C 10.6 g/m*3 14.12 C 0 km/h
1521 07-10-2010 08:00:00 14.66 C 10.9 g/m*3 14.66 C 0 km/h
1522 07-10-2010 09:00:00 15.06 C 10.6 g/m*3 15.06 C 0 km/h
1523 07-10-2010 10:00:00 16.18 C 10.33 g/m*3 16.18 C 0 km/h
1524 07-10-2010 11:00:00 17.26 C 10.32 g/m*3 17.26 C 0 km/h
1525 07-10-2010 12:00:00 18.4 C 9.97 g/m*3 18.4 C 0 km/h
Sensor: Nr:Datum:Temp:Abs-Feuchte:Windchill:Wind:
Aussen-T/F 1526 07-10-2010 13:00:00 19.26 C 9.83 g/m*3 19.26 C 0 km/h
1527 07-10-2010 14:00:00 19.88 C 9.78 g/m*3 19.88 C 0 km/h
1528 07-10-2010 15:00:00 20.5 C 9.5 g/m*3 20.5 C 0 km/h
1529 07-10-2010 16:00:00 19.94 C 9.47 g/m*3 19.94 C 0 km/h
1530 07-10-2010 17:00:00 19.16 C 9.57 g/m*3 19.16 C 0 km/h
1531 07-10-2010 18:00:00 17.88 C 10.22 g/m*3 17.88 C 0 km/h
1532 07-10-2010 19:00:00 16.9 C 10.38 g/m*3 16.9 C 0 km/h
1533 07-10-2010 20:00:00 16.3 C 10.35 g/m*3 16.3 C 0 km/h
1534 07-10-2010 21:00:00 16.22 C 10.13 g/m*3 16.22 C 0 km/h
1535 07-10-2010 22:00:00 16 C 9.86 g/m*3 16 C 0 km/h
1536 07-10-2010 23:00:00 16.02 C 9.74 g/m*3 16.02 C 0 km/h
1537 08-10-2010 00:00:00 15.82 C 9.89 g/m*3 15.82 C 0 km/h
1538 08-10-2010 01:00:00 15.62 C 9.67 g/m*3 15.62 C 0 km/h
1539 08-10-2010 02:00:00 15.44 C 9.35 g/m*3 15.44 C 0 km/h
1540 08-10-2010 03:00:00 14.92 C 8.75 g/m*3 14.92 C 0 km/h
1541 08-10-2010 04:00:00 14.52 C 8.57 g/m*3 14.52 C 0 km/h
1542 08-10-2010 05:00:00 14.24 C 8.81 g/m*3 14.24 C 0 km/h
1543 08-10-2010 06:00:00 13.98 C 8.96 g/m*3 13.98 C 0 km/h
1544 08-10-2010 07:00:00 14.02 C 9.13 g/m*3 14.02 C 0 km/h
1545 08-10-2010 08:00:00 14.2 C 9.23 g/m*3 14.2 C 0 km/h
1546 08-10-2010 09:00:00 14.6 C 9.41 g/m*3 14.6 C 0 km/h
1547 08-10-2010 10:00:00 15.28 C 9.47 g/m*3 15.28 C 0 km/h
1548 08-10-2010 11:00:00 15.86 C 9.29 g/m*3 15.86 C 0 km/h
1549 08-10-2010 12:00:00 16.54 C 9.09 g/m*3 16.54 C 0 km/h
1550 08-10-2010 13:00:00 16.94 C 8.77 g/m*3 16.94 C 0 km/h
Sensor: Nr:Datum:Temp:Abs-Feuchte:Windchill:Wind:
Aussen-T/F 1551 08-10-2010 14:00:00 18.76 C 8.77 g/m*3 18.76 C 0 km/h
1552 08-10-2010 15:00:00 20.32 C 8.52 g/m*3 20.32 C 0 km/h
1553 08-10-2010 16:00:00 22.2 C 8.95 g/m*3 22.2 C 0 km/h
1554 08-10-2010 17:00:00 21.78 C 9.24 g/m*3 21.78 C 0 km/h
1555 08-10-2010 18:00:00 19.06 C 9.68 g/m*3 19.06 C 0 km/h
1556 08-10-2010 19:00:00 15.88 C 9.98 g/m*3 15.88 C 0 km/h
1557 08-10-2010 20:00:00 14.78 C 9.79 g/m*3 14.78 C 0 km/h
1558 08-10-2010 21:00:00 14.08 C 9.65 g/m*3 14.08 C 0 km/h
1559 08-10-2010 22:00:00 13.28 C 9.51 g/m*3 13.28 C 0 km/h
1560 08-10-2010 23:00:00 12.58 C 9.3 g/m*3 12.58 C 0 km/h
1561 09-10-2010 00:00:00 11.9 C 9.11 g/m*3 11.9 C 0 km/h
1562 09-10-2010 01:00:00 11.34 C 8.96 g/m*3 11.34 C 0 km/h
1563 09-10-2010 02:00:00 10.74 C 8.68 g/m*3 10.74 C 0 km/h
1564 09-10-2010 03:00:00 10.24 C 8.43 g/m*3 10.24 C 0 km/h
1565 09-10-2010 04:00:00 9.78 C 8.32 g/m*3 9.78 C 0 km/h
1566 09-10-2010 05:00:00 9.52 C 8.29 g/m*3 9.52 C 0 km/h
1567 09-10-2010 06:00:00 9.42 C 8.31 g/m*3 9.42 C 0 km/h
1568 09-10-2010 07:00:00 9.24 C 8.24 g/m*3 9.24 C 0 km/h
1569 09-10-2010 08:00:00 9.2 C 8.22 g/m*3 9.2 C 0 km/h
1570 09-10-2010 09:00:00 9.28 C 8.24 g/m*3 9.28 C 0 km/h
1571 09-10-2010 10:00:00 10.44 C 8.87 g/m*3 10.44 C 0 km/h
1572 09-10-2010 11:00:00 12.52 C 9.53 g/m*3 12.52 C 0 km/h
1573 09-10-2010 12:00:00 14.68 C 8.2 g/m*3 14.68 C 0 km/h
1574 09-10-2010 13:00:00 17.1 C 7.89 g/m*3 17.1 C 0 km/h
1575 09-10-2010 14:00:00 19.96 C 7.03 g/m*3 19.96 C 0 km/h
Sensor: Nr:Datum:Temp:Abs-Feuchte:Windchill:Wind:
Aussen-T/F 1576 09-10-2010 15:00:00 21.86 C 6.28 g/m*3 21.86 C 0 km/h
1577 09-10-2010 16:00:00 22.16 C 6.23 g/m*3 22.16 C 0 km/h
1578 09-10-2010 17:00:00 20.8 C 6.19 g/m*3 20.8 C 0 km/h
1579 09-10-2010 18:00:00 17.02 C 6.26 g/m*3 17.02 C 0 km/h
1580 09-10-2010 19:00:00 13.8 C 6.12 g/m*3 13.8 C 0 km/h
1581 09-10-2010 20:00:00 12.84 C 6.58 g/m*3 12.84 C 0 km/h
1582 09-10-2010 21:00:00 11.48 C 6.99 g/m*3 11.48 C 0 km/h
1583 09-10-2010 22:00:00 10.6 C 7.03 g/m*3 10.6 C 0 km/h
1584 09-10-2010 23:00:00 9.62 C 6.92 g/m*3 9.62 C 0 km/h
1585 10-10-2010 00:00:00 8.94 C 6.99 g/m*3 8.94 C 0 km/h
1586 10-10-2010 01:00:00 8.38 C 6.93 g/m*3 8.38 C 0 km/h
1587 10-10-2010 02:00:00 7.76 C 6.82 g/m*3 7.76 C 0 km/h
1588 10-10-2010 03:00:00 7.14 C 6.66 g/m*3 7.14 C 0 km/h
1589 10-10-2010 04:00:00 6.76 C 6.61 g/m*3 6.76 C 0 km/h
1590 10-10-2010 05:00:00 6.28 C 6.45 g/m*3 6.28 C 0 km/h
1591 10-10-2010 06:00:00 5.86 C 6.36 g/m*3 5.86 C 0 km/h
1592 10-10-2010 07:00:00 5.5 C 6.31 g/m*3 5.5 C 0 km/h
1593 10-10-2010 08:00:00 6.36 C 6.69 g/m*3 6.36 C 0 km/h
1594 10-10-2010 09:00:00 7.26 C 6.79 g/m*3 7.26 C 0 km/h
1595 10-10-2010 10:00:00 8.92 C 6.6 g/m*3 8.92 C 0 km/h
1596 10-10-2010 11:00:00 10.92 C 6.57 g/m*3 10.92 C 0 km/h
1597 10-10-2010 12:00:00 12.8 C 6.47 g/m*3 12.8 C 0 km/h
1598 10-10-2010 13:00:00 15.86 C 5.67 g/m*3 15.86 C 0 km/h
1599 10-10-2010 14:00:00 18.62 C 5.45 g/m*3 18.62 C 0 km/h
1600 10-10-2010 15:00:00 20.4 C 5.91 g/m*3 20.4 C 0 km/h
Sensor: Nr:Datum:Temp:Abs-Feuchte:Windchill:Wind:
Aussen-T/F 1601 10-10-2010 16:00:00 21.28 C 5.7 g/m*3 21.28 C 0 km/h
1602 10-10-2010 17:00:00 20.64 C 5.6 g/m*3 20.64 C 0 km/h
1603 10-10-2010 18:00:00 17.2 C 5.45 g/m*3 17.2 C 0 km/h
1604 10-10-2010 19:00:00 14.18 C 5.49 g/m*3 14.18 C 0 km/h
1605 10-10-2010 20:00:00 13.02 C 4.91 g/m*3 13.02 C 0 km/h
1606 10-10-2010 21:00:00 12.44 C 4.01 g/m*3 12.44 C 0 km/h
1607 10-10-2010 22:00:00 11.46 C 4.12 g/m*3 11.46 C 0 km/h
1608 10-10-2010 23:00:00 10.72 C 4.52 g/m*3 10.72 C 0 km/h
1609 11-10-2010 00:00:00 9.98 C 4.88 g/m*3 9.98 C 0 km/h
1610 11-10-2010 01:00:00 9.44 C 4.91 g/m*3 9.44 C 0 km/h
1611 11-10-2010 02:00:00 9.08 C 4.87 g/m*3 9.08 C 0 km/h
1612 11-10-2010 03:00:00 8.24 C 4.99 g/m*3 8.24 C 0 km/h
1613 11-10-2010 04:00:00 7.58 C 5.1 g/m*3 7.58 C 0 km/h
1614 11-10-2010 05:00:00 6.64 C 5.24 g/m*3 6.64 C 0 km/h
1615 11-10-2010 06:00:00 5.72 C 5.32 g/m*3 5.72 C 0 km/h
1616 11-10-2010 07:00:00 5.22 C 5.36 g/m*3 5.22 C 0 km/h
1617 11-10-2010 08:00:00 4.96 C 5.39 g/m*3 4.96 C 0 km/h
1618 11-10-2010 09:00:00 5.6 C 5.7 g/m*3 5.6 C 0 km/h
1619 11-10-2010 10:00:00 7.12 C 6.11 g/m*3 7.12 C 0 km/h
1620 11-10-2010 11:00:00 9.46 C 6.36 g/m*3 9.46 C 0 km/h
1621 11-10-2010 12:00:00 11.62 C 6.45 g/m*3 11.62 C 0 km/h
1622 11-10-2010 13:00:00 14.92 C 5.9 g/m*3 14.92 C 0 km/h
1623 11-10-2010 14:00:00 17.48 C 5.45 g/m*3 17.48 C 0 km/h
1624 11-10-2010 15:00:00 19.78 C 5.05 g/m*3 19.78 C 0 km/h
1625 11-10-2010 16:00:00 20.96 C 4.61 g/m*3 20.96 C 0 km/h
Sensor: Nr:Datum:Temp:Abs-Feuchte:Windchill:Wind:
Aussen-T/F 1626 11-10-2010 17:00:00 19.56 C 3.6 g/m*3 19.56 C 0 km/h
1627 11-10-2010 18:00:00 16.12 C 3.98 g/m*3 16.12 C 0 km/h
1628 11-10-2010 19:00:00 13.18 C 4.33 g/m*3 13.18 C 0 km/h
1629 11-10-2010 20:00:00 11.32 C 4.82 g/m*3 11.32 C 0 km/h
1630 11-10-2010 21:00:00 10.025 C 4.96 g/m*3 10.03 C 0 km/h
1631 11-10-2010 22:00:00 9.2 C 4.84 g/m*3 9.2 C 0 km/h
1632 11-10-2010 23:00:00 8.24 C 4.87 g/m*3 8.24 C 0 km/h
1633 12-10-2010 00:00:00 7.16 C 5.01 g/m*3 7.16 C 0 km/h
1634 12-10-2010 01:00:00 6.4 C 5.13 g/m*3 6.4 C 0 km/h
1635 12-10-2010 02:00:00 5.74 C 5.24 g/m*3 5.74 C 0 km/h
1636 12-10-2010 03:00:00 5.04 C 5.31 g/m*3 5.04 C 0 km/h
1637 12-10-2010 04:00:00 4.42 C 5.34 g/m*3 4.42 C 0 km/h
1638 12-10-2010 05:00:00 3.8 C 5.31 g/m*3 3.8 C 0 km/h
1639 12-10-2010 06:00:00 3.46 C 5.26 g/m*3 3.46 C 0 km/h
1640 12-10-2010 07:00:00 2.94 C 5.15 g/m*3 2.94 C 0 km/h
1641 12-10-2010 08:00:00 3.56 C 5.52 g/m*3 3.56 C 0 km/h
1642 12-10-2010 09:00:00 4.9 C 5.93 g/m*3 4.9 C 0 km/h
1643 12-10-2010 10:00:00 5.82 C 6.07 g/m*3 5.82 C 0 km/h
1644 12-10-2010 11:00:00 7.16 C 6.36 g/m*3 7.16 C 0 km/h
1645 12-10-2010 12:00:00 9.56 C 6.18 g/m*3 9.56 C 0 km/h
1646 12-10-2010 13:00:00 12.58 C 5.72 g/m*3 12.58 C 0 km/h
1647 12-10-2010 14:00:00 15.26 C 5.65 g/m*3 15.26 C 0 km/h
1648 12-10-2010 15:00:00 16.94 C 5.42 g/m*3 16.94 C 0 km/h
1649 12-10-2010 16:00:00 17.66 C 5.42 g/m*3 17.66 C 0 km/h
1650 12-10-2010 17:00:00 17.22 C 4.57 g/m*3 17.22 C 0 km/h
Sensor: Nr:Datum:Temp:Abs-Feuchte:Windchill:Wind:
Aussen-T/F 1651 12-10-2010 18:00:00 14.5 C 5.65 g/m*3 14.5 C 0 km/h
1652 12-10-2010 19:00:00 11.42 C 6.45 g/m*3 11.42 C 0 km/h
1653 12-10-2010 20:00:00 9.84 C 6.47 g/m*3 9.84 C 0 km/h
1654 12-10-2010 21:00:00 8.36 C 6.26 g/m*3 8.36 C 0 km/h
1655 12-10-2010 22:00:00 7.74 C 6.15 g/m*3 7.74 C 0 km/h
1656 12-10-2010 23:00:00 7.78 C 6 g/m*3 7.78 C 0 km/h
1657 13-10-2010 00:00:00 7.6 C 5.86 g/m*3 7.6 C 0 km/h
1658 13-10-2010 01:00:00 7.02 C 5.82 g/m*3 7.02 C 0 km/h
1659 13-10-2010 02:00:00 6.8 C 5.83 g/m*3 6.8 C 0 km/h
1660 13-10-2010 03:00:00 6.44 C 5.69 g/m*3 6.44 C 0 km/h
1661 13-10-2010 04:00:00 6.2 C 5.59 g/m*3 6.2 C 0 km/h
1662 13-10-2010 05:00:00 6.1 C 5.6 g/m*3 6.1 C 0 km/h
1663 13-10-2010 06:00:00 5.84 C 5.6 g/m*3 5.84 C 0 km/h
1664 13-10-2010 07:00:00 5.42 C 5.53 g/m*3 5.42 C 0 km/h
1665 13-10-2010 08:00:00 5.62 C 5.49 g/m*3 5.62 C 0 km/h
1666 13-10-2010 09:00:00 5.86 C 5.45 g/m*3 5.86 C 0 km/h
1667 13-10-2010 10:00:00 6.66 C 5.3 g/m*3 6.66 C 0 km/h
1668 13-10-2010 11:00:00 7.04 C 5.08 g/m*3 7.04 C 0 km/h
1669 13-10-2010 12:00:00 8.14 C 5.06 g/m*3 8.14 C 0 km/h
1670 13-10-2010 13:00:00 8.8 C 4.89 g/m*3 8.8 C 0 km/h
1671 13-10-2010 14:00:00 9.8 C 4.95 g/m*3 9.8 C 0 km/h
1672 13-10-2010 15:00:00 11.78 C 4.94 g/m*3 11.78 C 0 km/h
1673 13-10-2010 16:00:00 12.06 C 5.01 g/m*3 12.06 C 0 km/h
1674 13-10-2010 17:00:00 12.34 C 5.23 g/m*3 12.34 C 0 km/h
1675 13-10-2010 18:00:00 9.94 C 5.5 g/m*3 9.94 C 0 km/h
Sensor: Nr:Datum:Temp:Abs-Feuchte:Windchill:Wind:
Aussen-T/F 1676 13-10-2010 19:00:00 7.48 C 5.76 g/m*3 7.48 C 0 km/h
1677 13-10-2010 20:00:00 6.96 C 5.81 g/m*3 6.96 C 0 km/h
1678 13-10-2010 21:00:00 5.82 C 5.72 g/m*3 5.82 C 0 km/h
1679 13-10-2010 22:00:00 5.16 C 5.73 g/m*3 5.16 C 0 km/h
1680 13-10-2010 23:00:00 4.52 C 5.61 g/m*3 4.52 C 0 km/h
1681 14-10-2010 00:00:00 3.88 C 5.51 g/m*3 3.88 C 0 km/h
1682 14-10-2010 01:00:00 3.38 C 5.47 g/m*3 3.38 C 0 km/h
1683 14-10-2010 02:00:00 3.62 C 5.65 g/m*3 3.62 C 0 km/h
1684 14-10-2010 03:00:00 3.52 C 5.57 g/m*3 3.52 C 0 km/h
1685 14-10-2010 04:00:00 3.54 C 5.55 g/m*3 3.54 C 0 km/h
1686 14-10-2010 05:00:00 3.62 C 5.63 g/m*3 3.62 C 0 km/h
1687 14-10-2010 06:00:00 3.92 C 5.7 g/m*3 3.92 C 0 km/h
1688 14-10-2010 07:00:00 4.12 C 5.76 g/m*3 4.12 C 0 km/h
1689 14-10-2010 08:00:00 4.44 C 5.84 g/m*3 4.44 C 0 km/h
1690 14-10-2010 09:00:00 4.56 C 5.86 g/m*3 4.56 C 0 km/h
1691 14-10-2010 10:00:00 5.16 C 5.88 g/m*3 5.16 C 0 km/h
1692 14-10-2010 11:00:00 6.2 C 5.75 g/m*3 6.2 C 0 km/h
1693 14-10-2010 12:00:00 7.86 C 5.59 g/m*3 7.86 C 0 km/h
1694 14-10-2010 13:00:00 9.36 C 5.58 g/m*3 9.36 C 0 km/h
1695 14-10-2010 14:00:00 11.86 C 5.85 g/m*3 11.86 C 0 km/h
1696 14-10-2010 15:00:00 13.94 C 5.72 g/m*3 13.94 C 0 km/h
1697 14-10-2010 16:00:00 14.4 C 5.83 g/m*3 14.4 C 0 km/h
1698 14-10-2010 17:00:00 13.24 C 5.5 g/m*3 13.24 C 0 km/h
1699 14-10-2010 18:00:00 11.04 C 5.96 g/m*3 11.04 C 0 km/h
1700 14-10-2010 19:00:00 10.26 C 6.25 g/m*3 10.26 C 0 km/h
Sensor: Nr:Datum:Temp:Abs-Feuchte:Windchill:Wind:
Aussen-T/F 1701 14-10-2010 20:00:00 10.2 C 6.24 g/m*3 10.2 C 0 km/h
1702 14-10-2010 21:00:00 9.8 C 6.33 g/m*3 9.8 C 0 km/h
1703 14-10-2010 22:00:00 9.74 C 6.51 g/m*3 9.74 C 0 km/h
1704 14-10-2010 23:00:00 9.68 C 6.68 g/m*3 9.68 C 0 km/h
1705 15-10-2010 00:00:00 9.5 C 6.75 g/m*3 9.5 C 0 km/h
1706 15-10-2010 01:00:00 9.42 C 6.88 g/m*3 9.42 C 0 km/h
1707 15-10-2010 02:00:00 9.24 C 7.13 g/m*3 9.24 C 0 km/h
1708 15-10-2010 03:00:00 9.28 C 7.25 g/m*3 9.28 C 0 km/h
1709 15-10-2010 04:00:00 9.28 C 7.36 g/m*3 9.28 C 0 km/h
1710 15-10-2010 05:00:00 9.2 C 7.41 g/m*3 9.2 C 0 km/h
1711 15-10-2010 06:00:00 9.3 C 7.66 g/m*3 9.3 C 0 km/h
1712 15-10-2010 07:00:00 9.28 C 7.74 g/m*3 9.28 C 0 km/h
1713 15-10-2010 08:00:00 9.24 C 7.86 g/m*3 9.24 C 0 km/h
1714 15-10-2010 09:00:00 9.82 C 8.19 g/m*3 9.82 C 0 km/h
1715 15-10-2010 10:00:00 10.72 C 8.06 g/m*3 10.72 C 0 km/h
1716 15-10-2010 11:00:00 11.52 C 7.76 g/m*3 11.52 C 0 km/h
1717 15-10-2010 12:00:00 12.42 C 7.33 g/m*3 12.42 C 0 km/h
1718 15-10-2010 13:00:00 13.38 C 6.9 g/m*3 13.38 C 0 km/h
1719 15-10-2010 14:00:00 12.78 C 6.76 g/m*3 12.78 C 0 km/h
1720 15-10-2010 15:00:00 12.86 C 6.68 g/m*3 12.86 C 0 km/h
1721 15-10-2010 16:00:00 12.24 C 6.79 g/m*3 12.24 C 0 km/h
1722 15-10-2010 17:00:00 11.56 C 7.07 g/m*3 11.56 C 0 km/h
1723 15-10-2010 18:00:00 10.88 C 7.03 g/m*3 10.88 C 0 km/h
1724 15-10-2010 19:00:00 10.52 C 7.01 g/m*3 10.52 C 0 km/h
1725 15-10-2010 20:00:00 10.36 C 7.02 g/m*3 10.36 C 0 km/h
Sensor: Nr:Datum:Temp:Abs-Feuchte:Windchill:Wind:
Aussen-T/F 1726 15-10-2010 21:00:00 10.1 C 7.19 g/m*3 10.1 C 0 km/h
1727 15-10-2010 22:00:00 9.3 C 7.67 g/m*3 9.3 C 0 km/h
1728 15-10-2010 23:00:00 9.2 C 8.04 g/m*3 9.2 C 0 km/h
1729 16-10-2010 00:00:00 9.02 C 8.16 g/m*3 9.02 C 0 km/h
1730 16-10-2010 01:00:00 8.82 C 8.19 g/m*3 8.82 C 0 km/h
1731 16-10-2010 02:00:00 8.78 C 8.22 g/m*3 8.78 C 0 km/h
1732 16-10-2010 03:00:00 8.68 C 8.21 g/m*3 8.68 C 0 km/h
1733 16-10-2010 04:00:00 8.54 C 8.13 g/m*3 8.54 C 0 km/h
1734 16-10-2010 05:00:00 8.36 C 8.04 g/m*3 8.36 C 0 km/h
1735 16-10-2010 06:00:00 8.3 C 8.01 g/m*3 8.3 C 0 km/h
1736 16-10-2010 07:00:00 8.12 C 7.88 g/m*3 8.12 C 0 km/h
1737 16-10-2010 08:00:00 8.1 C 7.77 g/m*3 8.1 C 0 km/h
1738 16-10-2010 09:00:00 8.24 C 7.81 g/m*3 8.24 C 0 km/h
1739 16-10-2010 10:00:00 8.64 C 8.03 g/m*3 8.64 C 0 km/h
1740 16-10-2010 11:00:00 8.96 C 8.11 g/m*3 8.96 C 0 km/h
1741 16-10-2010 12:00:00 9.38 C 8.11 g/m*3 9.38 C 0 km/h
1742 16-10-2010 13:00:00 9.72 C 8.16 g/m*3 9.72 C 0 km/h
1743 16-10-2010 14:00:00 9.96 C 7.89 g/m*3 9.96 C 0 km/h
1744 16-10-2010 15:00:00 10.08 C 7.82 g/m*3 10.08 C 0 km/h
1745 16-10-2010 16:00:00 9.9 C 7.84 g/m*3 9.9 C 0 km/h
1746 16-10-2010 17:00:00 9.36 C 7.9 g/m*3 9.36 C 0 km/h
1747 16-10-2010 18:00:00 8.38 C 6.98 g/m*3 8.38 C 0 km/h
1748 16-10-2010 19:00:00 6.96 C 6.55 g/m*3 6.96 C 0 km/h
1749 16-10-2010 20:00:00 6.56 C 6.31 g/m*3 6.56 C 0 km/h
1750 16-10-2010 21:00:00 6.28 C 6.21 g/m*3 6.28 C 0 km/h
Sensor: Nr:Datum:Temp:Abs-Feuchte:Windchill:Wind:
Aussen-T/F 1751 16-10-2010 22:00:00 5.9 C 6.37 g/m*3 5.9 C 0 km/h
1752 16-10-2010 23:00:00 5.96 C 6.56 g/m*3 5.96 C 0 km/h
1753 17-10-2010 00:00:00 6.14 C 6.7 g/m*3 6.14 C 0 km/h
1754 17-10-2010 01:00:00 6.24 C 6.71 g/m*3 6.24 C 0 km/h
1755 17-10-2010 02:00:00 6.22 C 6.61 g/m*3 6.22 C 0 km/h
1756 17-10-2010 03:00:00 6.24 C 6.49 g/m*3 6.24 C 0 km/h
1757 17-10-2010 04:00:00 6.22 C 6.33 g/m*3 6.22 C 0 km/h
1758 17-10-2010 05:00:00 6.3 C 6.43 g/m*3 6.3 C 0 km/h
1759 17-10-2010 06:00:00 6.34 C 6.46 g/m*3 6.34 C 0 km/h
1760 17-10-2010 07:00:00 6.34 C 6.29 g/m*3 6.34 C 0 km/h
1761 17-10-2010 08:00:00 6.58 C 6.17 g/m*3 6.58 C 0 km/h
1762 17-10-2010 09:00:00 6.88 C 6.15 g/m*3 6.88 C 0 km/h
1763 17-10-2010 10:00:00 7.32 C 6.14 g/m*3 7.32 C 0 km/h
1764 17-10-2010 11:00:00 7.7 C 5.98 g/m*3 7.7 C 0 km/h
1765 17-10-2010 12:00:00 7.88 C 5.97 g/m*3 7.88 C 0 km/h
1766 17-10-2010 13:00:00 8.1 C 5.96 g/m*3 8.1 C 0 km/h
1767 17-10-2010 14:00:00 8.36 C 6.14 g/m*3 8.36 C 0 km/h
1768 17-10-2010 15:00:00 8.52 C 6.12 g/m*3 8.52 C 0 km/h
1769 17-10-2010 16:00:00 8.46 C 6.28 g/m*3 8.46 C 0 km/h
1770 17-10-2010 17:00:00 8.3 C 6.32 g/m*3 8.3 C 0 km/h
1771 17-10-2010 18:00:00 7.9 C 6.32 g/m*3 7.9 C 0 km/h
1772 17-10-2010 19:00:00 7.68 C 6.38 g/m*3 7.68 C 0 km/h
1773 17-10-2010 20:00:00 7.68 C 6.43 g/m*3 7.68 C 0 km/h
1774 17-10-2010 21:00:00 7.62 C 6.44 g/m*3 7.62 C 0 km/h
1775 17-10-2010 22:00:00 7.38 C 6.43 g/m*3 7.38 C 0 km/h
Sensor: Nr:Datum:Temp:Abs-Feuchte:Windchill:Wind:
Aussen-T/F 1776 17-10-2010 23:00:00 7.04 C 6.31 g/m*3 7.04 C 0 km/h
1777 18-10-2010 00:00:00 6.48 C 6.19 g/m*3 6.48 C 0 km/h
1778 18-10-2010 01:00:00 5.18 C 5.97 g/m*3 5.18 C 0 km/h
1779 18-10-2010 02:00:00 5.8 C 6.35 g/m*3 5.8 C 0 km/h
1780 18-10-2010 03:00:00 6 C 6.3 g/m*3 6 C 0 km/h
1781 18-10-2010 04:00:00 6.02 C 6.25 g/m*3 6.02 C 0 km/h
1782 18-10-2010 05:00:00 5.84 C 6.1 g/m*3 5.84 C 0 km/h
1783 18-10-2010 06:00:00 5.8 C 6.16 g/m*3 5.8 C 0 km/h
1784 18-10-2010 07:00:00 5.76 C 6.14 g/m*3 5.76 C 0 km/h
1785 18-10-2010 08:00:00 5.78 C 6.2 g/m*3 5.78 C 0 km/h
1786 18-10-2010 09:00:00 6.66 C 6.44 g/m*3 6.66 C 0 km/h
1787 18-10-2010 10:00:00 7.56 C 5.99 g/m*3 7.56 C 0 km/h
1788 18-10-2010 11:00:00 7.76 C 5.06 g/m*3 7.76 C 0 km/h
1789 18-10-2010 12:00:00 8.26 C 4.98 g/m*3 8.26 C 0 km/h
1790 18-10-2010 13:00:00 8.82 C 4.85 g/m*3 8.82 C 0 km/h
1791 18-10-2010 14:00:00 8.88 C 4.86 g/m*3 8.88 C 0 km/h
1792 18-10-2010 15:00:00 8.74 C 4.86 g/m*3 8.74 C 0 km/h
1793 18-10-2010 16:00:00 8.74 C 4.91 g/m*3 8.74 C 0 km/h
1794 18-10-2010 17:00:00 8.52 C 4.86 g/m*3 8.52 C 0 km/h
1795 18-10-2010 18:00:00 7.76 C 4.97 g/m*3 7.76 C 0 km/h
1796 18-10-2010 19:00:00 6.32 C 4.89 g/m*3 6.32 C 0 km/h
1797 18-10-2010 20:00:00 5.6 C 5.05 g/m*3 5.6 C 0 km/h
1798 18-10-2010 21:00:00 5.18 C 5.03 g/m*3 5.18 C 0 km/h
1799 18-10-2010 22:00:00 4.92 C 5.06 g/m*3 4.92 C 0 km/h
1800 18-10-2010 23:00:00 4.86 C 5.17 g/m*3 4.86 C 0 km/h
Sensor: Nr:Datum:Temp:Abs-Feuchte:Windchill:Wind:
Aussen-T/F 1801 19-10-2010 00:00:00 5.14 C 5.24 g/m*3 5.14 C 0 km/h
1802 19-10-2010 01:00:00 5.42 C 5.27 g/m*3 5.42 C 0 km/h
1803 19-10-2010 02:00:00 5.5 C 5.32 g/m*3 5.5 C 0 km/h
1804 19-10-2010 03:00:00 4.96 C 5.75 g/m*3 4.96 C 0 km/h
1805 19-10-2010 04:00:00 5.04 C 6.04 g/m*3 5.04 C 0 km/h
1806 19-10-2010 05:00:00 5.42 C 6.06 g/m*3 5.42 C 0 km/h
1807 19-10-2010 06:00:00 5.6 C 6.31 g/m*3 5.6 C 0 km/h
1808 19-10-2010 07:00:00 5.98 C 6.38 g/m*3 5.98 C 0 km/h
1809 19-10-2010 08:00:00 5.98 C 6.42 g/m*3 5.98 C 0 km/h
1810 19-10-2010 09:00:00 6.54 C 6.62 g/m*3 6.54 C 0 km/h
1811 19-10-2010 10:00:00 7.34 C 6.65 g/m*3 7.34 C 0 km/h
1812 19-10-2010 11:00:00 7.5 C 6.93 g/m*3 7.5 C 0 km/h
1813 19-10-2010 12:00:00 7.98 C 7.08 g/m*3 7.98 C 0 km/h
1814 19-10-2010 13:00:00 9.08 C 7.48 g/m*3 9.08 C 0 km/h
1815 19-10-2010 14:00:00 9.8 C 7.42 g/m*3 9.8 C 0 km/h
1816 19-10-2010 15:00:00 10.34 C 7.37 g/m*3 10.34 C 0 km/h
1817 19-10-2010 16:00:00 12.46 C 7 g/m*3 12.46 C 0 km/h
1818 19-10-2010 17:00:00 10.3 C 7.22 g/m*3 10.3 C 0 km/h
1819 19-10-2010 18:00:00 9.04 C 6.96 g/m*3 9.04 C 0 km/h
1820 19-10-2010 19:00:00 7.98 C 6.85 g/m*3 7.98 C 0 km/h
1821 19-10-2010 20:00:00 7.36 C 6.46 g/m*3 7.36 C 0 km/h
1822 19-10-2010 21:00:00 6.94 C 6.22 g/m*3 6.94 C 0 km/h
1823 19-10-2010 22:00:00 6.52 C 6.16 g/m*3 6.52 C 0 km/h
1824 19-10-2010 23:00:00 6.54 C 6.2 g/m*3 6.54 C 0 km/h
1825 20-10-2010 00:00:00 6.34 C 6.16 g/m*3 6.34 C 0 km/h
Sensor: Nr:Datum:Temp:Abs-Feuchte:Windchill:Wind:
Aussen-T/F 1826 20-10-2010 01:00:00 6.38 C 6.16 g/m*3 6.38 C 0 km/h
1827 20-10-2010 02:00:00 5.94 C 6.39 g/m*3 5.94 C 0 km/h
1828 20-10-2010 03:00:00 5.76 C 6.53 g/m*3 5.76 C 0 km/h
1829 20-10-2010 04:00:00 5.84 C 6.51 g/m*3 5.84 C 0 km/h
1830 20-10-2010 05:00:00 5.62 C 6.56 g/m*3 5.62 C 0 km/h
1831 20-10-2010 06:00:00 5.52 C 6.61 g/m*3 5.52 C 0 km/h
1832 20-10-2010 07:00:00 5.5 C 6.64 g/m*3 5.5 C 0 km/h
1833 20-10-2010 08:00:00 5.6 C 6.66 g/m*3 5.6 C 0 km/h
1834 20-10-2010 09:00:00 6 C 6.84 g/m*3 6 C 0 km/h
1835 20-10-2010 10:00:00 6.92 C 6.95 g/m*3 6.92 C 0 km/h
1836 20-10-2010 11:00:00 6.84 C 6.44 g/m*3 6.84 C 0 km/h
1837 20-10-2010 12:00:00 6.92 C 6.38 g/m*3 6.92 C 0 km/h
1838 20-10-2010 13:00:00 7.92 C 6.2 g/m*3 7.92 C 0 km/h
1839 20-10-2010 14:00:00 9.48 C 5.67 g/m*3 9.48 C 0 km/h
1840 20-10-2010 15:00:00 7.68 C 5.56 g/m*3 7.68 C 0 km/h
1841 20-10-2010 16:00:00 7.36 C 5.06 g/m*3 7.36 C 0 km/h
1842 20-10-2010 17:00:00 7.02 C 4.92 g/m*3 7.02 C 0 km/h
1843 20-10-2010 18:00:00 6.32 C 5.04 g/m*3 6.32 C 0 km/h
1844 20-10-2010 19:00:00 4.64 C 5.24 g/m*3 4.64 C 0 km/h
1845 20-10-2010 20:00:00 4.54 C 5.25 g/m*3 4.54 C 0 km/h
1846 20-10-2010 21:00:00 4.46 C 5.11 g/m*3 4.46 C 0 km/h
1847 20-10-2010 22:00:00 4.48 C 5.07 g/m*3 4.48 C 0 km/h
1848 20-10-2010 23:00:00 4.32 C 5.05 g/m*3 4.32 C 0 km/h
1849 21-10-2010 00:00:00 4.6 C 5.11 g/m*3 4.6 C 0 km/h
1850 21-10-2010 01:00:00 4.44 C 5.04 g/m*3 4.44 C 0 km/h
Sensor: Nr:Datum:Temp:Abs-Feuchte:Windchill:Wind:
Aussen-T/F 1851 21-10-2010 02:00:00 3.74 C 4.97 g/m*3 3.74 C 0 km/h
1852 21-10-2010 03:00:00 3.32 C 4.98 g/m*3 3.32 C 0 km/h
1853 21-10-2010 04:00:00 2.64 C 4.9 g/m*3 2.64 C 0 km/h
1854 21-10-2010 05:00:00 1.92 C 4.82 g/m*3 1.92 C 0 km/h
1855 21-10-2010 06:00:00 1.7 C 4.9 g/m*3 1.7 C 0 km/h
1856 21-10-2010 07:00:00 1.66 C 5 g/m*3 1.66 C 0 km/h
1857 21-10-2010 08:00:00 2.1 C 5.14 g/m*3 2.1 C 0 km/h
1858 21-10-2010 09:00:00 3 C 5.24 g/m*3 3 C 0 km/h
1859 21-10-2010 10:00:00 4.16 C 5.06 g/m*3 4.16 C 0 km/h
1860 21-10-2010 11:00:00 5.64 C 4.99 g/m*3 5.64 C 0 km/h
1861 21-10-2010 12:00:00 6.98 C 4.63 g/m*3 6.98 C 0 km/h
1862 21-10-2010 13:00:00 8.7 C 4.13 g/m*3 8.7 C 0 km/h
1863 21-10-2010 14:00:00 10.38 C 3.87 g/m*3 10.38 C 0 km/h
1864 21-10-2010 15:00:00 10.66 C 3.63 g/m*3 10.66 C 0 km/h
1865 21-10-2010 16:00:00 10.4 C 3.64 g/m*3 10.4 C 0 km/h
1866 21-10-2010 17:00:00 10.96 C 3.55 g/m*3 10.96 C 0 km/h
1867 21-10-2010 18:00:00 7.38 C 3.99 g/m*3 7.38 C 0 km/h
1868 21-10-2010 19:00:00 5.64 C 4.05 g/m*3 5.64 C 0 km/h
1869 21-10-2010 20:00:00 4.86 C 3.96 g/m*3 4.86 C 0 km/h
1870 21-10-2010 21:00:00 4.62 C 3.74 g/m*3 4.62 C 0 km/h
1871 21-10-2010 22:00:00 3.84 C 3.84 g/m*3 3.84 C 0 km/h
1872 21-10-2010 23:00:00 3.14 C 3.89 g/m*3 3.14 C 0 km/h
1873 22-10-2010 00:00:00 2.38 C 4.06 g/m*3 2.38 C 0 km/h
1874 22-10-2010 01:00:00 1.74 C 4.11 g/m*3 1.74 C 0 km/h
1875 22-10-2010 02:00:00 2.12 C 4.09 g/m*3 2.12 C 0 km/h
Sensor: Nr:Datum:Temp:Abs-Feuchte:Windchill:Wind:
Aussen-T/F 1876 22-10-2010 03:00:00 2.16 C 4.08 g/m*3 2.16 C 0 km/h
1877 22-10-2010 04:00:00 1.48 C 4.09 g/m*3 1.48 C 0 km/h
1878 22-10-2010 05:00:00 1.38 C 4.11 g/m*3 1.38 C 0 km/h
1879 22-10-2010 06:00:00 1.66 C 4.06 g/m*3 1.66 C 0 km/h
1880 22-10-2010 07:00:00 0.94 C 3.98 g/m*3 0.94 C 0 km/h
1881 22-10-2010 08:00:00 1.28 C 4.04 g/m*3 1.28 C 0 km/h
1882 22-10-2010 09:00:00 2.06 C 4.3 g/m*3 2.06 C 0 km/h
1883 22-10-2010 10:00:00 4.3 C 4.23 g/m*3 4.3 C 0 km/h
1884 22-10-2010 11:00:00 5.36 C 3.94 g/m*3 5.36 C 0 km/h
1885 22-10-2010 12:00:00 6.56 C 3.9 g/m*3 6.56 C 0 km/h
1886 22-10-2010 13:00:00 7.18 C 3.89 g/m*3 7.18 C 0 km/h
1887 22-10-2010 14:00:00 7.36 C 3.87 g/m*3 7.36 C 0 km/h
1888 22-10-2010 15:00:00 7.22 C 3.82 g/m*3 7.22 C 0 km/h
1889 22-10-2010 16:00:00 7.42 C 4.33 g/m*3 7.42 C 0 km/h
1890 22-10-2010 17:00:00 7.22 C 4.28 g/m*3 7.22 C 0 km/h
1891 22-10-2010 18:00:00 6.18 C 4.1 g/m*3 6.18 C 0 km/h
1892 22-10-2010 19:00:00 6.2 C 3.69 g/m*3 6.2 C 0 km/h
1893 22-10-2010 20:00:00 6.02 C 3.82 g/m*3 6.02 C 0 km/h
1894 22-10-2010 21:00:00 5.72 C 3.9 g/m*3 5.72 C 0 km/h
1895 22-10-2010 22:00:00 4.14 C 4.09 g/m*3 4.14 C 0 km/h
1896 22-10-2010 23:00:00 2.76 C 4.31 g/m*3 2.76 C 0 km/h
1897 23-10-2010 00:00:00 1.7 C 4.3 g/m*3 1.7 C 0 km/h
1898 23-10-2010 01:00:00 1.08 C 4.29 g/m*3 1.08 C 0 km/h
1899 23-10-2010 02:00:00 0.54 C 4.24 g/m*3 0.54 C 0 km/h
1900 23-10-2010 03:00:00 0.1 C 4.19 g/m*3 0.1 C 0 km/h
Sensor: Nr:Datum:Temp:Abs-Feuchte:Windchill:Wind:
Aussen-T/F 1901 23-10-2010 04:00:00 -0.34 C 4.14 g/m*3 -0.34 C 0 km/h
1902 23-10-2010 05:00:00 -0.82 C 4.03 g/m*3 -0.82 C 0 km/h
1903 23-10-2010 06:00:00 -1.04 C 4 g/m*3 -1.04 C 0 km/h
1904 23-10-2010 07:00:00 -0.86 C 4.09 g/m*3 -0.86 C 0 km/h
1905 23-10-2010 08:00:00 -0.78 C 4.18 g/m*3 -0.78 C 0 km/h
1906 23-10-2010 09:00:00 -0.82 C 4.14 g/m*3 -0.82 C 0 km/h
1907 23-10-2010 10:00:00 1.06 C 4.78 g/m*3 1.06 C 0 km/h
1908 23-10-2010 11:00:00 4.08 C 5.33 g/m*3 4.08 C 0 km/h
1909 23-10-2010 12:00:00 6.64 C 5.16 g/m*3 6.64 C 0 km/h
1910 23-10-2010 13:00:00 8.56 C 4.97 g/m*3 8.56 C 0 km/h
1911 23-10-2010 14:00:00 9.08 C 4.25 g/m*3 9.08 C 0 km/h
1912 23-10-2010 15:00:00 8.42 C 4.64 g/m*3 8.42 C 0 km/h
1913 23-10-2010 16:00:00 7.92 C 4.93 g/m*3 7.92 C 0 km/h
1914 23-10-2010 17:00:00 7.88 C 5.35 g/m*3 7.88 C 0 km/h
1915 23-10-2010 18:00:00 8.04 C 5.49 g/m*3 8.04 C 0 km/h
1916 23-10-2010 19:00:00 8.56 C 5.16 g/m*3 8.56 C 0 km/h
1917 23-10-2010 20:00:00 9.14 C 5.27 g/m*3 9.14 C 0 km/h
1918 23-10-2010 21:00:00 9.26 C 5.77 g/m*3 9.26 C 0 km/h
1919 23-10-2010 22:00:00 9.375 C 5.85 g/m*3 9.38 C 0 km/h
1920 23-10-2010 23:00:00 9.32 C 5.67 g/m*3 9.32 C 0 km/h
1921 24-10-2010 00:00:00 9.02 C 5.74 g/m*3 9.02 C 0 km/h
1922 24-10-2010 01:00:00 8.98 C 5.85 g/m*3 8.98 C 0 km/h
1923 24-10-2010 02:00:00 8.46 C 6.28 g/m*3 8.46 C 0 km/h
1924 24-10-2010 03:00:00 8.46 C 6.3 g/m*3 8.46 C 0 km/h
1925 24-10-2010 04:00:00 8.66 C 6.02 g/m*3 8.66 C 0 km/h
Sensor: Nr:Datum:Temp:Abs-Feuchte:Windchill:Wind:
Aussen-T/F 1926 24-10-2010 05:00:00 8.5 C 5.98 g/m*3 8.5 C 0 km/h
1927 24-10-2010 06:00:00 7.98 C 6.24 g/m*3 7.98 C 0 km/h
1928 24-10-2010 07:00:00 7.06 C 6.72 g/m*3 7.06 C 0 km/h
1929 24-10-2010 08:00:00 6.96 C 6.91 g/m*3 6.96 C 0 km/h
1930 24-10-2010 09:00:00 7.14 C 7.02 g/m*3 7.14 C 0 km/h
1931 24-10-2010 10:00:00 7 C 6.65 g/m*3 7 C 0 km/h
1932 24-10-2010 11:00:00 8.3 C 5.85 g/m*3 8.3 C 0 km/h
1933 24-10-2010 12:00:00 9.36 C 4.75 g/m*3 9.36 C 0 km/h
1934 24-10-2010 13:00:00 10.46 C 4.6 g/m*3 10.46 C 0 km/h
1935 24-10-2010 14:00:00 11.62 C 4.29 g/m*3 11.62 C 0 km/h
1936 24-10-2010 15:00:00 12.3 C 4.23 g/m*3 12.3 C 0 km/h
1937 24-10-2010 16:00:00 13.04 C 3.75 g/m*3 13.04 C 0 km/h
1938 24-10-2010 17:00:00 12.02 C 4.01 g/m*3 12.02 C 0 km/h
1939 24-10-2010 18:00:00 9.56 C 4.75 g/m*3 9.56 C 0 km/h
1940 24-10-2010 19:00:00 7.42 C 5.14 g/m*3 7.42 C 0 km/h
1941 24-10-2010 20:00:00 6.48 C 5.18 g/m*3 6.48 C 0 km/h
1942 24-10-2010 21:00:00 6.12 C 5.38 g/m*3 6.12 C 0 km/h
1943 24-10-2010 22:00:00 5.62 C 5.56 g/m*3 5.62 C 0 km/h
1944 24-10-2010 23:00:00 4.84 C 5.49 g/m*3 4.84 C 0 km/h
1945 25-10-2010 00:00:00 4.8 C 5.7 g/m*3 4.8 C 0 km/h
1946 25-10-2010 01:00:00 4.5 C 5.65 g/m*3 4.5 C 0 km/h
1947 25-10-2010 02:00:00 4.42 C 5.69 g/m*3 4.42 C 0 km/h
1948 25-10-2010 03:00:00 4.62 C 5.76 g/m*3 4.62 C 0 km/h
1949 25-10-2010 04:00:00 5.1 C 5.73 g/m*3 5.1 C 0 km/h
1950 25-10-2010 05:00:00 5.1 C 5.62 g/m*3 5.1 C 0 km/h
Sensor: Nr:Datum:Temp:Abs-Feuchte:Windchill:Wind:
Aussen-T/F 1951 25-10-2010 06:00:00 5.04 C 5.55 g/m*3 5.04 C 0 km/h
1952 25-10-2010 07:00:00 4.86 C 5.51 g/m*3 4.86 C 0 km/h
1953 25-10-2010 08:00:00 4.9 C 5.52 g/m*3 4.9 C 0 km/h
1954 25-10-2010 09:00:00 5.06 C 5.47 g/m*3 5.06 C 0 km/h
1955 25-10-2010 10:00:00 5.8 C 5.5 g/m*3 5.8 C 0 km/h
1956 25-10-2010 11:00:00 6.54 C 5.44 g/m*3 6.54 C 0 km/h
1957 25-10-2010 12:00:00 7.84 C 5.3 g/m*3 7.84 C 0 km/h
1958 25-10-2010 13:00:00 8.74 C 5.12 g/m*3 8.74 C 0 km/h
1959 25-10-2010 14:00:00 10.1 C 4.63 g/m*3 10.1 C 0 km/h
1960 25-10-2010 15:00:00 10.4 C 3.91 g/m*3 10.4 C 0 km/h
1961 25-10-2010 16:00:00 10.72 C 3.91 g/m*3 10.72 C 0 km/h
1962 25-10-2010 17:00:00 10.68 C 4.06 g/m*3 10.68 C 0 km/h
1963 25-10-2010 18:00:00 8.36 C 4.25 g/m*3 8.36 C 0 km/h
1964 25-10-2010 19:00:00 6.22 C 4.68 g/m*3 6.22 C 0 km/h
1965 25-10-2010 20:00:00 4.66 C 4.77 g/m*3 4.66 C 0 km/h
1966 25-10-2010 21:00:00 3.92 C 4.92 g/m*3 3.92 C 0 km/h
1967 25-10-2010 22:00:00 3 C 4.83 g/m*3 3 C 0 km/h
1968 25-10-2010 23:00:00 2.28 C 4.79 g/m*3 2.28 C 0 km/h
1969 26-10-2010 00:00:00 1.88 C 4.78 g/m*3 1.88 C 0 km/h
1970 26-10-2010 01:00:00 1.48 C 4.76 g/m*3 1.48 C 0 km/h
1971 26-10-2010 02:00:00 0.82 C 4.64 g/m*3 0.82 C 0 km/h
1972 26-10-2010 03:00:00 0.3 C 4.5 g/m*3 0.3 C 0 km/h
1973 26-10-2010 04:00:00 0.12 C 4.51 g/m*3 0.12 C 0 km/h
1974 26-10-2010 05:00:00 0.08 C 4.56 g/m*3 0.08 C 0 km/h
1975 26-10-2010 06:00:00 0.14 C 4.6 g/m*3 0.14 C 0 km/h
Sensor: Nr:Datum:Temp:Abs-Feuchte:Windchill:Wind:
Aussen-T/F 1976 26-10-2010 07:00:00 -0.32 C 4.45 g/m*3 -0.32 C 0 km/h
1977 26-10-2010 08:00:00 -0.42 C 4.42 g/m*3 -0.42 C 0 km/h
1978 26-10-2010 09:00:00 -0.36 C 4.44 g/m*3 -0.36 C 0 km/h
1979 26-10-2010 10:00:00 0.1 C 4.58 g/m*3 0.1 C 0 km/h
1980 26-10-2010 11:00:00 1.22 C 4.82 g/m*3 1.22 C 0 km/h
1981 26-10-2010 12:00:00 3.16 C 5.19 g/m*3 3.16 C 0 km/h
1982 26-10-2010 13:00:00 5.54 C 5.61 g/m*3 5.54 C 0 km/h
1983 26-10-2010 14:00:00 8.88 C 5.51 g/m*3 8.88 C 0 km/h
1984 26-10-2010 15:00:00 9.72 C 5.28 g/m*3 9.72 C 0 km/h
1985 26-10-2010 16:00:00 9.24 C 5.41 g/m*3 9.24 C 0 km/h
1986 26-10-2010 17:00:00 8.04 C 5.69 g/m*3 8.04 C 0 km/h
1987 26-10-2010 18:00:00 7.08 C 5.64 g/m*3 7.08 C 0 km/h
1988 26-10-2010 19:00:00 6.58 C 5.68 g/m*3 6.58 C 0 km/h
1989 26-10-2010 20:00:00 6.34 C 5.66 g/m*3 6.34 C 0 km/h
1990 26-10-2010 21:00:00 6.06 C 5.58 g/m*3 6.06 C 0 km/h
1991 26-10-2010 22:00:00 5.7 C 5.71 g/m*3 5.7 C 0 km/h
1992 26-10-2010 23:00:00 5.6 C 5.73 g/m*3 5.6 C 0 km/h
1993 27-10-2010 00:00:00 5.16 C 5.6 g/m*3 5.16 C 0 km/h
1994 27-10-2010 01:00:00 5.36 C 5.14 g/m*3 5.36 C 0 km/h
1995 27-10-2010 02:00:00 5.54 C 5.11 g/m*3 5.54 C 0 km/h
1996 27-10-2010 03:00:00 5.48 C 5.26 g/m*3 5.48 C 0 km/h
1997 27-10-2010 04:00:00 5.42 C 5.24 g/m*3 5.42 C 0 km/h
1998 27-10-2010 05:00:00 5.64 C 5.16 g/m*3 5.64 C 0 km/h
1999 27-10-2010 06:00:00 5.68 C 5.22 g/m*3 5.68 C 0 km/h
2000 27-10-2010 07:00:00 5.76 C 5.16 g/m*3 5.76 C 0 km/h
Sensor: Nr:Datum:Temp:Abs-Feuchte:Windchill:Wind:
Aussen-T/F 2001 27-10-2010 08:00:00 5.68 C 5.09 g/m*3 5.68 C 0 km/h
2002 27-10-2010 09:00:00 5.84 C 5.65 g/m*3 5.84 C 0 km/h
2003 27-10-2010 10:00:00 7 C 5.8 g/m*3 7 C 0 km/h
2004 27-10-2010 11:00:00 8.22 C 5.45 g/m*3 8.22 C 0 km/h
2005 27-10-2010 12:00:00 9.62 C 4.46 g/m*3 9.62 C 0 km/h
2006 27-10-2010 13:00:00 10.92 C 3.84 g/m*3 10.92 C 0 km/h
2007 27-10-2010 14:00:00 11.06 C 3.64 g/m*3 11.06 C 0 km/h
2008 27-10-2010 15:00:00 11.56 C 3.55 g/m*3 11.56 C 0 km/h
2009 27-10-2010 16:00:00 11.98 C 3.43 g/m*3 11.98 C 0 km/h
2010 27-10-2010 17:00:00 11.6 C 3.55 g/m*3 11.6 C 0 km/h
2011 27-10-2010 18:00:00 10.44 C 4.27 g/m*3 10.44 C 0 km/h
2012 27-10-2010 19:00:00 10.04 C 4.41 g/m*3 10.04 C 0 km/h
2013 27-10-2010 20:00:00 9.8 C 4.42 g/m*3 9.8 C 0 km/h
2014 27-10-2010 21:00:00 9.56 C 4.71 g/m*3 9.56 C 0 km/h
2015 27-10-2010 22:00:00 9.2 C 4.89 g/m*3 9.2 C 0 km/h
2016 27-10-2010 23:00:00 9.02 C 4.86 g/m*3 9.02 C 0 km/h
2017 28-10-2010 00:00:00 8.66 C 4.87 g/m*3 8.66 C 0 km/h
2018 28-10-2010 01:00:00 8.46 C 4.91 g/m*3 8.46 C 0 km/h
2019 28-10-2010 02:00:00 8.06 C 5.05 g/m*3 8.06 C 0 km/h
2020 28-10-2010 03:00:00 7.62 C 4.86 g/m*3 7.62 C 0 km/h
2021 28-10-2010 04:00:00 7.66 C 5.06 g/m*3 7.66 C 0 km/h
2022 28-10-2010 05:00:00 7.52 C 5.05 g/m*3 7.52 C 0 km/h
2023 28-10-2010 06:00:00 7.98 C 4.41 g/m*3 7.98 C 0 km/h
2024 28-10-2010 07:00:00 8.48 C 4.31 g/m*3 8.48 C 0 km/h
2025 28-10-2010 08:00:00 8.7 C 4.67 g/m*3 8.7 C 0 km/h
Sensor: Nr:Datum:Temp:Abs-Feuchte:Windchill:Wind:
Aussen-T/F 2026 28-10-2010 09:00:00 8.86 C 4.91 g/m*3 8.86 C 0 km/h
2027 28-10-2010 10:00:00 7.9 C 6.09 g/m*3 7.9 C 0 km/h
2028 28-10-2010 11:00:00 9.7 C 5.97 g/m*3 9.7 C 0 km/h
2029 28-10-2010 12:00:00 10.72 C 5.78 g/m*3 10.72 C 0 km/h
2030 28-10-2010 13:00:00 11.34 C 5.69 g/m*3 11.34 C 0 km/h
2031 28-10-2010 14:00:00 12.3 C 5.67 g/m*3 12.3 C 0 km/h
2032 28-10-2010 15:00:00 12.72 C 5.66 g/m*3 12.72 C 0 km/h
2033 28-10-2010 16:00:00 11.62 C 6.12 g/m*3 11.62 C 0 km/h
2034 28-10-2010 17:00:00 11.08 C 6.14 g/m*3 11.08 C 0 km/h
2035 28-10-2010 18:00:00 9.86 C 6.13 g/m*3 9.86 C 0 km/h
2036 28-10-2010 19:00:00 9.18 C 6.22 g/m*3 9.18 C 0 km/h
2037 28-10-2010 20:00:00 9 C 6.24 g/m*3 9 C 0 km/h
2038 28-10-2010 21:00:00 8.38 C 6.3 g/m*3 8.38 C 0 km/h
2039 28-10-2010 22:00:00 7.56 C 6.36 g/m*3 7.56 C 0 km/h
2040 28-10-2010 23:00:00 6.78 C 6.32 g/m*3 6.78 C 0 km/h
2041 29-10-2010 00:00:00 6.26 C 6.26 g/m*3 6.26 C 0 km/h
2042 29-10-2010 01:00:00 6.28 C 6.4 g/m*3 6.28 C 0 km/h
2043 29-10-2010 02:00:00 6.46 C 6.57 g/m*3 6.46 C 0 km/h
2044 29-10-2010 03:00:00 7.23333 C 6.82 g/m*3 7.23 C 0 km/h
2045 02-11-2010 08:00:00 8.77778 C 6.98 g/m*3 8.78 C 0 km/h
2046 02-11-2010 09:00:00 9.9 C 6.85 g/m*3 9.9 C 0 km/h
2047 02-11-2010 10:00:00 11.04 C 6.74 g/m*3 11.04 C 0 km/h
2048 02-11-2010 11:00:00 11.88 C 6.43 g/m*3 11.88 C 0 km/h
2049 02-11-2010 12:00:00 12.52 C 6.49 g/m*3 12.52 C 0 km/h
2050 02-11-2010 13:00:00 12.72 C 6.33 g/m*3 12.72 C 0 km/h
Sensor: Nr:Datum:Temp:Abs-Feuchte:Windchill:Wind:
Aussen-T/F 2051 02-11-2010 14:00:00 12.8 C 6.36 g/m*3 12.8 C 0 km/h
2052 02-11-2010 15:00:00 12.92 C 6.39 g/m*3 12.92 C 0 km/h
2053 02-11-2010 16:00:00 12.34 C 6.44 g/m*3 12.34 C 0 km/h
2054 02-11-2010 17:00:00 11.34 C 6.61 g/m*3 11.34 C 0 km/h
2055 02-11-2010 18:00:00 11.22 C 6.66 g/m*3 11.22 C 0 km/h
2056 02-11-2010 19:00:00 11.46 C 6.66 g/m*3 11.46 C 0 km/h
2057 02-11-2010 20:00:00 11 C 7.01 g/m*3 11 C 0 km/h
2058 02-11-2010 21:00:00 10.94 C 7.18 g/m*3 10.94 C 0 km/h
2059 02-11-2010 22:00:00 11.08 C 7.42 g/m*3 11.08 C 0 km/h
2060 02-11-2010 23:00:00 11.14 C 7.57 g/m*3 11.14 C 0 km/h
2061 03-11-2010 00:00:00 11.32 C 7.66 g/m*3 11.32 C 0 km/h
2062 03-11-2010 01:00:00 10.88 C 7.49 g/m*3 10.88 C 0 km/h
2063 03-11-2010 02:00:00 11.68 C 7.56 g/m*3 11.68 C 0 km/h
2064 03-11-2010 03:00:00 12.06 C 7.34 g/m*3 12.06 C 0 km/h
2065 03-11-2010 04:00:00 12.44 C 7.47 g/m*3 12.44 C 0 km/h
2066 03-11-2010 05:00:00 12.72 C 7.49 g/m*3 12.72 C 0 km/h
2067 03-11-2010 06:00:00 12.66 C 7.62 g/m*3 12.66 C 0 km/h
2068 03-11-2010 07:00:00 12.76 C 7.66 g/m*3 12.76 C 0 km/h
2069 03-11-2010 08:00:00 13.28 C 7.57 g/m*3 13.28 C 0 km/h
2070 03-11-2010 09:00:00 13.78 C 7.64 g/m*3 13.78 C 0 km/h
2071 03-11-2010 10:00:00 14.2 C 7.55 g/m*3 14.2 C 0 km/h
2072 03-11-2010 11:00:00 14.42 C 7.65 g/m*3 14.42 C 0 km/h
2073 03-11-2010 12:00:00 13.94 C 7.74 g/m*3 13.94 C 0 km/h
2074 03-11-2010 13:00:00 13.54 C 7.83 g/m*3 13.54 C 0 km/h
2075 03-11-2010 14:00:00 13.66 C 7.94 g/m*3 13.66 C 0 km/h
Sensor: Nr:Datum:Temp:Abs-Feuchte:Windchill:Wind:
Aussen-T/F 2076 03-11-2010 15:00:00 13.78 C 8.07 g/m*3 13.78 C 0 km/h
2077 03-11-2010 16:00:00 13.46 C 8.1 g/m*3 13.46 C 0 km/h
2078 03-11-2010 17:00:00 13.06 C 8.2 g/m*3 13.06 C 0 km/h
2079 03-11-2010 18:00:00 12.66 C 8.31 g/m*3 12.66 C 0 km/h
2080 03-11-2010 19:00:00 12.96 C 8.26 g/m*3 12.96 C 0 km/h
2081 03-11-2010 20:00:00 13.38 C 8.2 g/m*3 13.38 C 0 km/h
2082 03-11-2010 21:00:00 13.54 C 8.16 g/m*3 13.54 C 0 km/h
2083 03-11-2010 22:00:00 14.1 C 8.16 g/m*3 14.1 C 0 km/h
2084 03-11-2010 23:00:00 14.2 C 8.4 g/m*3 14.2 C 0 km/h
2085 04-11-2010 00:00:00 14.3 C 8.77 g/m*3 14.3 C 0 km/h
2086 04-11-2010 01:00:00 14.74 C 9.06 g/m*3 14.74 C 0 km/h
2087 04-11-2010 02:00:00 14.96 C 9.06 g/m*3 14.96 C 0 km/h
2088 04-11-2010 03:00:00 15.16 C 9.12 g/m*3 15.16 C 0 km/h
2089 04-11-2010 04:00:00 15.22 C 9.3 g/m*3 15.22 C 0 km/h
2090 04-11-2010 05:00:00 15.54 C 9.41 g/m*3 15.54 C 0 km/h
2091 04-11-2010 06:00:00 15.7 C 9.61 g/m*3 15.7 C 0 km/h
2092 04-11-2010 07:00:00 15.92 C 9.52 g/m*3 15.92 C 0 km/h
2093 04-11-2010 08:00:00 16.2 C 9.43 g/m*3 16.2 C 0 km/h
2094 04-11-2010 09:00:00 16.64 C 9.06 g/m*3 16.64 C 0 km/h
2095 04-11-2010 10:00:00 17.24 C 8.84 g/m*3 17.24 C 0 km/h
2096 04-11-2010 11:00:00 17.82 C 8.45 g/m*3 17.82 C 0 km/h
2097 04-11-2010 12:00:00 18.44 C 8.17 g/m*3 18.44 C 0 km/h
2098 04-11-2010 13:00:00 18.54 C 8.18 g/m*3 18.54 C 0 km/h
2099 04-11-2010 14:00:00 18.44 C 8.01 g/m*3 18.44 C 0 km/h
2100 04-11-2010 15:00:00 18.24 C 8.13 g/m*3 18.24 C 0 km/h
Sensor: Nr:Datum:Temp:Abs-Feuchte:Windchill:Wind:
Aussen-T/F 2101 04-11-2010 16:00:00 17.52 C 8.42 g/m*3 17.52 C 0 km/h
2102 04-11-2010 17:00:00 16.92 C 8.44 g/m*3 16.92 C 0 km/h
2103 04-11-2010 18:00:00 16.78 C 8.43 g/m*3 16.78 C 0 km/h
2104 04-11-2010 19:00:00 16.92 C 8.47 g/m*3 16.92 C 0 km/h
2105 04-11-2010 20:00:00 16.12 C 8.12 g/m*3 16.12 C 0 km/h
2106 04-11-2010 21:00:00 15.74 C 8.05 g/m*3 15.74 C 0 km/h
2107 04-11-2010 22:00:00 15.38 C 7.87 g/m*3 15.38 C 0 km/h
2108 04-11-2010 23:00:00 15.4 C 7.88 g/m*3 15.4 C 0 km/h
2109 05-11-2010 00:00:00 15.34 C 7.88 g/m*3 15.34 C 0 km/h
2110 05-11-2010 01:00:00 15.14 C 7.53 g/m*3 15.14 C 0 km/h
2111 05-11-2010 02:00:00 14.74 C 7.45 g/m*3 14.74 C 0 km/h
2112 05-11-2010 03:00:00 14.46 C 7.37 g/m*3 14.46 C 0 km/h
2113 05-11-2010 04:00:00 14.2 C 7.38 g/m*3 14.2 C 0 km/h
2114 05-11-2010 05:00:00 14.14 C 7.18 g/m*3 14.14 C 0 km/h
2115 05-11-2010 06:00:00 13.82 C 7.13 g/m*3 13.82 C 0 km/h
2116 05-11-2010 07:00:00 13.46 C 6.95 g/m*3 13.46 C 0 km/h
2117 05-11-2010 08:00:00 13.88 C 6.61 g/m*3 13.88 C 0 km/h
2118 05-11-2010 09:00:00 14.52 C 6.72 g/m*3 14.52 C 0 km/h
2119 05-11-2010 10:00:00 14.9 C 6.88 g/m*3 14.9 C 0 km/h
2120 05-11-2010 11:00:00 15.22 C 6.99 g/m*3 15.22 C 0 km/h
2121 05-11-2010 12:00:00 15.14 C 7.09 g/m*3 15.14 C 0 km/h
2122 05-11-2010 13:00:00 15.1 C 7.1 g/m*3 15.1 C 0 km/h
2123 05-11-2010 14:00:00 14.8 C 7.4 g/m*3 14.8 C 0 km/h
2124 05-11-2010 15:00:00 14.6 C 7.48 g/m*3 14.6 C 0 km/h
2125 05-11-2010 16:00:00 14.56 C 7.49 g/m*3 14.56 C 0 km/h
Sensor: Nr:Datum:Temp:Abs-Feuchte:Windchill:Wind:
Aussen-T/F 2126 05-11-2010 17:00:00 14.64 C 7.55 g/m*3 14.64 C 0 km/h
2127 05-11-2010 18:00:00 14.76 C 7.58 g/m*3 14.76 C 0 km/h
2128 05-11-2010 19:00:00 14.36 C 7.57 g/m*3 14.36 C 0 km/h
2129 05-11-2010 20:00:00 14.44 C 7.58 g/m*3 14.44 C 0 km/h
2130 05-11-2010 21:00:00 14.28 C 7.61 g/m*3 14.28 C 0 km/h
2131 05-11-2010 22:00:00 14.02 C 7.58 g/m*3 14.02 C 0 km/h
2132 05-11-2010 23:00:00 13.94 C 7.57 g/m*3 13.94 C 0 km/h
2133 06-11-2010 00:00:00 14.04 C 7.57 g/m*3 14.04 C 0 km/h
2134 06-11-2010 01:00:00 14.02 C 7.61 g/m*3 14.02 C 0 km/h
2135 06-11-2010 02:00:00 13.38 C 7.69 g/m*3 13.38 C 0 km/h
2136 06-11-2010 03:00:00 12.9 C 7.98 g/m*3 12.9 C 0 km/h
2137 06-11-2010 04:00:00 12.78 C 8.12 g/m*3 12.78 C 0 km/h
2138 06-11-2010 05:00:00 13.12 C 8 g/m*3 13.12 C 0 km/h
2139 06-11-2010 06:00:00 13.46 C 7.86 g/m*3 13.46 C 0 km/h
2140 06-11-2010 07:00:00 13.48 C 7.57 g/m*3 13.48 C 0 km/h
2141 06-11-2010 08:00:00 13.34 C 7.5 g/m*3 13.34 C 0 km/h
2142 06-11-2010 09:00:00 11.92 C 7.55 g/m*3 11.92 C 0 km/h
2143 06-11-2010 10:00:00 10.18 C 7.93 g/m*3 10.18 C 0 km/h
2144 06-11-2010 11:00:00 10.58 C 8.19 g/m*3 10.58 C 0 km/h
2145 06-11-2010 12:00:00 9.78 C 7.67 g/m*3 9.78 C 0 km/h
2146 06-11-2010 13:00:00 9.08 C 7.46 g/m*3 9.08 C 0 km/h
2147 06-11-2010 14:00:00 8.92 C 7.67 g/m*3 8.92 C 0 km/h
2148 06-11-2010 15:00:00 8.64 C 7.67 g/m*3 8.64 C 0 km/h
2149 06-11-2010 16:00:00 8.2 C 7.54 g/m*3 8.2 C 0 km/h
2150 06-11-2010 17:00:00 7.84 C 7.49 g/m*3 7.84 C 0 km/h
Sensor: Nr:Datum:Temp:Abs-Feuchte:Windchill:Wind:
Aussen-T/F 2151 06-11-2010 18:00:00 7.44 C 7.34 g/m*3 7.44 C 0 km/h
2152 06-11-2010 19:00:00 7.42 C 7.41 g/m*3 7.42 C 0 km/h
2153 06-11-2010 20:00:00 7.2 C 7.3 g/m*3 7.2 C 0 km/h
2154 06-11-2010 21:00:00 7.26 C 7.33 g/m*3 7.26 C 0 km/h
2155 06-11-2010 22:00:00 7.48 C 7.43 g/m*3 7.48 C 0 km/h
2156 06-11-2010 23:00:00 7.36 C 7.38 g/m*3 7.36 C 0 km/h
2157 07-11-2010 00:00:00 7.22 C 7.31 g/m*3 7.22 C 0 km/h
2158 07-11-2010 01:00:00 7.18 C 7.29 g/m*3 7.18 C 0 km/h
2159 07-11-2010 02:00:00 6.98 C 7.24 g/m*3 6.98 C 0 km/h
2160 07-11-2010 03:00:00 7.3 C 7.4 g/m*3 7.3 C 0 km/h
2161 07-11-2010 04:00:00 7.18 C 7.34 g/m*3 7.18 C 0 km/h
2162 07-11-2010 05:00:00 6.8 C 7.19 g/m*3 6.8 C 0 km/h
2163 07-11-2010 06:00:00 6.48 C 7.04 g/m*3 6.48 C 0 km/h
2164 07-11-2010 07:00:00 6.7 C 7.14 g/m*3 6.7 C 0 km/h
2165 07-11-2010 08:00:00 7.16 C 7.28 g/m*3 7.16 C 0 km/h
2166 07-11-2010 09:00:00 7.46 C 7.47 g/m*3 7.46 C 0 km/h
2167 07-11-2010 10:00:00 7.82 C 7.68 g/m*3 7.82 C 0 km/h
2168 07-11-2010 11:00:00 8.06 C 7.67 g/m*3 8.06 C 0 km/h
2169 07-11-2010 12:00:00 8.74 C 7.87 g/m*3 8.74 C 0 km/h
2170 07-11-2010 13:00:00 8.48 C 7.5 g/m*3 8.48 C 0 km/h
2171 07-11-2010 14:00:00 8.22 C 7.43 g/m*3 8.22 C 0 km/h
2172 07-11-2010 15:00:00 7.5 C 7.17 g/m*3 7.5 C 0 km/h
2173 07-11-2010 16:00:00 6.82 C 6.97 g/m*3 6.82 C 0 km/h
2174 07-11-2010 17:00:00 6.76 C 7.02 g/m*3 6.76 C 0 km/h
2175 07-11-2010 18:00:00 6.58 C 6.94 g/m*3 6.58 C 0 km/h
Sensor: Nr:Datum:Temp:Abs-Feuchte:Windchill:Wind:
Aussen-T/F 2176 07-11-2010 19:00:00 5.72 C 6.61 g/m*3 5.72 C 0 km/h
2177 07-11-2010 20:00:00 5.18 C 6.4 g/m*3 5.18 C 0 km/h
2178 07-11-2010 21:00:00 4.98 C 6.32 g/m*3 4.98 C 0 km/h
2179 07-11-2010 22:00:00 4.9 C 6.32 g/m*3 4.9 C 0 km/h
2180 07-11-2010 23:00:00 4.64 C 6.22 g/m*3 4.64 C 0 km/h
2181 08-11-2010 00:00:00 4.04 C 5.95 g/m*3 4.04 C 0 km/h
2182 08-11-2010 01:00:00 4.12 C 5.97 g/m*3 4.12 C 0 km/h
2183 08-11-2010 02:00:00 4.04 C 5.97 g/m*3 4.04 C 0 km/h
2184 08-11-2010 03:00:00 4.46 C 6.16 g/m*3 4.46 C 0 km/h
2185 08-11-2010 04:00:00 4.4 C 6.14 g/m*3 4.4 C 0 km/h
2186 08-11-2010 05:00:00 4.6 C 6.22 g/m*3 4.6 C 0 km/h
2187 08-11-2010 06:00:00 4.86 C 6.33 g/m*3 4.86 C 0 km/h
2188 08-11-2010 07:00:00 4.74 C 6.26 g/m*3 4.74 C 0 km/h
2189 08-11-2010 08:00:00 4.96 C 6.34 g/m*3 4.96 C 0 km/h
2190 08-11-2010 09:00:00 5.84 C 6.58 g/m*3 5.84 C 0 km/h
2191 08-11-2010 10:00:00 7.08 C 6.5 g/m*3 7.08 C 0 km/h
2192 08-11-2010 11:00:00 7.26 C 5.75 g/m*3 7.26 C 0 km/h
2193 08-11-2010 12:00:00 6.78 C 5.3 g/m*3 6.78 C 0 km/h
2194 08-11-2010 13:00:00 7.24 C 5.15 g/m*3 7.24 C 0 km/h
2195 08-11-2010 14:00:00 6.88 C 4.74 g/m*3 6.88 C 0 km/h
2196 08-11-2010 15:00:00 5.6 C 4.67 g/m*3 5.6 C 0 km/h
2197 08-11-2010 16:00:00 2.98 C 4.87 g/m*3 2.98 C 0 km/h
2198 08-11-2010 17:00:00 2.08 C 4.85 g/m*3 2.08 C 0 km/h
2199 08-11-2010 18:00:00 1.46 C 4.79 g/m*3 1.46 C 0 km/h
2200 08-11-2010 19:00:00 2.26 C 5.11 g/m*3 2.26 C 0 km/h
Sensor: Nr:Datum:Temp:Abs-Feuchte:Windchill:Wind:
Aussen-T/F 2201 08-11-2010 20:00:00 3.5 C 5.42 g/m*3 3.5 C 0 km/h
2202 08-11-2010 21:00:00 3.9 C 5.56 g/m*3 3.9 C 0 km/h
2203 08-11-2010 22:00:00 4.22 C 5.72 g/m*3 4.22 C 0 km/h
2204 08-11-2010 23:00:00 4.44 C 5.62 g/m*3 4.44 C 0 km/h
2205 09-11-2010 00:00:00 4.24 C 5.65 g/m*3 4.24 C 0 km/h
2206 09-11-2010 01:00:00 4.2 C 5.73 g/m*3 4.2 C 0 km/h
2207 09-11-2010 02:00:00 4.2 C 5.79 g/m*3 4.2 C 0 km/h
2208 09-11-2010 03:00:00 4.46 C 5.97 g/m*3 4.46 C 0 km/h
2209 09-11-2010 04:00:00 4.44 C 5.96 g/m*3 4.44 C 0 km/h
2210 09-11-2010 05:00:00 4.74 C 6.08 g/m*3 4.74 C 0 km/h
2211 09-11-2010 06:00:00 5.1 C 6.16 g/m*3 5.1 C 0 km/h
2212 09-11-2010 07:00:00 5.58 C 6.24 g/m*3 5.58 C 0 km/h
2213 09-11-2010 08:00:00 6.42 C 6.09 g/m*3 6.42 C 0 km/h
2214 09-11-2010 09:00:00 6.9 C 6.1 g/m*3 6.9 C 0 km/h
2215 09-11-2010 10:00:00 7.9 C 6.26 g/m*3 7.9 C 0 km/h
2216 09-11-2010 11:00:00 9.16 C 6.29 g/m*3 9.16 C 0 km/h
2217 09-11-2010 12:00:00 9.52 C 6.43 g/m*3 9.52 C 0 km/h
2218 09-11-2010 13:00:00 9.66 C 6.47 g/m*3 9.66 C 0 km/h
2219 09-11-2010 14:00:00 8.86 C 6.85 g/m*3 8.86 C 0 km/h
2220 09-11-2010 15:00:00 8.42 C 7.07 g/m*3 8.42 C 0 km/h
2221 09-11-2010 16:00:00 7.92 C 7.19 g/m*3 7.92 C 0 km/h
2222 09-11-2010 17:00:00 7.3 C 7.05 g/m*3 7.3 C 0 km/h
2223 09-11-2010 18:00:00 6.64 C 6.83 g/m*3 6.64 C 0 km/h
2224 09-11-2010 19:00:00 6.86 C 7.02 g/m*3 6.86 C 0 km/h
2225 09-11-2010 20:00:00 6.78 C 7.03 g/m*3 6.78 C 0 km/h
Sensor: Nr:Datum:Temp:Abs-Feuchte:Windchill:Wind:
Aussen-T/F 2226 09-11-2010 21:00:00 6.84 C 7.05 g/m*3 6.84 C 0 km/h
2227 09-11-2010 22:00:00 6.78 C 7.03 g/m*3 6.78 C 0 km/h
2228 09-11-2010 23:00:00 6.84 C 7.05 g/m*3 6.84 C 0 km/h
2229 10-11-2010 00:00:00 6.56 C 6.93 g/m*3 6.56 C 0 km/h
2230 10-11-2010 01:00:00 6.92 C 7.14 g/m*3 6.92 C 0 km/h
2231 10-11-2010 02:00:00 6.9 C 7.14 g/m*3 6.9 C 0 km/h
2232 10-11-2010 03:00:00 7.1 C 7.18 g/m*3 7.1 C 0 km/h
2233 10-11-2010 04:00:00 6.88 C 7.12 g/m*3 6.88 C 0 km/h
2234 10-11-2010 05:00:00 6.9 C 7.13 g/m*3 6.9 C 0 km/h
2235 10-11-2010 06:00:00 6.82 C 7.09 g/m*3 6.82 C 0 km/h
2236 10-11-2010 07:00:00 6.34 C 6.87 g/m*3 6.34 C 0 km/h
2237 10-11-2010 08:00:00 6.72 C 7.05 g/m*3 6.72 C 0 km/h
2238 10-11-2010 09:00:00 8.22 C 7.56 g/m*3 8.22 C 0 km/h
2239 10-11-2010 10:00:00 9.6 C 6.93 g/m*3 9.6 C 0 km/h
2240 10-11-2010 11:00:00 9.64 C 6.48 g/m*3 9.64 C 0 km/h
2241 10-11-2010 12:00:00 10.18 C 6.48 g/m*3 10.18 C 0 km/h
2242 10-11-2010 13:00:00 11.08 C 6.16 g/m*3 11.08 C 0 km/h
2243 10-11-2010 14:00:00 10.52 C 6.02 g/m*3 10.52 C 0 km/h
2244 10-11-2010 15:00:00 7.86 C 6.41 g/m*3 7.86 C 0 km/h
2245 10-11-2010 16:00:00 6.24 C 6.18 g/m*3 6.24 C 0 km/h
2246 10-11-2010 17:00:00 5.94 C 5.81 g/m*3 5.94 C 0 km/h
2247 10-11-2010 18:00:00 5.22 C 5.67 g/m*3 5.22 C 0 km/h
2248 10-11-2010 19:00:00 5.2 C 5.63 g/m*3 5.2 C 0 km/h
2249 10-11-2010 20:00:00 5.34 C 5.5 g/m*3 5.34 C 0 km/h
2250 10-11-2010 21:00:00 4.46 C 5.52 g/m*3 4.46 C 0 km/h
Sensor: Nr:Datum:Temp:Abs-Feuchte:Windchill:Wind:
Aussen-T/F 2251 10-11-2010 22:00:00 4.55 C 5.59 g/m*3 4.55 C 0 km/h
2252 10-11-2010 23:00:00 4.3 C 5.34 g/m*3 4.3 C 0 km/h
2253 11-11-2010 00:00:00 4.6 C 5.29 g/m*3 4.6 C 0 km/h
2254 11-11-2010 01:00:00 4.5 C 5.44 g/m*3 4.5 C 0 km/h
2255 11-11-2010 02:00:00 5.02 C 5.42 g/m*3 5.02 C 0 km/h
2256 11-11-2010 03:00:00 4.84 C 5.23 g/m*3 4.84 C 0 km/h
2257 11-11-2010 04:00:00 4.3 C 5.24 g/m*3 4.3 C 0 km/h
2258 11-11-2010 05:00:00 4.12 C 5.2 g/m*3 4.12 C 0 km/h
2259 11-11-2010 06:00:00 3.7 C 5.01 g/m*3 3.7 C 0 km/h
2260 11-11-2010 07:00:00 3.56 C 4.98 g/m*3 3.56 C 0 km/h
2261 11-11-2010 08:00:00 2.32 C 4.71 g/m*3 2.32 C 0 km/h
2262 11-11-2010 09:00:00 3.66 C 5.28 g/m*3 3.66 C 0 km/h
2263 11-11-2010 10:00:00 5.58 C 4.59 g/m*3 5.58 C 0 km/h
2264 11-11-2010 11:00:00 6.94 C 3.78 g/m*3 6.94 C 0 km/h
2265 11-11-2010 12:00:00 7.46 C 3.98 g/m*3 7.46 C 0 km/h
2266 11-11-2010 13:00:00 7.7 C 4.15 g/m*3 7.7 C 0 km/h
2267 11-11-2010 14:00:00 7.36 C 4.24 g/m*3 7.36 C 0 km/h
2268 11-11-2010 15:00:00 6.8 C 4.45 g/m*3 6.8 C 0 km/h
2269 11-11-2010 16:00:00 5.54 C 5.08 g/m*3 5.54 C 0 km/h
2270 11-11-2010 17:00:00 5.28 C 5.48 g/m*3 5.28 C 0 km/h
2271 11-11-2010 18:00:00 5.64 C 5.87 g/m*3 5.64 C 0 km/h
2272 11-11-2010 19:00:00 6.22 C 6.27 g/m*3 6.22 C 0 km/h
2273 11-11-2010 20:00:00 7.5 C 6.34 g/m*3 7.5 C 0 km/h
2274 11-11-2010 21:00:00 8.44 C 6.57 g/m*3 8.44 C 0 km/h
2275 11-11-2010 22:00:00 9.34 C 7.23 g/m*3 9.34 C 0 km/h
Sensor: Nr:Datum:Temp:Abs-Feuchte:Windchill:Wind:
Aussen-T/F 2276 11-11-2010 23:00:00 9.78 C 7.69 g/m*3 9.78 C 0 km/h
2277 12-11-2010 00:00:00 9.74 C 6.82 g/m*3 9.74 C 0 km/h
2278 12-11-2010 01:00:00 9.84 C 5.93 g/m*3 9.84 C 0 km/h
2279 12-11-2010 02:00:00 9.88 C 5.63 g/m*3 9.88 C 0 km/h
2280 12-11-2010 03:00:00 9.6 C 5.81 g/m*3 9.6 C 0 km/h
2281 12-11-2010 04:00:00 9.8 C 5.6 g/m*3 9.8 C 0 km/h
2282 12-11-2010 05:00:00 9.94 C 5.77 g/m*3 9.94 C 0 km/h
2283 12-11-2010 06:00:00 10.62 C 5.77 g/m*3 10.62 C 0 km/h
2284 12-11-2010 07:00:00 10.62 C 5.8 g/m*3 10.62 C 0 km/h
2285 12-11-2010 08:00:00 10.7 C 5.81 g/m*3 10.7 C 0 km/h
2286 12-11-2010 09:00:00 10.84 C 5.85 g/m*3 10.84 C 0 km/h
2287 12-11-2010 10:00:00 10.7 C 6.11 g/m*3 10.7 C 0 km/h
2288 12-11-2010 11:00:00 11.42 C 6.08 g/m*3 11.42 C 0 km/h
2289 12-11-2010 12:00:00 11.88 C 5.99 g/m*3 11.88 C 0 km/h
2290 12-11-2010 13:00:00 11.64 C 6.29 g/m*3 11.64 C 0 km/h
2291 12-11-2010 14:00:00 11.6 C 6.55 g/m*3 11.6 C 0 km/h
2292 12-11-2010 15:00:00 11.6 C 6.57 g/m*3 11.6 C 0 km/h
2293 12-11-2010 16:00:00 11.54 C 6.73 g/m*3 11.54 C 0 km/h
2294 12-11-2010 17:00:00 11.16 C 7.2 g/m*3 11.16 C 0 km/h
2295 12-11-2010 18:00:00 10.48 C 7.73 g/m*3 10.48 C 0 km/h
2296 12-11-2010 19:00:00 10.52 C 8.29 g/m*3 10.52 C 0 km/h
2297 12-11-2010 20:00:00 11.52 C 8.77 g/m*3 11.52 C 0 km/h
2298 12-11-2010 21:00:00 12.16 C 9.28 g/m*3 12.16 C 0 km/h
2299 12-11-2010 22:00:00 13.3 C 9.22 g/m*3 13.3 C 0 km/h
2300 12-11-2010 23:00:00 13.88 C 8.69 g/m*3 13.88 C 0 km/h
Sensor: Nr:Datum:Temp:Abs-Feuchte:Windchill:Wind:
Aussen-T/F 2301 13-11-2010 00:00:00 13.82 C 8.85 g/m*3 13.82 C 0 km/h
2302 13-11-2010 01:00:00 13.86 C 9.06 g/m*3 13.86 C 0 km/h
2303 13-11-2010 02:00:00 13.78 C 9.28 g/m*3 13.78 C 0 km/h
2304 13-11-2010 03:00:00 14.2 C 9.33 g/m*3 14.2 C 0 km/h
2305 13-11-2010 04:00:00 14.14 C 9.25 g/m*3 14.14 C 0 km/h
2306 13-11-2010 05:00:00 14.5 C 9.1 g/m*3 14.5 C 0 km/h
2307 13-11-2010 06:00:00 14.62 C 9.05 g/m*3 14.62 C 0 km/h
2308 13-11-2010 07:00:00 14.72 C 9 g/m*3 14.72 C 0 km/h
2309 13-11-2010 08:00:00 14.72 C 9 g/m*3 14.72 C 0 km/h
2310 13-11-2010 09:00:00 14.18 C 9.15 g/m*3 14.18 C 0 km/h
2311 13-11-2010 10:00:00 14.32 C 9.23 g/m*3 14.32 C 0 km/h
2312 13-11-2010 11:00:00 14.76 C 9 g/m*3 14.76 C 0 km/h
2313 13-11-2010 12:00:00 14.8 C 8.84 g/m*3 14.8 C 0 km/h
2314 13-11-2010 13:00:00 14.76 C 8.85 g/m*3 14.76 C 0 km/h
2315 13-11-2010 14:00:00 14.78 C 8.68 g/m*3 14.78 C 0 km/h
2316 13-11-2010 15:00:00 14.82 C 8.55 g/m*3 14.82 C 0 km/h
2317 13-11-2010 16:00:00 14.68 C 8.68 g/m*3 14.68 C 0 km/h
2318 13-11-2010 17:00:00 14.26 C 8.75 g/m*3 14.26 C 0 km/h
2319 13-11-2010 18:00:00 14.68 C 8.7 g/m*3 14.68 C 0 km/h
2320 13-11-2010 19:00:00 14.94 C 8.51 g/m*3 14.94 C 0 km/h
2321 13-11-2010 20:00:00 15 C 8.28 g/m*3 15 C 0 km/h
2322 13-11-2010 21:00:00 14.52 C 8.39 g/m*3 14.52 C 0 km/h
2323 13-11-2010 22:00:00 14.86 C 8.11 g/m*3 14.86 C 0 km/h
2324 13-11-2010 23:00:00 14.74 C 8.05 g/m*3 14.74 C 0 km/h
2325 14-11-2010 00:00:00 15.08 C 8.07 g/m*3 15.08 C 0 km/h
Sensor: Nr:Datum:Temp:Abs-Feuchte:Windchill:Wind:
Aussen-T/F 2326 14-11-2010 01:00:00 14.24 C 8.27 g/m*3 14.24 C 0 km/h
2327 14-11-2010 02:00:00 13.58 C 8.7 g/m*3 13.58 C 0 km/h
2328 14-11-2010 03:00:00 14.36 C 8.39 g/m*3 14.36 C 0 km/h
2329 14-11-2010 04:00:00 14.02 C 8.38 g/m*3 14.02 C 0 km/h
2330 14-11-2010 05:00:00 13.9 C 8.46 g/m*3 13.9 C 0 km/h
2331 14-11-2010 06:00:00 13.42 C 8.36 g/m*3 13.42 C 0 km/h
2332 14-11-2010 07:00:00 11.92 C 8 g/m*3 11.92 C 0 km/h
2333 14-11-2010 08:00:00 12.66 C 7.53 g/m*3 12.66 C 0 km/h
2334 14-11-2010 09:00:00 14.28 C 7.24 g/m*3 14.28 C 0 km/h
2335 14-11-2010 10:00:00 15.02 C 7.22 g/m*3 15.02 C 0 km/h
2336 14-11-2010 11:00:00 15.44 C 7.22 g/m*3 15.44 C 0 km/h
2337 14-11-2010 12:00:00 16.16 C 7.4 g/m*3 16.16 C 0 km/h
2338 14-11-2010 13:00:00 17.46 C 7.44 g/m*3 17.46 C 0 km/h
2339 14-11-2010 14:00:00 17.64 C 7.25 g/m*3 17.64 C 0 km/h
2340 14-11-2010 15:00:00 17.7 C 7.12 g/m*3 17.7 C 0 km/h
2341 14-11-2010 16:00:00 15.72 C 7.64 g/m*3 15.72 C 0 km/h
2342 14-11-2010 17:00:00 14.74 C 8.13 g/m*3 14.74 C 0 km/h
2343 14-11-2010 18:00:00 14.16 C 8.02 g/m*3 14.16 C 0 km/h
2344 14-11-2010 19:00:00 13.96 C 7.89 g/m*3 13.96 C 0 km/h
2345 14-11-2010 20:00:00 14.02 C 7.68 g/m*3 14.02 C 0 km/h
2346 14-11-2010 21:00:00 13.92 C 7.27 g/m*3 13.92 C 0 km/h
2347 14-11-2010 22:00:00 13.78 C 7.09 g/m*3 13.78 C 0 km/h
2348 14-11-2010 23:00:00 13.42 C 6.94 g/m*3 13.42 C 0 km/h
2349 15-11-2010 00:00:00 12.88 C 6.98 g/m*3 12.88 C 0 km/h
2350 15-11-2010 01:00:00 12.22 C 6.91 g/m*3 12.22 C 0 km/h
Sensor: Nr:Datum:Temp:Abs-Feuchte:Windchill:Wind:
Aussen-T/F 2351 15-11-2010 02:00:00 11.78 C 6.92 g/m*3 11.78 C 0 km/h
2352 15-11-2010 03:00:00 10.9 C 7.02 g/m*3 10.9 C 0 km/h
2353 15-11-2010 04:00:00 10.24 C 6.95 g/m*3 10.24 C 0 km/h
2354 15-11-2010 05:00:00 9.92 C 6.53 g/m*3 9.92 C 0 km/h
2355 15-11-2010 06:00:00 9.34 C 6.27 g/m*3 9.34 C 0 km/h
2356 15-11-2010 07:00:00 8.96 C 6.42 g/m*3 8.96 C 0 km/h
2357 15-11-2010 08:00:00 9.1 C 6.28 g/m*3 9.1 C 0 km/h
2358 15-11-2010 09:00:00 9.16 C 6.07 g/m*3 9.16 C 0 km/h
2359 15-11-2010 10:00:00 9.82 C 5.87 g/m*3 9.82 C 0 km/h
2360 15-11-2010 11:00:00 10.3 C 5.75 g/m*3 10.3 C 0 km/h
2361 15-11-2010 12:00:00 10.84 C 5.57 g/m*3 10.84 C 0 km/h
2362 15-11-2010 13:00:00 10.48 C 5.62 g/m*3 10.48 C 0 km/h
2363 15-11-2010 14:00:00 10.24 C 5.5 g/m*3 10.24 C 0 km/h
2364 15-11-2010 15:00:00 9.68 C 5.54 g/m*3 9.68 C 0 km/h
2365 15-11-2010 16:00:00 8.96 C 5.7 g/m*3 8.96 C 0 km/h
2366 15-11-2010 17:00:00 8.16 C 5.81 g/m*3 8.16 C 0 km/h
2367 15-11-2010 18:00:00 8.14 C 5.89 g/m*3 8.14 C 0 km/h
2368 15-11-2010 19:00:00 7.98 C 5.88 g/m*3 7.98 C 0 km/h
2369 15-11-2010 20:00:00 7.6 C 5.95 g/m*3 7.6 C 0 km/h
2370 15-11-2010 21:00:00 7.16 C 5.93 g/m*3 7.16 C 0 km/h
2371 15-11-2010 22:00:00 6.94 C 5.97 g/m*3 6.94 C 0 km/h
2372 15-11-2010 23:00:00 6.68 C 5.99 g/m*3 6.68 C 0 km/h
2373 16-11-2010 00:00:00 5.88 C 5.95 g/m*3 5.88 C 0 km/h
2374 16-11-2010 01:00:00 5.2 C 5.87 g/m*3 5.2 C 0 km/h
2375 16-11-2010 02:00:00 5.48 C 6.1 g/m*3 5.48 C 0 km/h
Sensor: Nr:Datum:Temp:Abs-Feuchte:Windchill:Wind:
Aussen-T/F 2376 16-11-2010 03:00:00 5.86 C 6.21 g/m*3 5.86 C 0 km/h
2377 16-11-2010 04:00:00 5.22 C 5.97 g/m*3 5.22 C 0 km/h
2378 16-11-2010 05:00:00 5.5 C 6.07 g/m*3 5.5 C 0 km/h
2379 16-11-2010 06:00:00 5.22 C 5.83 g/m*3 5.22 C 0 km/h
2380 16-11-2010 07:00:00 5.18 C 5.79 g/m*3 5.18 C 0 km/h
2381 16-11-2010 08:00:00 5.42 C 5.83 g/m*3 5.42 C 0 km/h
2382 16-11-2010 09:00:00 5.88 C 5.82 g/m*3 5.88 C 0 km/h
2383 16-11-2010 10:00:00 6.26 C 5.74 g/m*3 6.26 C 0 km/h
2384 16-11-2010 11:00:00 6.56 C 5.65 g/m*3 6.56 C 0 km/h
2385 16-11-2010 12:00:00 7.34 C 5.53 g/m*3 7.34 C 0 km/h
2386 16-11-2010 13:00:00 7.54 C 5.59 g/m*3 7.54 C 0 km/h
2387 16-11-2010 14:00:00 7.68 C 5.52 g/m*3 7.68 C 0 km/h
2388 16-11-2010 15:00:00 7.24 C 5.51 g/m*3 7.24 C 0 km/h
2389 16-11-2010 16:00:00 7.08 C 5.53 g/m*3 7.08 C 0 km/h
2390 16-11-2010 17:00:00 6.8 C 5.64 g/m*3 6.8 C 0 km/h
2391 16-11-2010 18:00:00 6.22 C 5.67 g/m*3 6.22 C 0 km/h
2392 16-11-2010 19:00:00 5.92 C 5.75 g/m*3 5.92 C 0 km/h
2393 16-11-2010 20:00:00 5.56 C 5.71 g/m*3 5.56 C 0 km/h
2394 16-11-2010 21:00:00 5.42 C 5.66 g/m*3 5.42 C 0 km/h
2395 16-11-2010 22:00:00 5.24 C 5.61 g/m*3 5.24 C 0 km/h
2396 16-11-2010 23:00:00 4.6 C 5.58 g/m*3 4.6 C 0 km/h
2397 17-11-2010 00:00:00 4.78 C 5.72 g/m*3 4.78 C 0 km/h
2398 17-11-2010 01:00:00 5.08 C 5.62 g/m*3 5.08 C 0 km/h
2399 17-11-2010 02:00:00 5 C 5.59 g/m*3 5 C 0 km/h
2400 17-11-2010 03:00:00 4.92 C 5.66 g/m*3 4.92 C 0 km/h
Sensor: Nr:Datum:Temp:Abs-Feuchte:Windchill:Wind:
Aussen-T/F 2401 17-11-2010 04:00:00 4.8 C 5.65 g/m*3 4.8 C 0 km/h
2402 17-11-2010 05:00:00 4.74 C 5.72 g/m*3 4.74 C 0 km/h
2403 17-11-2010 06:00:00 4.7 C 5.73 g/m*3 4.7 C 0 km/h
2404 17-11-2010 07:00:00 4.72 C 5.67 g/m*3 4.72 C 0 km/h
2405 17-11-2010 08:00:00 5.1 C 4.98 g/m*3 5.1 C 0 km/h
2406 17-11-2010 09:00:00 5.56 C 4.64 g/m*3 5.56 C 0 km/h
2407 17-11-2010 10:00:00 5.78 C 4.66 g/m*3 5.78 C 0 km/h
2408 17-11-2010 11:00:00 6.04 C 4.6 g/m*3 6.04 C 0 km/h
2409 17-11-2010 12:00:00 6.28 C 4.6 g/m*3 6.28 C 0 km/h
2410 17-11-2010 13:00:00 6.54 C 4.63 g/m*3 6.54 C 0 km/h
2411 17-11-2010 14:00:00 6.18 C 4.55 g/m*3 6.18 C 0 km/h
2412 17-11-2010 15:00:00 5.86 C 4.67 g/m*3 5.86 C 0 km/h
2413 17-11-2010 16:00:00 5.54 C 4.8 g/m*3 5.54 C 0 km/h
2414 17-11-2010 17:00:00 5.26 C 4.91 g/m*3 5.26 C 0 km/h
2415 17-11-2010 18:00:00 5.2 C 4.97 g/m*3 5.2 C 0 km/h
2416 17-11-2010 19:00:00 5.3 C 4.99 g/m*3 5.3 C 0 km/h
2417 17-11-2010 20:00:00 5.3 C 5.12 g/m*3 5.3 C 0 km/h
2418 17-11-2010 21:00:00 5.26 C 5.21 g/m*3 5.26 C 0 km/h
2419 17-11-2010 22:00:00 5.04 C 5.34 g/m*3 5.04 C 0 km/h
2420 17-11-2010 23:00:00 4.52 C 5.58 g/m*3 4.52 C 0 km/h
2421 18-11-2010 00:00:00 4.56 C 5.74 g/m*3 4.56 C 0 km/h
2422 18-11-2010 01:00:00 4.28 C 5.71 g/m*3 4.28 C 0 km/h
2423 18-11-2010 02:00:00 4.28 C 5.77 g/m*3 4.28 C 0 km/h
2424 18-11-2010 03:00:00 4.06 C 5.75 g/m*3 4.06 C 0 km/h
2425 18-11-2010 04:00:00 4.28 C 5.88 g/m*3 4.28 C 0 km/h
Sensor: Nr:Datum:Temp:Abs-Feuchte:Windchill:Wind:
Aussen-T/F 2426 18-11-2010 05:00:00 4.28 C 5.89 g/m*3 4.28 C 0 km/h
2427 18-11-2010 06:00:00 3.92 C 5.81 g/m*3 3.92 C 0 km/h
2428 18-11-2010 07:00:00 3.98 C 5.84 g/m*3 3.98 C 0 km/h
2429 18-11-2010 08:00:00 4.22 C 5.94 g/m*3 4.22 C 0 km/h
2430 18-11-2010 09:00:00 4.94 C 6.2 g/m*3 4.94 C 0 km/h
2431 18-11-2010 10:00:00 5.96 C 6.24 g/m*3 5.96 C 0 km/h
2432 18-11-2010 11:00:00 6.9 C 6.02 g/m*3 6.9 C 0 km/h
2433 18-11-2010 12:00:00 7.54 C 5.92 g/m*3 7.54 C 0 km/h
2434 18-11-2010 13:00:00 8.36 C 5.7 g/m*3 8.36 C 0 km/h
2435 18-11-2010 14:00:00 8.14 C 5.32 g/m*3 8.14 C 0 km/h
2436 18-11-2010 15:00:00 7.76 C 5.39 g/m*3 7.76 C 0 km/h
2437 18-11-2010 16:00:00 6.9 C 5.77 g/m*3 6.9 C 0 km/h
2438 18-11-2010 17:00:00 6.12 C 5.87 g/m*3 6.12 C 0 km/h
2439 18-11-2010 18:00:00 6.2 C 6.02 g/m*3 6.2 C 0 km/h
2440 18-11-2010 19:00:00 5.94 C 6.01 g/m*3 5.94 C 0 km/h
2441 18-11-2010 20:00:00 5.58 C 6.23 g/m*3 5.58 C 0 km/h
2442 18-11-2010 21:00:00 5.52 C 6.27 g/m*3 5.52 C 0 km/h
2443 18-11-2010 22:00:00 5.5 C 6.32 g/m*3 5.5 C 0 km/h
2444 18-11-2010 23:00:00 5.64 C 6.42 g/m*3 5.64 C 0 km/h
2445 19-11-2010 00:00:00 5.66 C 6.26 g/m*3 5.66 C 0 km/h
2446 19-11-2010 01:00:00 5.58 C 6.11 g/m*3 5.58 C 0 km/h
2447 19-11-2010 02:00:00 5.34 C 6.17 g/m*3 5.34 C 0 km/h
2448 19-11-2010 03:00:00 5.12 C 6.08 g/m*3 5.12 C 0 km/h
2449 19-11-2010 04:00:00 5.04 C 6.05 g/m*3 5.04 C 0 km/h
2450 19-11-2010 05:00:00 4.94 C 6.04 g/m*3 4.94 C 0 km/h
Sensor: Nr:Datum:Temp:Abs-Feuchte:Windchill:Wind:
Aussen-T/F 2451 19-11-2010 06:00:00 4.9 C 6.02 g/m*3 4.9 C 0 km/h
2452 19-11-2010 07:00:00 5.14 C 6.1 g/m*3 5.14 C 0 km/h
2453 19-11-2010 08:00:00 5.44 C 6.23 g/m*3 5.44 C 0 km/h
2454 19-11-2010 09:00:00 6.32 C 6.26 g/m*3 6.32 C 0 km/h
2455 19-11-2010 10:00:00 7.62 C 6.28 g/m*3 7.62 C 0 km/h
2456 19-11-2010 11:00:00 8.84 C 6.06 g/m*3 8.84 C 0 km/h
2457 19-11-2010 12:00:00 9.52 C 5.85 g/m*3 9.52 C 0 km/h
2458 19-11-2010 13:00:00 9.74 C 5.82 g/m*3 9.74 C 0 km/h
2459 19-11-2010 14:00:00 9.94 C 5.69 g/m*3 9.94 C 0 km/h
2460 19-11-2010 15:00:00 8.5 C 5.93 g/m*3 8.5 C 0 km/h
2461 19-11-2010 16:00:00 7.04 C 6.23 g/m*3 7.04 C 0 km/h
2462 19-11-2010 17:00:00 7.58 C 6.31 g/m*3 7.58 C 0 km/h
2463 19-11-2010 18:00:00 7.62 C 6.32 g/m*3 7.62 C 0 km/h
2464 19-11-2010 19:00:00 6.96 C 6.23 g/m*3 6.96 C 0 km/h
2465 19-11-2010 20:00:00 5.1 C 5.91 g/m*3 5.1 C 0 km/h
2466 19-11-2010 21:00:00 3.86 C 5.62 g/m*3 3.86 C 0 km/h
2467 19-11-2010 22:00:00 3.92 C 5.74 g/m*3 3.92 C 0 km/h
2468 19-11-2010 23:00:00 4.54 C 6.02 g/m*3 4.54 C 0 km/h
2469 20-11-2010 00:00:00 4.04 C 5.86 g/m*3 4.04 C 0 km/h
2470 20-11-2010 01:00:00 4.18 C 5.92 g/m*3 4.18 C 0 km/h
2471 20-11-2010 02:00:00 1.94 C 5.11 g/m*3 1.94 C 0 km/h
2472 20-11-2010 03:00:00 1.34 C 4.91 g/m*3 1.34 C 0 km/h
2473 20-11-2010 04:00:00 2.64 C 5.37 g/m*3 2.64 C 0 km/h
2474 20-11-2010 05:00:00 3.34 C 5.65 g/m*3 3.34 C 0 km/h
2475 20-11-2010 06:00:00 3.76 C 5.82 g/m*3 3.76 C 0 km/h
Sensor: Nr:Datum:Temp:Abs-Feuchte:Windchill:Wind:
Aussen-T/F 2476 20-11-2010 07:00:00 4.06 C 5.94 g/m*3 4.06 C 0 km/h
2477 20-11-2010 08:00:00 4.4 C 6.07 g/m*3 4.4 C 0 km/h
2478 20-11-2010 09:00:00 5.04 C 6.32 g/m*3 5.04 C 0 km/h
2479 20-11-2010 10:00:00 6.02 C 6.63 g/m*3 6.02 C 0 km/h
2480 20-11-2010 11:00:00 7.46 C 6.75 g/m*3 7.46 C 0 km/h
2481 20-11-2010 12:00:00 9.1 C 6.67 g/m*3 9.1 C 0 km/h
2482 20-11-2010 13:00:00 8.88 C 6.37 g/m*3 8.88 C 0 km/h
2483 20-11-2010 14:00:00 8.78 C 6.29 g/m*3 8.78 C 0 km/h
2484 20-11-2010 15:00:00 7.76 C 6.19 g/m*3 7.76 C 0 km/h
2485 20-11-2010 16:00:00 5.34 C 5.87 g/m*3 5.34 C 0 km/h
2486 20-11-2010 17:00:00 4.6 C 5.9 g/m*3 4.6 C 0 km/h
2487 20-11-2010 18:00:00 4.4 C 5.9 g/m*3 4.4 C 0 km/h
2488 20-11-2010 19:00:00 3.92 C 5.75 g/m*3 3.92 C 0 km/h
2489 20-11-2010 20:00:00 3.28 C 5.55 g/m*3 3.28 C 0 km/h
2490 20-11-2010 21:00:00 3.26 C 5.57 g/m*3 3.26 C 0 km/h
2491 20-11-2010 22:00:00 4.32 C 5.98 g/m*3 4.32 C 0 km/h
2492 20-11-2010 23:00:00 4.12 C 5.92 g/m*3 4.12 C 0 km/h
2493 21-11-2010 00:00:00 4.32 C 5.96 g/m*3 4.32 C 0 km/h
2494 21-11-2010 01:00:00 4.48 C 5.75 g/m*3 4.48 C 0 km/h
2495 21-11-2010 02:00:00 4.44 C 5.43 g/m*3 4.44 C 0 km/h
2496 21-11-2010 03:00:00 4.5 C 5.28 g/m*3 4.5 C 0 km/h
2497 21-11-2010 04:00:00 4.56 C 5.06 g/m*3 4.56 C 0 km/h
2498 21-11-2010 05:00:00 4.5 C 4.94 g/m*3 4.5 C 0 km/h
2499 21-11-2010 06:00:00 4.4 C 4.92 g/m*3 4.4 C 0 km/h
2500 21-11-2010 07:00:00 4.38 C 5.05 g/m*3 4.38 C 0 km/h
Sensor: Nr:Datum:Temp:Abs-Feuchte:Windchill:Wind:
Aussen-T/F 2501 21-11-2010 08:00:00 4.7 C 5.14 g/m*3 4.7 C 0 km/h
2502 21-11-2010 09:00:00 5 C 4.92 g/m*3 5 C 0 km/h
2503 21-11-2010 10:00:00 5.36 C 4.82 g/m*3 5.36 C 0 km/h
2504 21-11-2010 11:00:00 5.3 C 4.63 g/m*3 5.3 C 0 km/h
2505 21-11-2010 12:00:00 5.1 C 4.53 g/m*3 5.1 C 0 km/h
2506 21-11-2010 13:00:00 5.12 C 4.45 g/m*3 5.12 C 0 km/h
2507 21-11-2010 14:00:00 4.88 C 4.42 g/m*3 4.88 C 0 km/h
2508 21-11-2010 15:00:00 4.44 C 4.28 g/m*3 4.44 C 0 km/h
2509 21-11-2010 16:00:00 4.16 C 4.38 g/m*3 4.16 C 0 km/h
2510 21-11-2010 17:00:00 3.96 C 4.5 g/m*3 3.96 C 0 km/h
2511 21-11-2010 18:00:00 3.96 C 4.57 g/m*3 3.96 C 0 km/h
2512 21-11-2010 19:00:00 4.06 C 4.61 g/m*3 4.06 C 0 km/h
2513 21-11-2010 20:00:00 4.3 C 4.55 g/m*3 4.3 C 0 km/h
2514 21-11-2010 21:00:00 4.16 C 4.5 g/m*3 4.16 C 0 km/h
2515 21-11-2010 22:00:00 3.76 C 4.66 g/m*3 3.76 C 0 km/h
2516 21-11-2010 23:00:00 3.76 C 4.81 g/m*3 3.76 C 0 km/h
2517 22-11-2010 00:00:00 4.06 C 4.93 g/m*3 4.06 C 0 km/h
2518 22-11-2010 01:00:00 4.08 C 4.92 g/m*3 4.08 C 0 km/h
2519 22-11-2010 02:00:00 4.16 C 4.97 g/m*3 4.16 C 0 km/h
2520 22-11-2010 03:00:00 4.46 C 5.06 g/m*3 4.46 C 0 km/h
2521 22-11-2010 04:00:00 4.86 C 5.01 g/m*3 4.86 C 0 km/h
2522 22-11-2010 05:00:00 4.88 C 4.95 g/m*3 4.88 C 0 km/h
2523 22-11-2010 06:00:00 4.7 C 4.86 g/m*3 4.7 C 0 km/h
2524 22-11-2010 07:00:00 4.64 C 4.79 g/m*3 4.64 C 0 km/h
2525 22-11-2010 08:00:00 4.64 C 4.8 g/m*3 4.64 C 0 km/h
Sensor: Nr:Datum:Temp:Abs-Feuchte:Windchill:Wind:
Aussen-T/F 2526 22-11-2010 09:00:00 4.74 C 4.81 g/m*3 4.74 C 0 km/h
2527 22-11-2010 10:00:00 4.82 C 4.86 g/m*3 4.82 C 0 km/h
2528 22-11-2010 11:00:00 4.48 C 4.95 g/m*3 4.48 C 0 km/h
2529 22-11-2010 12:00:00 4.2 C 5.21 g/m*3 4.2 C 0 km/h
2530 22-11-2010 13:00:00 4.24 C 5.38 g/m*3 4.24 C 0 km/h
2531 22-11-2010 14:00:00 4.78 C 5.25 g/m*3 4.78 C 0 km/h
2532 22-11-2010 15:00:00 4.9 C 5.02 g/m*3 4.9 C 0 km/h
2533 22-11-2010 16:00:00 4.32 C 4.91 g/m*3 4.32 C 0 km/h
2534 22-11-2010 17:00:00 4.04 C 4.99 g/m*3 4.04 C 0 km/h
2535 22-11-2010 18:00:00 4.28 C 4.95 g/m*3 4.28 C 0 km/h
2536 22-11-2010 19:00:00 4.38 C 4.88 g/m*3 4.38 C 0 km/h
2537 22-11-2010 20:00:00 4.42 C 4.8 g/m*3 4.42 C 0 km/h
2538 22-11-2010 21:00:00 4.4 C 4.82 g/m*3 4.4 C 0 km/h
2539 22-11-2010 22:00:00 4.5 C 4.89 g/m*3 4.5 C 0 km/h
2540 22-11-2010 23:00:00 4.4 C 4.94 g/m*3 4.4 C 0 km/h
2541 23-11-2010 00:00:00 4.44 C 4.94 g/m*3 4.44 C 0 km/h
2542 23-11-2010 01:00:00 4.46 C 4.85 g/m*3 4.46 C 0 km/h
2543 23-11-2010 02:00:00 4.26 C 4.62 g/m*3 4.26 C 0 km/h
2544 23-11-2010 03:00:00 4.08 C 4.42 g/m*3 4.08 C 0 km/h
2545 23-11-2010 04:00:00 3.68 C 4.52 g/m*3 3.68 C 0 km/h
2546 23-11-2010 05:00:00 3.2 C 4.65 g/m*3 3.2 C 0 km/h
2547 23-11-2010 06:00:00 2.66 C 5.01 g/m*3 2.66 C 0 km/h
2548 23-11-2010 07:00:00 2.96 C 5.08 g/m*3 2.96 C 0 km/h
2549 23-11-2010 08:00:00 3.18 C 4.89 g/m*3 3.18 C 0 km/h
2550 23-11-2010 09:00:00 3.68 C 4.75 g/m*3 3.68 C 0 km/h
Sensor: Nr:Datum:Temp:Abs-Feuchte:Windchill:Wind:
Aussen-T/F 2551 23-11-2010 10:00:00 4.26 C 4.58 g/m*3 4.26 C 0 km/h
2552 23-11-2010 11:00:00 4.72 C 4.66 g/m*3 4.72 C 0 km/h
2553 23-11-2010 12:00:00 5.28 C 4.47 g/m*3 5.28 C 0 km/h
2554 23-11-2010 13:00:00 6.04 C 4.37 g/m*3 6.04 C 0 km/h
2555 23-11-2010 14:00:00 5.74 C 4.25 g/m*3 5.74 C 0 km/h
2556 23-11-2010 15:00:00 5.54 C 4.25 g/m*3 5.54 C 0 km/h
2557 23-11-2010 16:00:00 5.38 C 4.47 g/m*3 5.38 C 0 km/h
2558 23-11-2010 17:00:00 5.32 C 4.46 g/m*3 5.32 C 0 km/h
2559 23-11-2010 18:00:00 5.28 C 4.42 g/m*3 5.28 C 0 km/h
2560 23-11-2010 19:00:00 5.2 C 4.5 g/m*3 5.2 C 0 km/h
2561 23-11-2010 20:00:00 5.14 C 4.46 g/m*3 5.14 C 0 km/h
2562 23-11-2010 21:00:00 4.98 C 4.33 g/m*3 4.98 C 0 km/h
2563 23-11-2010 22:00:00 4.95 C 4.33 g/m*3 4.95 C 0 km/h
2564 23-11-2010 23:00:00 4.64 C 4.39 g/m*3 4.64 C 0 km/h
2565 24-11-2010 00:00:00 4.32 C 4.44 g/m*3 4.32 C 0 km/h
2566 24-11-2010 01:00:00 3.96 C 4.46 g/m*3 3.96 C 0 km/h
2567 24-11-2010 02:00:00 3.42 C 4.5 g/m*3 3.42 C 0 km/h
2568 24-11-2010 03:00:00 3.52 C 4.62 g/m*3 3.52 C 0 km/h
2569 24-11-2010 04:00:00 3.46 C 4.72 g/m*3 3.46 C 0 km/h
2570 24-11-2010 05:00:00 2.92 C 5 g/m*3 2.92 C 0 km/h
2571 24-11-2010 06:00:00 3.2 C 5.07 g/m*3 3.2 C 0 km/h
2572 24-11-2010 07:00:00 3.34 C 5.01 g/m*3 3.34 C 0 km/h
2573 24-11-2010 08:00:00 3.42 C 5.08 g/m*3 3.42 C 0 km/h
2574 24-11-2010 09:00:00 4.22 C 4.99 g/m*3 4.22 C 0 km/h
2575 24-11-2010 10:00:00 5.22 C 4.7 g/m*3 5.22 C 0 km/h
Sensor: Nr:Datum:Temp:Abs-Feuchte:Windchill:Wind:
Aussen-T/F 2576 24-11-2010 11:00:00 5.22 C 4.78 g/m*3 5.22 C 0 km/h
2577 24-11-2010 12:00:00 5.8 C 4.57 g/m*3 5.8 C 0 km/h
2578 24-11-2010 13:00:00 5.36 C 4.61 g/m*3 5.36 C 0 km/h
2579 24-11-2010 14:00:00 4.48 C 5.08 g/m*3 4.48 C 0 km/h
2580 24-11-2010 15:00:00 3.48 C 5.24 g/m*3 3.48 C 0 km/h
2581 24-11-2010 16:00:00 3.3 C 5.22 g/m*3 3.3 C 0 km/h
2582 24-11-2010 17:00:00 2.28 C 4.88 g/m*3 2.28 C 0 km/h
2583 24-11-2010 18:00:00 1.64 C 4.9 g/m*3 1.64 C 0 km/h
2584 24-11-2010 19:00:00 2.02 C 5.09 g/m*3 2.02 C 0 km/h
2585 24-11-2010 20:00:00 1.42 C 4.91 g/m*3 1.42 C 0 km/h
2586 24-11-2010 21:00:00 1.42 C 4.91 g/m*3 1.42 C 0 km/h
2587 24-11-2010 22:00:00 2.14 C 5.13 g/m*3 2.14 C 0 km/h
2588 24-11-2010 23:00:00 2.4 C 5.06 g/m*3 2.4 C 0 km/h
2589 25-11-2010 00:00:00 2.5 C 4.93 g/m*3 2.5 C 0 km/h
2590 25-11-2010 01:00:00 2.94 C 4.82 g/m*3 2.94 C 0 km/h
2591 25-11-2010 02:00:00 2.76 C 4.55 g/m*3 2.76 C 0 km/h
2592 25-11-2010 03:00:00 2.82 C 4.43 g/m*3 2.82 C 0 km/h
2593 25-11-2010 04:00:00 2.02 C 4.2 g/m*3 2.02 C 0 km/h
2594 25-11-2010 05:00:00 1.3 C 4.08 g/m*3 1.3 C 0 km/h
2595 25-11-2010 06:00:00 0.66 C 4.12 g/m*3 0.66 C 0 km/h
2596 25-11-2010 07:00:00 0.06 C 4.24 g/m*3 0.06 C 0 km/h
2597 25-11-2010 08:00:00 -0.28 C 4.23 g/m*3 -0.28 C 0 km/h
2598 25-11-2010 09:00:00 0.58 C 4.45 g/m*3 0.58 C 0 km/h
2599 25-11-2010 10:00:00 0.8 C 4.42 g/m*3 0.8 C 0 km/h
2600 25-11-2010 11:00:00 1.76 C 4.53 g/m*3 1.76 C 0 km/h
Sensor: Nr:Datum:Temp:Abs-Feuchte:Windchill:Wind:
Aussen-T/F 2601 25-11-2010 12:00:00 2 C 4.51 g/m*3 2 C 0 km/h
2602 25-11-2010 13:00:00 3.48 C 4.22 g/m*3 3.48 C 0 km/h
2603 25-11-2010 14:00:00 3.66 C 4.03 g/m*3 3.66 C 0 km/h
2604 25-11-2010 15:00:00 3.28 C 3.96 g/m*3 3.28 C 0 km/h
2605 25-11-2010 16:00:00 2.04 C 4.21 g/m*3 2.04 C 0 km/h
2606 25-11-2010 17:00:00 2.04 C 4.35 g/m*3 2.04 C 0 km/h
2607 25-11-2010 18:00:00 1.74 C 4.42 g/m*3 1.74 C 0 km/h
2608 25-11-2010 19:00:00 0.98 C 4.38 g/m*3 0.98 C 0 km/h
2609 25-11-2010 20:00:00 0.7 C 4.4 g/m*3 0.7 C 0 km/h
2610 25-11-2010 21:00:00 1.24 C 4.5 g/m*3 1.24 C 0 km/h
2611 25-11-2010 22:00:00 1.34 C 4.49 g/m*3 1.34 C 0 km/h
2612 25-11-2010 23:00:00 1.36 C 4.52 g/m*3 1.36 C 0 km/h
2613 26-11-2010 00:00:00 1.4 C 4.51 g/m*3 1.4 C 0 km/h
2614 26-11-2010 01:00:00 1.06 C 4.49 g/m*3 1.06 C 0 km/h
2615 26-11-2010 02:00:00 1.06 C 4.47 g/m*3 1.06 C 0 km/h
2616 26-11-2010 03:00:00 0.74 C 4.37 g/m*3 0.74 C 0 km/h
2617 26-11-2010 04:00:00 0.32 C 4.4 g/m*3 0.32 C 0 km/h
2618 26-11-2010 05:00:00 0.26 C 4.47 g/m*3 0.26 C 0 km/h
2619 26-11-2010 06:00:00 0.22 C 4.49 g/m*3 0.22 C 0 km/h
2620 26-11-2010 07:00:00 0 C 4.46 g/m*3 0 C 0 km/h
2621 26-11-2010 08:00:00 0.04 C 4.49 g/m*3 0.04 C 0 km/h
2622 26-11-2010 09:00:00 0.14 C 4.55 g/m*3 0.14 C 0 km/h
2623 26-11-2010 10:00:00 0.58 C 4.66 g/m*3 0.58 C 0 km/h
2624 26-11-2010 11:00:00 1.12 C 4.61 g/m*3 1.12 C 0 km/h
2625 26-11-2010 12:00:00 0.84 C 4.41 g/m*3 0.84 C 0 km/h
Sensor: Nr:Datum:Temp:Abs-Feuchte:Windchill:Wind:
Aussen-T/F 2626 26-11-2010 13:00:00 0.9 C 4.37 g/m*3 0.9 C 0 km/h
2627 26-11-2010 14:00:00 1.6 C 4.17 g/m*3 1.6 C 0 km/h
2628 26-11-2010 15:00:00 0.8 C 3.8 g/m*3 0.8 C 0 km/h
2629 26-11-2010 16:00:00 -1.48 C 3.69 g/m*3 -1.48 C 0 km/h
2630 26-11-2010 17:00:00 -2.36 C 3.65 g/m*3 -2.36 C 0 km/h
2631 26-11-2010 18:00:00 -1.38 C 4 g/m*3 -1.38 C 0 km/h
2632 26-11-2010 19:00:00 -1.54 C 3.96 g/m*3 -1.54 C 0 km/h
2633 26-11-2010 20:00:00 -1.96 C 3.85 g/m*3 -1.96 C 0 km/h
2634 26-11-2010 21:00:00 -2.34 C 3.75 g/m*3 -2.34 C 0 km/h
2635 26-11-2010 22:00:00 -3.24 C 3.5 g/m*3 -3.24 C 0 km/h
2636 26-11-2010 23:00:00 -3.76 C 3.35 g/m*3 -3.76 C 0 km/h
2637 27-11-2010 00:00:00 -4.08 C 3.27 g/m*3 -4.08 C 0 km/h
2638 27-11-2010 01:00:00 -3.54 C 3.39 g/m*3 -3.54 C 0 km/h
2639 27-11-2010 02:00:00 -3.94 C 3.25 g/m*3 -3.94 C 0 km/h
2640 27-11-2010 03:00:00 -3.16 C 3.46 g/m*3 -3.16 C 0 km/h
2641 27-11-2010 04:00:00 -4.12 C 3.19 g/m*3 -4.12 C 0 km/h
2642 27-11-2010 05:00:00 -4.28 C 3.15 g/m*3 -4.28 C 0 km/h
2643 27-11-2010 06:00:00 -3.52 C 3.35 g/m*3 -3.52 C 0 km/h
2644 27-11-2010 07:00:00 -3.54 C 3.33 g/m*3 -3.54 C 0 km/h
2645 27-11-2010 08:00:00 -3 C 3.48 g/m*3 -3 C 0 km/h
2646 27-11-2010 09:00:00 -1.8 C 3.8 g/m*3 -1.8 C 0 km/h
2647 27-11-2010 10:00:00 -0.84 C 4.06 g/m*3 -0.84 C 0 km/h
2648 27-11-2010 11:00:00 -0.2 C 4.19 g/m*3 -0.2 C 0 km/h
2649 27-11-2010 12:00:00 0.38 C 4 g/m*3 0.38 C 0 km/h
2650 27-11-2010 13:00:00 0.86 C 3.91 g/m*3 0.86 C 0 km/h
Sensor: Nr:Datum:Temp:Abs-Feuchte:Windchill:Wind:
Aussen-T/F 2651 27-11-2010 14:00:00 1.48 C 3.79 g/m*3 1.48 C 0 km/h
2652 27-11-2010 15:00:00 0.76 C 3.8 g/m*3 0.76 C 0 km/h
2653 27-11-2010 16:00:00 -0.72 C 3.59 g/m*3 -0.72 C 0 km/h
2654 27-11-2010 17:00:00 -0.86 C 3.65 g/m*3 -0.86 C 0 km/h
2655 27-11-2010 18:00:00 -1.58 C 3.59 g/m*3 -1.58 C 0 km/h
2656 27-11-2010 19:00:00 -0.92 C 3.75 g/m*3 -0.92 C 0 km/h
2657 27-11-2010 20:00:00 -1.5 C 3.52 g/m*3 -1.5 C 0 km/h
2658 27-11-2010 21:00:00 -3.1 C 3.27 g/m*3 -3.1 C 0 km/h
2659 27-11-2010 22:00:00 -3.36 C 3.3 g/m*3 -3.36 C 0 km/h
2660 27-11-2010 23:00:00 -3.22 C 3.31 g/m*3 -3.22 C 0 km/h
2661 28-11-2010 00:00:00 -3.76 C 3.2 g/m*3 -3.76 C 0 km/h
2662 28-11-2010 01:00:00 -2.76 C 3.5 g/m*3 -2.76 C 0 km/h
2663 28-11-2010 02:00:00 -2.18 C 3.6 g/m*3 -2.18 C 0 km/h
2664 28-11-2010 03:00:00 -3.4 C 3.22 g/m*3 -3.4 C 0 km/h
2665 28-11-2010 04:00:00 -2.64 C 3.47 g/m*3 -2.64 C 0 km/h
2666 28-11-2010 05:00:00 -2.72 C 3.42 g/m*3 -2.72 C 0 km/h
2667 28-11-2010 06:00:00 -2.18 C 3.56 g/m*3 -2.18 C 0 km/h
2668 28-11-2010 07:00:00 -1.88 C 3.58 g/m*3 -1.88 C 0 km/h
2669 28-11-2010 08:00:00 -1.66 C 3.6 g/m*3 -1.66 C 0 km/h
2670 28-11-2010 09:00:00 -1.18 C 3.62 g/m*3 -1.18 C 0 km/h
2671 28-11-2010 10:00:00 -0.38 C 3.63 g/m*3 -0.38 C 0 km/h
2672 28-11-2010 11:00:00 -0.18 C 3.55 g/m*3 -0.18 C 0 km/h
2673 28-11-2010 12:00:00 0.02 C 3.59 g/m*3 0.02 C 0 km/h
2674 28-11-2010 13:00:00 0.14 C 3.63 g/m*3 0.14 C 0 km/h
2675 28-11-2010 14:00:00 0.5 C 3.69 g/m*3 0.5 C 0 km/h
Sensor: Nr:Datum:Temp:Abs-Feuchte:Windchill:Wind:
Aussen-T/F 2676 28-11-2010 15:00:00 0.54 C 3.71 g/m*3 0.54 C 0 km/h
2677 28-11-2010 16:00:00 -0.34 C 3.68 g/m*3 -0.34 C 0 km/h
2678 28-11-2010 17:00:00 -0.64 C 3.67 g/m*3 -0.64 C 0 km/h
2679 28-11-2010 18:00:00 -1.1 C 3.71 g/m*3 -1.1 C 0 km/h
2680 28-11-2010 19:00:00 -0.7 C 3.7 g/m*3 -0.7 C 0 km/h
2681 28-11-2010 20:00:00 -0.8 C 3.55 g/m*3 -0.8 C 0 km/h
2682 28-11-2010 21:00:00 -0.86 C 3.46 g/m*3 -0.86 C 0 km/h
2683 28-11-2010 22:00:00 -1.6 C 3.36 g/m*3 -1.6 C 0 km/h
2684 28-11-2010 23:00:00 -2.04 C 3.42 g/m*3 -2.04 C 0 km/h
2685 29-11-2010 00:00:00 -1.48 C 3.37 g/m*3 -1.48 C 0 km/h
2686 29-11-2010 01:00:00 -1.8 C 3.31 g/m*3 -1.8 C 0 km/h
2687 29-11-2010 02:00:00 -1.88 C 3.26 g/m*3 -1.88 C 0 km/h
2688 29-11-2010 03:00:00 -2 C 3.21 g/m*3 -2 C 0 km/h
2689 29-11-2010 04:00:00 -2 C 3.22 g/m*3 -2 C 0 km/h
2690 29-11-2010 05:00:00 -1.82 C 3.27 g/m*3 -1.82 C 0 km/h
2691 29-11-2010 06:00:00 -1.68 C 3.31 g/m*3 -1.68 C 0 km/h
2692 29-11-2010 07:00:00 -1.66 C 3.29 g/m*3 -1.66 C 0 km/h
2693 29-11-2010 08:00:00 -1.6 C 3.33 g/m*3 -1.6 C 0 km/h
2694 29-11-2010 09:00:00 -1.38 C 3.3 g/m*3 -1.38 C 0 km/h
2695 29-11-2010 10:00:00 -1.3 C 3.37 g/m*3 -1.3 C 0 km/h
2696 29-11-2010 11:00:00 -1.22 C 3.45 g/m*3 -1.22 C 0 km/h
2697 29-11-2010 12:00:00 -1.14 C 3.52 g/m*3 -1.14 C 0 km/h
2698 29-11-2010 13:00:00 -0.84 C 3.57 g/m*3 -0.84 C 0 km/h
2699 29-11-2010 14:00:00 -1.02 C 3.67 g/m*3 -1.02 C 0 km/h
2700 29-11-2010 15:00:00 -1.3 C 3.72 g/m*3 -1.3 C 0 km/h
Sensor: Nr:Datum:Temp:Abs-Feuchte:Windchill:Wind:
Aussen-T/F 2701 29-11-2010 16:00:00 -1.46 C 3.73 g/m*3 -1.46 C 0 km/h
2702 29-11-2010 17:00:00 -1.68 C 3.71 g/m*3 -1.68 C 0 km/h
2703 29-11-2010 18:00:00 -1.68 C 3.75 g/m*3 -1.68 C 0 km/h
2704 29-11-2010 19:00:00 -1.7 C 3.75 g/m*3 -1.7 C 0 km/h
2705 29-11-2010 20:00:00 -1.64 C 3.8 g/m*3 -1.64 C 0 km/h
2706 29-11-2010 21:00:00 -1.66 C 3.8 g/m*3 -1.66 C 0 km/h
2707 29-11-2010 22:00:00 -1.78 C 3.77 g/m*3 -1.78 C 0 km/h
2708 29-11-2010 23:00:00 -1.68 C 3.83 g/m*3 -1.68 C 0 km/h
2709 30-11-2010 00:00:00 -1.78 C 3.81 g/m*3 -1.78 C 0 km/h
2710 30-11-2010 01:00:00 -1.96 C 3.76 g/m*3 -1.96 C 0 km/h
2711 30-11-2010 02:00:00 -1.68 C 3.84 g/m*3 -1.68 C 0 km/h
2712 30-11-2010 03:00:00 -1.7 C 3.82 g/m*3 -1.7 C 0 km/h
2713 30-11-2010 04:00:00 -2.36 C 3.62 g/m*3 -2.36 C 0 km/h
2714 30-11-2010 05:00:00 -2.4 C 3.62 g/m*3 -2.4 C 0 km/h
2715 30-11-2010 06:00:00 -2.26 C 3.66 g/m*3 -2.26 C 0 km/h
2716 30-11-2010 07:00:00 -2.28 C 3.66 g/m*3 -2.28 C 0 km/h
2717 30-11-2010 08:00:00 -2.08 C 3.66 g/m*3 -2.08 C 0 km/h
2718 30-11-2010 09:00:00 -2 C 3.58 g/m*3 -2 C 0 km/h
2719 30-11-2010 10:00:00 -1.82 C 3.51 g/m*3 -1.82 C 0 km/h
2720 30-11-2010 11:00:00 -1.5 C 3.44 g/m*3 -1.5 C 0 km/h
2721 30-11-2010 12:00:00 -1.3 C 3.28 g/m*3 -1.3 C 0 km/h
2722 30-11-2010 13:00:00 -1.08 C 3.25 g/m*3 -1.08 C 0 km/h
2723 30-11-2010 14:00:00 -1.32 C 3.2 g/m*3 -1.32 C 0 km/h
2724 30-11-2010 15:00:00 -1.48 C 3.23 g/m*3 -1.48 C 0 km/h
2725 30-11-2010 16:00:00 -1.5 C 3.23 g/m*3 -1.5 C 0 km/h
Sensor: Nr:Datum:Temp:Abs-Feuchte:Windchill:Wind:
Aussen-T/F 2726 30-11-2010 17:00:00 -1.92 C 3.21 g/m*3 -1.92 C 0 km/h
2727 30-11-2010 18:00:00 -2.1 C 3.18 g/m*3 -2.1 C 0 km/h
2728 30-11-2010 19:00:00 -2.1 C 3.17 g/m*3 -2.1 C 0 km/h
2729 30-11-2010 20:00:00 -2.26 C 3.11 g/m*3 -2.26 C 0 km/h
2730 30-11-2010 21:00:00 -2.4 C 3.05 g/m*3 -2.4 C 0 km/h
2731 30-11-2010 22:00:00 -2.58 C 2.94 g/m*3 -2.58 C 0 km/h
2732 30-11-2010 23:00:00 -2.76 C 2.83 g/m*3 -2.76 C 0 km/h
2733 01-12-2010 00:00:00 -3 C 2.76 g/m*3 -3 C 0 km/h
2734 01-12-2010 01:00:00 -3.3 C 2.67 g/m*3 -3.3 C 0 km/h
2735 01-12-2010 02:00:00 -3.88 C 2.51 g/m*3 -3.88 C 0 km/h
2736 01-12-2010 03:00:00 -4.34 C 2.36 g/m*3 -4.34 C 0 km/h
2737 01-12-2010 04:00:00 -5 C 2.23 g/m*3 -5 C 0 km/h
2738 01-12-2010 05:00:00 -5.4 C 2.18 g/m*3 -5.4 C 0 km/h
2739 01-12-2010 06:00:00 -5.56 C 2.14 g/m*3 -5.56 C 0 km/h
2740 01-12-2010 07:00:00 -5.9 C 2.05 g/m*3 -5.9 C 0 km/h
2741 01-12-2010 08:00:00 -6.26 C 1.95 g/m*3 -6.26 C 0 km/h
2742 01-12-2010 09:00:00 -5.96 C 1.92 g/m*3 -5.96 C 0 km/h
2743 01-12-2010 10:00:00 -5.54 C 1.95 g/m*3 -5.54 C 0 km/h
2744 01-12-2010 11:00:00 -5.48 C 1.97 g/m*3 -5.48 C 0 km/h
2745 01-12-2010 12:00:00 -5.82 C 1.93 g/m*3 -5.82 C 0 km/h
2746 01-12-2010 13:00:00 -6.1 C 1.85 g/m*3 -6.1 C 0 km/h
2747 01-12-2010 14:00:00 -6.18 C 1.79 g/m*3 -6.18 C 0 km/h
2748 01-12-2010 15:00:00 -6.28 C 1.78 g/m*3 -6.28 C 0 km/h
2749 01-12-2010 16:00:00 -6.58 C 1.75 g/m*3 -6.58 C 0 km/h
2750 01-12-2010 17:00:00 -6.58 C 1.8 g/m*3 -6.58 C 0 km/h
Sensor: Nr:Datum:Temp:Abs-Feuchte:Windchill:Wind:
Aussen-T/F 2751 01-12-2010 18:00:00 -6.54 C 1.82 g/m*3 -6.54 C 0 km/h
2752 01-12-2010 19:00:00 -6.58 C 1.81 g/m*3 -6.58 C 0 km/h
2753 01-12-2010 20:00:00 -6.64 C 1.77 g/m*3 -6.64 C 0 km/h
2754 01-12-2010 21:00:00 -6.74 C 1.74 g/m*3 -6.74 C 0 km/h
2755 01-12-2010 22:00:00 -6.86 C 1.73 g/m*3 -6.86 C 0 km/h
2756 01-12-2010 23:00:00 -7.06 C 1.77 g/m*3 -7.06 C 0 km/h
2757 02-12-2010 00:00:00 -7.14 C 1.81 g/m*3 -7.14 C 0 km/h
2758 02-12-2010 01:00:00 -7.12 C 1.79 g/m*3 -7.12 C 0 km/h
2759 02-12-2010 02:00:00 -7.28 C 1.71 g/m*3 -7.28 C 0 km/h
2760 02-12-2010 03:00:00 -7.32 C 1.74 g/m*3 -7.32 C 0 km/h
2761 02-12-2010 04:00:00 -7.5 C 1.78 g/m*3 -7.5 C 0 km/h
2762 02-12-2010 05:00:00 -7.64 C 1.79 g/m*3 -7.64 C 0 km/h
2763 02-12-2010 06:00:00 -7.76 C 1.84 g/m*3 -7.76 C 0 km/h
2764 02-12-2010 07:00:00 -7.72 C 1.89 g/m*3 -7.72 C 0 km/h
2765 02-12-2010 08:00:00 -7.7 C 1.87 g/m*3 -7.7 C 0 km/h
2766 02-12-2010 09:00:00 -7.1 C 1.96 g/m*3 -7.1 C 0 km/h
2767 02-12-2010 10:00:00 -6.14 C 1.99 g/m*3 -6.14 C 0 km/h
2768 02-12-2010 11:00:00 -5.62 C 2.03 g/m*3 -5.62 C 0 km/h
2769 02-12-2010 12:00:00 -6.08 C 2.05 g/m*3 -6.08 C 0 km/h
2770 02-12-2010 13:00:00 -5.3 C 2.15 g/m*3 -5.3 C 0 km/h
2771 02-12-2010 14:00:00 -5.6 C 2.16 g/m*3 -5.6 C 0 km/h
2772 02-12-2010 15:00:00 -4.74 C 2.28 g/m*3 -4.74 C 0 km/h
2773 02-12-2010 16:00:00 -5.12 C 2.3 g/m*3 -5.12 C 0 km/h
2774 02-12-2010 17:00:00 -7.36 C 2.12 g/m*3 -7.36 C 0 km/h
2775 02-12-2010 18:00:00 -8.02 C 2.2 g/m*3 -8.02 C 0 km/h
Sensor: Nr:Datum:Temp:Abs-Feuchte:Windchill:Wind:
Aussen-T/F 2776 02-12-2010 19:00:00 -8.42 C 2.16 g/m*3 -8.42 C 0 km/h
2777 02-12-2010 20:00:00 -8.04 C 2.25 g/m*3 -8.04 C 0 km/h
2778 02-12-2010 21:00:00 -7.54 C 2.33 g/m*3 -7.54 C 0 km/h
2779 02-12-2010 22:00:00 -8.54 C 2.13 g/m*3 -8.54 C 0 km/h
2780 02-12-2010 23:00:00 -7.96 C 2.23 g/m*3 -7.96 C 0 km/h
2781 03-12-2010 00:00:00 -9.88 C 1.86 g/m*3 -9.88 C 0 km/h
2782 03-12-2010 01:00:00 -9.66 C 1.91 g/m*3 -9.66 C 0 km/h
2783 03-12-2010 02:00:00 -9.12 C 2 g/m*3 -9.12 C 0 km/h
2784 03-12-2010 03:00:00 -8.78 C 2.04 g/m*3 -8.78 C 0 km/h
2785 03-12-2010 04:00:00 -8.06 C 2.15 g/m*3 -8.06 C 0 km/h
2786 03-12-2010 05:00:00 -8.68 C 2.03 g/m*3 -8.68 C 0 km/h
2787 03-12-2010 06:00:00 -9.48 C 1.91 g/m*3 -9.48 C 0 km/h
2788 03-12-2010 07:00:00 -8.92 C 2.03 g/m*3 -8.92 C 0 km/h
2789 03-12-2010 08:00:00 -9.92 C 1.85 g/m*3 -9.92 C 0 km/h
2790 03-12-2010 09:00:00 -9.8 C 1.85 g/m*3 -9.8 C 0 km/h
2791 03-12-2010 10:00:00 -8.1 C 2.05 g/m*3 -8.1 C 0 km/h
2792 03-12-2010 11:00:00 -6.32 C 2.23 g/m*3 -6.32 C 0 km/h
2793 03-12-2010 12:00:00 -5.16 C 2.28 g/m*3 -5.16 C 0 km/h
2794 03-12-2010 13:00:00 -4.74 C 2.32 g/m*3 -4.74 C 0 km/h
2795 03-12-2010 14:00:00 -4.26 C 2.38 g/m*3 -4.26 C 0 km/h
2796 03-12-2010 15:00:00 -4.68 C 2.4 g/m*3 -4.68 C 0 km/h
2797 03-12-2010 16:00:00 -6.18 C 2.37 g/m*3 -6.18 C 0 km/h
2798 03-12-2010 17:00:00 -6.98 C 2.34 g/m*3 -6.98 C 0 km/h
2799 03-12-2010 18:00:00 -7.02 C 2.36 g/m*3 -7.02 C 0 km/h
2800 03-12-2010 19:00:00 -5.74 C 2.63 g/m*3 -5.74 C 0 km/h
Sensor: Nr:Datum:Temp:Abs-Feuchte:Windchill:Wind:
Aussen-T/F 2801 03-12-2010 20:00:00 -5.36 C 2.64 g/m*3 -5.36 C 0 km/h
2802 03-12-2010 21:00:00 -5.72 C 2.55 g/m*3 -5.72 C 0 km/h
2803 03-12-2010 22:00:00 -6.78 C 2.39 g/m*3 -6.78 C 0 km/h
2804 03-12-2010 23:00:00 -7.92 C 2.24 g/m*3 -7.92 C 0 km/h
2805 04-12-2010 00:00:00 -8.5 C 2.17 g/m*3 -8.5 C 0 km/h
2806 04-12-2010 01:00:00 -9.1 C 2.06 g/m*3 -9.1 C 0 km/h
2807 04-12-2010 02:00:00 -9.26 C 2.02 g/m*3 -9.26 C 0 km/h
2808 04-12-2010 03:00:00 -9.94 C 1.9 g/m*3 -9.94 C 0 km/h
2809 04-12-2010 04:00:00 -7.96 C 2.24 g/m*3 -7.96 C 0 km/h
2810 04-12-2010 05:00:00 -5.52 C 2.67 g/m*3 -5.52 C 0 km/h
2811 04-12-2010 06:00:00 -4.94 C 2.59 g/m*3 -4.94 C 0 km/h
2812 04-12-2010 07:00:00 -5.14 C 2.58 g/m*3 -5.14 C 0 km/h
2813 04-12-2010 08:00:00 -3.94 C 2.67 g/m*3 -3.94 C 0 km/h
2814 04-12-2010 09:00:00 -3.1 C 2.58 g/m*3 -3.1 C 0 km/h
2815 04-12-2010 10:00:00 -2.12 C 2.68 g/m*3 -2.12 C 0 km/h
2816 04-12-2010 11:00:00 -1.38 C 2.45 g/m*3 -1.38 C 0 km/h
2817 04-12-2010 12:00:00 -0.86 C 2.46 g/m*3 -0.86 C 0 km/h
2818 04-12-2010 13:00:00 -1.4 C 2.41 g/m*3 -1.4 C 0 km/h
2819 04-12-2010 14:00:00 -1 C 2.47 g/m*3 -1 C 0 km/h
2820 04-12-2010 15:00:00 -0.92 C 2.52 g/m*3 -0.92 C 0 km/h
2821 04-12-2010 16:00:00 -1.22 C 2.64 g/m*3 -1.22 C 0 km/h
2822 04-12-2010 17:00:00 -1.08 C 2.76 g/m*3 -1.08 C 0 km/h
2823 04-12-2010 18:00:00 -0.9 C 2.79 g/m*3 -0.9 C 0 km/h
2824 04-12-2010 19:00:00 -0.92 C 2.79 g/m*3 -0.92 C 0 km/h
2825 04-12-2010 20:00:00 -0.96 C 2.87 g/m*3 -0.96 C 0 km/h
Sensor: Nr:Datum:Temp:Abs-Feuchte:Windchill:Wind:
Aussen-T/F 2826 04-12-2010 21:00:00 -1.1 C 3.13 g/m*3 -1.1 C 0 km/h
2827 04-12-2010 22:00:00 -1.18 C 3.46 g/m*3 -1.18 C 0 km/h
2828 04-12-2010 23:00:00 -1.12 C 3.51 g/m*3 -1.12 C 0 km/h
2829 05-12-2010 00:00:00 -0.5 C 3.48 g/m*3 -0.5 C 0 km/h
2830 05-12-2010 01:00:00 0.12 C 3.31 g/m*3 0.12 C 0 km/h
2831 05-12-2010 02:00:00 0.02 C 3.49 g/m*3 0.02 C 0 km/h
2832 05-12-2010 03:00:00 0.12 C 3.53 g/m*3 0.12 C 0 km/h
2833 05-12-2010 04:00:00 0.12 C 3.58 g/m*3 0.12 C 0 km/h
2834 05-12-2010 05:00:00 0.22 C 3.25 g/m*3 0.22 C 0 km/h
2835 05-12-2010 06:00:00 0.22 C 3.02 g/m*3 0.22 C 0 km/h
2836 05-12-2010 07:00:00 -0.08 C 2.91 g/m*3 -0.08 C 0 km/h
2837 05-12-2010 08:00:00 -0.32 C 2.9 g/m*3 -0.32 C 0 km/h
2838 05-12-2010 09:00:00 0.02 C 2.96 g/m*3 0.02 C 0 km/h
2839 05-12-2010 10:00:00 1.68 C 2.83 g/m*3 1.68 C 0 km/h
2840 05-12-2010 11:00:00 2.54 C 2.77 g/m*3 2.54 C 0 km/h
2841 05-12-2010 12:00:00 3.1 C 2.67 g/m*3 3.1 C 0 km/h
2842 05-12-2010 13:00:00 3.4 C 2.63 g/m*3 3.4 C 0 km/h
2843 05-12-2010 14:00:00 3.24 C 2.6 g/m*3 3.24 C 0 km/h
2844 05-12-2010 15:00:00 2.22 C 3.05 g/m*3 2.22 C 0 km/h
2845 05-12-2010 16:00:00 1.24 C 3.28 g/m*3 1.24 C 0 km/h
2846 05-12-2010 17:00:00 1.38 C 3.4 g/m*3 1.38 C 0 km/h
2847 05-12-2010 18:00:00 0.88 C 3.81 g/m*3 0.88 C 0 km/h
2848 05-12-2010 19:00:00 0.86 C 3.97 g/m*3 0.86 C 0 km/h
2849 05-12-2010 20:00:00 0.62 C 4.08 g/m*3 0.62 C 0 km/h
2850 05-12-2010 21:00:00 0.34 C 4.27 g/m*3 0.34 C 0 km/h
Sensor: Nr:Datum:Temp:Abs-Feuchte:Windchill:Wind:
Aussen-T/F 2851 05-12-2010 22:00:00 0.36 C 4.35 g/m*3 0.36 C 0 km/h
2852 05-12-2010 23:00:00 0.2 C 4.33 g/m*3 0.2 C 0 km/h
2853 06-12-2010 00:00:00 0.12 C 4.35 g/m*3 0.12 C 0 km/h
2854 06-12-2010 01:00:00 0.12 C 4.38 g/m*3 0.12 C 0 km/h
2855 06-12-2010 02:00:00 0.1 C 4.39 g/m*3 0.1 C 0 km/h
2856 06-12-2010 03:00:00 0.1 C 4.35 g/m*3 0.1 C 0 km/h
2857 06-12-2010 04:00:00 0.14 C 4.38 g/m*3 0.14 C 0 km/h
2858 06-12-2010 05:00:00 0.04 C 4.33 g/m*3 0.04 C 0 km/h
2859 06-12-2010 06:00:00 0.02 C 4.37 g/m*3 0.02 C 0 km/h
2860 06-12-2010 07:00:00 0 C 4.34 g/m*3 0 C 0 km/h
2861 06-12-2010 08:00:00 0.06 C 4.31 g/m*3 0.06 C 0 km/h
2862 06-12-2010 09:00:00 0.84 C 4.37 g/m*3 0.84 C 0 km/h
2863 06-12-2010 10:00:00 1.38 C 4.04 g/m*3 1.38 C 0 km/h
2864 06-12-2010 11:00:00 1.88 C 3.94 g/m*3 1.88 C 0 km/h
2865 06-12-2010 12:00:00 2.4 C 3.76 g/m*3 2.4 C 0 km/h
2866 06-12-2010 13:00:00 2.54 C 3.68 g/m*3 2.54 C 0 km/h
2867 06-12-2010 14:00:00 1.9 C 3.59 g/m*3 1.9 C 0 km/h
2868 06-12-2010 15:00:00 0.96 C 3.65 g/m*3 0.96 C 0 km/h
2869 06-12-2010 16:00:00 -0.26 C 3.69 g/m*3 -0.26 C 0 km/h
2870 06-12-2010 17:00:00 -0.68 C 3.73 g/m*3 -0.68 C 0 km/h
2871 06-12-2010 18:00:00 -0.9 C 3.76 g/m*3 -0.9 C 0 km/h
2872 06-12-2010 19:00:00 -0.84 C 3.75 g/m*3 -0.84 C 0 km/h
2873 06-12-2010 20:00:00 -1.14 C 3.67 g/m*3 -1.14 C 0 km/h
2874 06-12-2010 21:00:00 -1.275 C 3.64 g/m*3 -1.27 C 0 km/h
2875 06-12-2010 22:00:00 -1.24 C 3.68 g/m*3 -1.24 C 0 km/h
Sensor: Nr:Datum:Temp:Abs-Feuchte:Windchill:Wind:
Aussen-T/F 2876 06-12-2010 23:00:00 -0.68 C 3.74 g/m*3 -0.68 C 0 km/h
2877 07-12-2010 00:00:00 -1.06 C 3.6 g/m*3 -1.06 C 0 km/h
2878 07-12-2010 01:00:00 -1.16 C 3.68 g/m*3 -1.16 C 0 km/h
2879 07-12-2010 02:00:00 -0.56 C 3.77 g/m*3 -0.56 C 0 km/h
2880 07-12-2010 03:00:00 -0.56 C 3.73 g/m*3 -0.56 C 0 km/h
2881 07-12-2010 04:00:00 -0.74 C 3.7 g/m*3 -0.74 C 0 km/h
2882 07-12-2010 05:00:00 -0.94 C 3.68 g/m*3 -0.94 C 0 km/h
2883 07-12-2010 06:00:00 -0.78 C 3.68 g/m*3 -0.78 C 0 km/h
2884 07-12-2010 07:00:00 -1 C 3.57 g/m*3 -1 C 0 km/h
2885 07-12-2010 08:00:00 -0.84 C 3.6 g/m*3 -0.84 C 0 km/h
2886 07-12-2010 09:00:00 -0.4 C 3.61 g/m*3 -0.4 C 0 km/h
2887 07-12-2010 10:00:00 0.18 C 3.6 g/m*3 0.18 C 0 km/h
2888 07-12-2010 11:00:00 0.56 C 3.61 g/m*3 0.56 C 0 km/h
2889 07-12-2010 12:00:00 1.12 C 3.63 g/m*3 1.12 C 0 km/h
2890 07-12-2010 13:00:00 1.44 C 3.61 g/m*3 1.44 C 0 km/h
2891 07-12-2010 14:00:00 1.06 C 3.67 g/m*3 1.06 C 0 km/h
2892 07-12-2010 15:00:00 0.4 C 3.81 g/m*3 0.4 C 0 km/h
2893 07-12-2010 16:00:00 -0.22 C 4.06 g/m*3 -0.22 C 0 km/h
2894 07-12-2010 17:00:00 -0.3 C 4.2 g/m*3 -0.3 C 0 km/h
2895 07-12-2010 18:00:00 -0.26 C 4.26 g/m*3 -0.26 C 0 km/h
2896 07-12-2010 19:00:00 -0.2 C 4.31 g/m*3 -0.2 C 0 km/h
2897 07-12-2010 20:00:00 -0.16 C 4.36 g/m*3 -0.16 C 0 km/h
2898 07-12-2010 21:00:00 -0.2 C 4.36 g/m*3 -0.2 C 0 km/h
2899 07-12-2010 22:00:00 -0.18 C 4.4 g/m*3 -0.18 C 0 km/h
2900 07-12-2010 23:00:00 -0.2 C 4.4 g/m*3 -0.2 C 0 km/h
Sensor: Nr:Datum:Temp:Abs-Feuchte:Windchill:Wind:
Aussen-T/F 2901 08-12-2010 00:00:00 -0.2 C 4.4 g/m*3 -0.2 C 0 km/h
2902 08-12-2010 01:00:00 -0.2 C 4.4 g/m*3 -0.2 C 0 km/h
2903 08-12-2010 02:00:00 -0.16 C 4.41 g/m*3 -0.16 C 0 km/h
2904 08-12-2010 03:00:00 -0.18 C 4.4 g/m*3 -0.18 C 0 km/h
2905 08-12-2010 04:00:00 -0.08 C 4.43 g/m*3 -0.08 C 0 km/h
2906 08-12-2010 05:00:00 -0.08 C 4.46 g/m*3 -0.08 C 0 km/h
2907 08-12-2010 06:00:00 -0.06 C 4.49 g/m*3 -0.06 C 0 km/h
2908 08-12-2010 07:00:00 -0.02 C 4.5 g/m*3 -0.02 C 0 km/h
2909 08-12-2010 08:00:00 0 C 4.51 g/m*3 0 C 0 km/h
2910 08-12-2010 09:00:00 0.08 C 4.53 g/m*3 0.08 C 0 km/h
2911 08-12-2010 10:00:00 0.18 C 4.56 g/m*3 0.18 C 0 km/h
2912 08-12-2010 11:00:00 0.34 C 4.63 g/m*3 0.34 C 0 km/h
2913 08-12-2010 12:00:00 0.56 C 4.67 g/m*3 0.56 C 0 km/h
2914 08-12-2010 13:00:00 0.62 C 4.58 g/m*3 0.62 C 0 km/h
2915 08-12-2010 14:00:00 0.42 C 4.44 g/m*3 0.42 C 0 km/h
2916 08-12-2010 15:00:00 -0.08 C 4.29 g/m*3 -0.08 C 0 km/h
2917 08-12-2010 16:00:00 -0.3 C 4.26 g/m*3 -0.3 C 0 km/h
2918 08-12-2010 17:00:00 -0.36 C 4.24 g/m*3 -0.36 C 0 km/h
2919 08-12-2010 18:00:00 -0.74 C 4.1 g/m*3 -0.74 C 0 km/h
2920 08-12-2010 19:00:00 -0.92 C 4.05 g/m*3 -0.92 C 0 km/h
2921 08-12-2010 20:00:00 -1.06 C 4.02 g/m*3 -1.06 C 0 km/h
2922 08-12-2010 21:00:00 -1.24 C 3.94 g/m*3 -1.24 C 0 km/h
2923 08-12-2010 22:00:00 -1.44 C 3.82 g/m*3 -1.44 C 0 km/h
2924 08-12-2010 23:00:00 -1.3 C 3.74 g/m*3 -1.3 C 0 km/h
2925 09-12-2010 00:00:00 -1.32 C 3.64 g/m*3 -1.32 C 0 km/h
Sensor: Nr:Datum:Temp:Abs-Feuchte:Windchill:Wind:
Aussen-T/F 2926 09-12-2010 01:00:00 -1.52 C 3.56 g/m*3 -1.52 C 0 km/h
2927 09-12-2010 02:00:00 -1.74 C 3.55 g/m*3 -1.74 C 0 km/h
2928 09-12-2010 03:00:00 -1.7 C 3.69 g/m*3 -1.7 C 0 km/h
2929 09-12-2010 04:00:00 -1.62 C 3.72 g/m*3 -1.62 C 0 km/h
2930 09-12-2010 05:00:00 -1.04 C 3.84 g/m*3 -1.04 C 0 km/h
2931 09-12-2010 06:00:00 -0.42 C 3.9 g/m*3 -0.42 C 0 km/h
2932 09-12-2010 07:00:00 -0.28 C 3.95 g/m*3 -0.28 C 0 km/h
2933 09-12-2010 08:00:00 -0.38 C 3.91 g/m*3 -0.38 C 0 km/h
2934 09-12-2010 09:00:00 -0.08 C 3.93 g/m*3 -0.08 C 0 km/h
2935 09-12-2010 10:00:00 0.32 C 4 g/m*3 0.32 C 0 km/h
2936 09-12-2010 11:00:00 0.8 C 4.06 g/m*3 0.8 C 0 km/h
2937 09-12-2010 12:00:00 2.18 C 4.07 g/m*3 2.18 C 0 km/h
2938 09-12-2010 13:00:00 1.74 C 4.11 g/m*3 1.74 C 0 km/h
2939 09-12-2010 14:00:00 2.12 C 3.92 g/m*3 2.12 C 0 km/h
2940 09-12-2010 15:00:00 1.84 C 3.75 g/m*3 1.84 C 0 km/h
2941 09-12-2010 16:00:00 1.52 C 3.66 g/m*3 1.52 C 0 km/h
2942 09-12-2010 17:00:00 1.5 C 3.89 g/m*3 1.5 C 0 km/h
2943 09-12-2010 18:00:00 1.68 C 4.03 g/m*3 1.68 C 0 km/h
2944 09-12-2010 19:00:00 2.16 C 3.9 g/m*3 2.16 C 0 km/h
2945 09-12-2010 20:00:00 2.44 C 4 g/m*3 2.44 C 0 km/h
2946 09-12-2010 21:00:00 2.58 C 4.06 g/m*3 2.58 C 0 km/h
2947 09-12-2010 22:00:00 2.44 C 4.16 g/m*3 2.44 C 0 km/h
2948 09-12-2010 23:00:00 1.5 C 4.43 g/m*3 1.5 C 0 km/h
2949 10-12-2010 00:00:00 1.9 C 4.42 g/m*3 1.9 C 0 km/h
2950 10-12-2010 01:00:00 2.04 C 4.36 g/m*3 2.04 C 0 km/h
Sensor: Nr:Datum:Temp:Abs-Feuchte:Windchill:Wind:
Aussen-T/F 2951 10-12-2010 02:00:00 1.7 C 4.26 g/m*3 1.7 C 0 km/h
2952 10-12-2010 03:00:00 1.24 C 4.52 g/m*3 1.24 C 0 km/h
2953 10-12-2010 04:00:00 1.7 C 4.79 g/m*3 1.7 C 0 km/h
2954 10-12-2010 05:00:00 2.52 C 4.87 g/m*3 2.52 C 0 km/h
2955 10-12-2010 06:00:00 1.84 C 4.73 g/m*3 1.84 C 0 km/h
2956 10-12-2010 07:00:00 0.76 C 4.53 g/m*3 0.76 C 0 km/h
2957 10-12-2010 08:00:00 -0.32 C 4.28 g/m*3 -0.32 C 0 km/h
2958 10-12-2010 09:00:00 -0.4 C 4.3 g/m*3 -0.4 C 0 km/h
2959 10-12-2010 10:00:00 0.06 C 4.45 g/m*3 0.06 C 0 km/h
2960 10-12-2010 11:00:00 1.38 C 4.82 g/m*3 1.38 C 0 km/h
2961 10-12-2010 12:00:00 2.24 C 4.95 g/m*3 2.24 C 0 km/h
2962 10-12-2010 13:00:00 2.96 C 4.9 g/m*3 2.96 C 0 km/h
2963 10-12-2010 14:00:00 2.82 C 4.65 g/m*3 2.82 C 0 km/h
2964 10-12-2010 15:00:00 1.78 C 4.64 g/m*3 1.78 C 0 km/h
2965 10-12-2010 16:00:00 1.54 C 4.8 g/m*3 1.54 C 0 km/h
2966 10-12-2010 17:00:00 1.84 C 4.95 g/m*3 1.84 C 0 km/h
2967 10-12-2010 18:00:00 1.86 C 4.93 g/m*3 1.86 C 0 km/h
2968 10-12-2010 19:00:00 2.28 C 4.97 g/m*3 2.28 C 0 km/h
2969 10-12-2010 20:00:00 2.6 C 4.93 g/m*3 2.6 C 0 km/h
2970 10-12-2010 21:00:00 2.5 C 4.85 g/m*3 2.5 C 0 km/h
2971 10-12-2010 22:00:00 2.52 C 4.87 g/m*3 2.52 C 0 km/h
2972 10-12-2010 23:00:00 2.24 C 4.86 g/m*3 2.24 C 0 km/h
2973 11-12-2010 00:00:00 2.18 C 4.97 g/m*3 2.18 C 0 km/h
2974 11-12-2010 01:00:00 2.46 C 5.08 g/m*3 2.46 C 0 km/h
2975 11-12-2010 02:00:00 2.72 C 5.13 g/m*3 2.72 C 0 km/h
Sensor: Nr:Datum:Temp:Abs-Feuchte:Windchill:Wind:
Aussen-T/F 2976 11-12-2010 03:00:00 2.54 C 5.1 g/m*3 2.54 C 0 km/h
2977 11-12-2010 04:00:00 3.26 C 5.24 g/m*3 3.26 C 0 km/h
2978 11-12-2010 05:00:00 3.86 C 5.19 g/m*3 3.86 C 0 km/h
2979 11-12-2010 06:00:00 3.36 C 5.15 g/m*3 3.36 C 0 km/h
2980 11-12-2010 07:00:00 4.14 C 5.21 g/m*3 4.14 C 0 km/h
2981 11-12-2010 08:00:00 4.86 C 5.01 g/m*3 4.86 C 0 km/h
2982 11-12-2010 09:00:00 4.16 C 5.04 g/m*3 4.16 C 0 km/h
2983 11-12-2010 10:00:00 3.9 C 5.38 g/m*3 3.9 C 0 km/h
2984 11-12-2010 11:00:00 4.3 C 5.37 g/m*3 4.3 C 0 km/h
2985 11-12-2010 12:00:00 4.54 C 5.56 g/m*3 4.54 C 0 km/h
2986 11-12-2010 13:00:00 4.86 C 5.39 g/m*3 4.86 C 0 km/h
2987 11-12-2010 14:00:00 4.9 C 5.31 g/m*3 4.9 C 0 km/h
2988 11-12-2010 15:00:00 5.06 C 5.18 g/m*3 5.06 C 0 km/h
2989 11-12-2010 16:00:00 4.9 C 5.24 g/m*3 4.9 C 0 km/h
2990 11-12-2010 17:00:00 5.16 C 5.22 g/m*3 5.16 C 0 km/h
2991 11-12-2010 18:00:00 4.22 C 5.21 g/m*3 4.22 C 0 km/h
2992 11-12-2010 19:00:00 4.26 C 5.2 g/m*3 4.26 C 0 km/h
2993 11-12-2010 20:00:00 4.82 C 5.01 g/m*3 4.82 C 0 km/h
2994 11-12-2010 21:00:00 4.4 C 5.04 g/m*3 4.4 C 0 km/h
2995 11-12-2010 22:00:00 4.3 C 5.03 g/m*3 4.3 C 0 km/h
2996 11-12-2010 23:00:00 4.66 C 4.89 g/m*3 4.66 C 0 km/h
2997 12-12-2010 00:00:00 4.26 C 4.97 g/m*3 4.26 C 0 km/h
2998 12-12-2010 01:00:00 4.84 C 4.84 g/m*3 4.84 C 0 km/h
2999 12-12-2010 02:00:00 4.82 C 4.58 g/m*3 4.82 C 0 km/h
3000 12-12-2010 03:00:00 4.2 C 4.66 g/m*3 4.2 C 0 km/h
Sensor: Nr:Datum:Temp:Abs-Feuchte:Windchill:Wind:
Aussen-T/F 3001 12-12-2010 04:00:00 3.68 C 5.18 g/m*3 3.68 C 0 km/h
3002 12-12-2010 05:00:00 3.44 C 5.11 g/m*3 3.44 C 0 km/h
3003 12-12-2010 06:00:00 3.04 C 5.07 g/m*3 3.04 C 0 km/h
3004 12-12-2010 07:00:00 3.86 C 4.93 g/m*3 3.86 C 0 km/h
3005 12-12-2010 08:00:00 3.62 C 4.87 g/m*3 3.62 C 0 km/h
3006 12-12-2010 09:00:00 3.7 C 4.96 g/m*3 3.7 C 0 km/h
3007 12-12-2010 10:00:00 3.86 C 5.03 g/m*3 3.86 C 0 km/h
3008 12-12-2010 11:00:00 4.12 C 5.14 g/m*3 4.12 C 0 km/h
3009 12-12-2010 12:00:00 4.5 C 5.34 g/m*3 4.5 C 0 km/h
3010 12-12-2010 13:00:00 4.82 C 5.17 g/m*3 4.82 C 0 km/h
3011 12-12-2010 14:00:00 3.46 C 4.95 g/m*3 3.46 C 0 km/h
3012 12-12-2010 15:00:00 3.1 C 5.21 g/m*3 3.1 C 0 km/h
3013 12-12-2010 16:00:00 2.7 C 5.12 g/m*3 2.7 C 0 km/h
3014 12-12-2010 17:00:00 2.48 C 4.62 g/m*3 2.48 C 0 km/h
3015 12-12-2010 18:00:00 1.86 C 4.15 g/m*3 1.86 C 0 km/h
3016 12-12-2010 19:00:00 1.38 C 3.91 g/m*3 1.38 C 0 km/h
3017 12-12-2010 20:00:00 1.18 C 3.56 g/m*3 1.18 C 0 km/h
3018 12-12-2010 21:00:00 0.76 C 3.35 g/m*3 0.76 C 0 km/h
3019 12-12-2010 22:00:00 0.4 C 3.18 g/m*3 0.4 C 0 km/h
3020 12-12-2010 23:00:00 -0.04 C 2.73 g/m*3 -0.04 C 0 km/h
3021 13-12-2010 00:00:00 -0.52 C 2.5 g/m*3 -0.52 C 0 km/h
3022 13-12-2010 01:00:00 -0.84 C 2.45 g/m*3 -0.84 C 0 km/h
3023 13-12-2010 02:00:00 -2.28 C 2.3 g/m*3 -2.28 C 0 km/h
3024 13-12-2010 03:00:00 -3.5 C 2.27 g/m*3 -3.5 C 0 km/h
3025 13-12-2010 04:00:00 -4.2 C 2.29 g/m*3 -4.2 C 0 km/h
Sensor: Nr:Datum:Temp:Abs-Feuchte:Windchill:Wind:
Aussen-T/F 3026 13-12-2010 05:00:00 -5.8 C 2.22 g/m*3 -5.8 C 0 km/h
3027 13-12-2010 06:00:00 -6.94 C 2.21 g/m*3 -6.94 C 0 km/h
3028 13-12-2010 07:00:00 -7.2 C 2.22 g/m*3 -7.2 C 0 km/h
3029 13-12-2010 08:00:00 -7.18 C 2.27 g/m*3 -7.18 C 0 km/h
3030 13-12-2010 09:00:00 -7.12 C 2.29 g/m*3 -7.12 C 0 km/h
3031 13-12-2010 10:00:00 -6.62 C 2.4 g/m*3 -6.62 C 0 km/h
3032 13-12-2010 11:00:00 -4 C 2.63 g/m*3 -4 C 0 km/h
3033 13-12-2010 12:00:00 -2.78 C 2.52 g/m*3 -2.78 C 0 km/h
3034 13-12-2010 13:00:00 -2.32 C 2.5 g/m*3 -2.32 C 0 km/h
3035 13-12-2010 14:00:00 -2.2 C 2.39 g/m*3 -2.2 C 0 km/h
3036 13-12-2010 15:00:00 -3.66 C 2.47 g/m*3 -3.66 C 0 km/h
3037 13-12-2010 16:00:00 -4.98 C 2.58 g/m*3 -4.98 C 0 km/h
3038 13-12-2010 17:00:00 -5.88 C 2.5 g/m*3 -5.88 C 0 km/h
3039 13-12-2010 18:00:00 -6.2 C 2.48 g/m*3 -6.2 C 0 km/h
3040 13-12-2010 19:00:00 -5.44 C 2.72 g/m*3 -5.44 C 0 km/h
3041 13-12-2010 20:00:00 -4.86 C 2.8 g/m*3 -4.86 C 0 km/h
3042 13-12-2010 21:00:00 -4.22 C 2.82 g/m*3 -4.22 C 0 km/h
3043 13-12-2010 22:00:00 -3.92 C 2.86 g/m*3 -3.92 C 0 km/h
3044 13-12-2010 23:00:00 -4.1 C 3 g/m*3 -4.1 C 0 km/h
3045 14-12-2010 00:00:00 -4.1 C 3.02 g/m*3 -4.1 C 0 km/h
3046 14-12-2010 01:00:00 -4.06 C 3.03 g/m*3 -4.06 C 0 km/h
3047 14-12-2010 02:00:00 -3.84 C 3.07 g/m*3 -3.84 C 0 km/h
3048 14-12-2010 03:00:00 -3.66 C 3.11 g/m*3 -3.66 C 0 km/h
3049 14-12-2010 04:00:00 -3.62 C 3.09 g/m*3 -3.62 C 0 km/h
3050 14-12-2010 05:00:00 -3.8 C 3.04 g/m*3 -3.8 C 0 km/h
Sensor: Nr:Datum:Temp:Abs-Feuchte:Windchill:Wind:
Aussen-T/F 3051 14-12-2010 06:00:00 -4.7 C 2.87 g/m*3 -4.7 C 0 km/h
3052 14-12-2010 07:00:00 -6.22 C 2.59 g/m*3 -6.22 C 0 km/h
3053 14-12-2010 08:00:00 -6.38 C 2.62 g/m*3 -6.38 C 0 km/h
3054 14-12-2010 09:00:00 -6 C 2.69 g/m*3 -6 C 0 km/h
3055 14-12-2010 10:00:00 -4.06 C 3 g/m*3 -4.06 C 0 km/h
3056 14-12-2010 11:00:00 -3.24 C 2.75 g/m*3 -3.24 C 0 km/h
3057 14-12-2010 12:00:00 -2.42 C 2.66 g/m*3 -2.42 C 0 km/h
3058 14-12-2010 13:00:00 -2.2 C 2.64 g/m*3 -2.2 C 0 km/h
3059 14-12-2010 14:00:00 -2.44 C 2.66 g/m*3 -2.44 C 0 km/h
3060 14-12-2010 15:00:00 -2.76 C 2.7 g/m*3 -2.76 C 0 km/h
3061 14-12-2010 16:00:00 -2.9 C 2.8 g/m*3 -2.9 C 0 km/h
3062 14-12-2010 17:00:00 -2.98 C 2.91 g/m*3 -2.98 C 0 km/h
3063 14-12-2010 18:00:00 -3.06 C 2.78 g/m*3 -3.06 C 0 km/h
3064 14-12-2010 19:00:00 -2.82 C 2.84 g/m*3 -2.82 C 0 km/h
3065 14-12-2010 20:00:00 -3.04 C 2.74 g/m*3 -3.04 C 0 km/h
3066 14-12-2010 21:00:00 -3.12 C 2.64 g/m*3 -3.12 C 0 km/h
3067 14-12-2010 22:00:00 -3.16 C 2.58 g/m*3 -3.16 C 0 km/h
3068 14-12-2010 23:00:00 -3.22 C 2.51 g/m*3 -3.22 C 0 km/h
3069 15-12-2010 00:00:00 -3.3 C 2.5 g/m*3 -3.3 C 0 km/h
3070 15-12-2010 01:00:00 -3.26 C 2.57 g/m*3 -3.26 C 0 km/h
3071 15-12-2010 02:00:00 -4.16 C 2.54 g/m*3 -4.16 C 0 km/h
3072 15-12-2010 03:00:00 -4.9 C 2.5 g/m*3 -4.9 C 0 km/h
3073 15-12-2010 04:00:00 -4.86 C 2.54 g/m*3 -4.86 C 0 km/h
3074 15-12-2010 05:00:00 -4.72 C 2.63 g/m*3 -4.72 C 0 km/h
3075 15-12-2010 06:00:00 -3.78 C 2.71 g/m*3 -3.78 C 0 km/h
Sensor: Nr:Datum:Temp:Abs-Feuchte:Windchill:Wind:
Aussen-T/F 3076 15-12-2010 07:00:00 -3.42 C 2.81 g/m*3 -3.42 C 0 km/h
3077 15-12-2010 08:00:00 -3.3 C 2.88 g/m*3 -3.3 C 0 km/h
3078 15-12-2010 09:00:00 -2.56 C 3.02 g/m*3 -2.56 C 0 km/h
3079 15-12-2010 10:00:00 -1.76 C 3.22 g/m*3 -1.76 C 0 km/h
3080 15-12-2010 11:00:00 -0.68 C 3.51 g/m*3 -0.68 C 0 km/h
3081 15-12-2010 12:00:00 -0.48 C 3.47 g/m*3 -0.48 C 0 km/h
3082 15-12-2010 13:00:00 -0.38 C 3.56 g/m*3 -0.38 C 0 km/h
3083 15-12-2010 14:00:00 -0.12 C 3.36 g/m*3 -0.12 C 0 km/h
3084 15-12-2010 15:00:00 -1.44 C 2.8 g/m*3 -1.44 C 0 km/h
3085 15-12-2010 16:00:00 -3.2 C 2.7 g/m*3 -3.2 C 0 km/h
3086 15-12-2010 17:00:00 -4.34 C 2.74 g/m*3 -4.34 C 0 km/h
3087 15-12-2010 18:00:00 -4.86 C 2.77 g/m*3 -4.86 C 0 km/h
3088 15-12-2010 19:00:00 -4.42 C 2.86 g/m*3 -4.42 C 0 km/h
3089 15-12-2010 20:00:00 -3.62 C 2.83 g/m*3 -3.62 C 0 km/h
3090 15-12-2010 21:00:00 -3.18 C 2.77 g/m*3 -3.18 C 0 km/h
3091 15-12-2010 22:00:00 -3.78 C 2.76 g/m*3 -3.78 C 0 km/h
3092 15-12-2010 23:00:00 -4.54 C 2.76 g/m*3 -4.54 C 0 km/h
3093 16-12-2010 00:00:00 -4.68 C 2.85 g/m*3 -4.68 C 0 km/h
3094 16-12-2010 01:00:00 -4.84 C 2.87 g/m*3 -4.84 C 0 km/h
3095 16-12-2010 02:00:00 -5.3 C 2.73 g/m*3 -5.3 C 0 km/h
3096 16-12-2010 03:00:00 -5.36 C 2.75 g/m*3 -5.36 C 0 km/h
3097 16-12-2010 04:00:00 -5.58 C 2.66 g/m*3 -5.58 C 0 km/h
3098 16-12-2010 05:00:00 -6.4 C 2.41 g/m*3 -6.4 C 0 km/h
3099 16-12-2010 06:00:00 -7.54 C 2.25 g/m*3 -7.54 C 0 km/h
3100 16-12-2010 07:00:00 -8.28 C 2.11 g/m*3 -8.28 C 0 km/h
Sensor: Nr:Datum:Temp:Abs-Feuchte:Windchill:Wind:
Aussen-T/F 3101 16-12-2010 08:00:00 -7.86 C 2.18 g/m*3 -7.86 C 0 km/h
3102 16-12-2010 09:00:00 -6.6 C 2.26 g/m*3 -6.6 C 0 km/h
3103 16-12-2010 10:00:00 -4.84 C 2.47 g/m*3 -4.84 C 0 km/h
3104 16-12-2010 11:00:00 -3.42 C 2.65 g/m*3 -3.42 C 0 km/h
3105 16-12-2010 12:00:00 -2.84 C 2.8 g/m*3 -2.84 C 0 km/h
3106 16-12-2010 13:00:00 -2.12 C 2.99 g/m*3 -2.12 C 0 km/h
3107 16-12-2010 14:00:00 -1.72 C 3.2 g/m*3 -1.72 C 0 km/h
3108 16-12-2010 15:00:00 -1.4 C 3.45 g/m*3 -1.4 C 0 km/h
3109 16-12-2010 16:00:00 -1.3 C 3.43 g/m*3 -1.3 C 0 km/h
3110 16-12-2010 17:00:00 -1.26 C 3.47 g/m*3 -1.26 C 0 km/h
3111 16-12-2010 18:00:00 -0.7 C 3.61 g/m*3 -0.7 C 0 km/h
3112 16-12-2010 19:00:00 -0.28 C 3.67 g/m*3 -0.28 C 0 km/h
3113 16-12-2010 20:00:00 0.02 C 3.69 g/m*3 0.02 C 0 km/h
3114 16-12-2010 21:00:00 -0.12 C 3.79 g/m*3 -0.12 C 0 km/h
3115 16-12-2010 22:00:00 -0.34 C 3.88 g/m*3 -0.34 C 0 km/h
3116 16-12-2010 23:00:00 -0.46 C 3.84 g/m*3 -0.46 C 0 km/h
3117 17-12-2010 00:00:00 -0.28 C 3.85 g/m*3 -0.28 C 0 km/h
3118 17-12-2010 01:00:00 -0.34 C 3.88 g/m*3 -0.34 C 0 km/h
3119 17-12-2010 02:00:00 -0.58 C 3.62 g/m*3 -0.58 C 0 km/h
3120 17-12-2010 03:00:00 -1.2 C 3.36 g/m*3 -1.2 C 0 km/h
3121 17-12-2010 04:00:00 -1.28 C 3.16 g/m*3 -1.28 C 0 km/h
3122 17-12-2010 05:00:00 -1.62 C 3.26 g/m*3 -1.62 C 0 km/h
3123 17-12-2010 06:00:00 -2.24 C 2.97 g/m*3 -2.24 C 0 km/h
3124 17-12-2010 07:00:00 -2.28 C 2.65 g/m*3 -2.28 C 0 km/h
3125 17-12-2010 08:00:00 -2.22 C 3 g/m*3 -2.22 C 0 km/h
Sensor: Nr:Datum:Temp:Abs-Feuchte:Windchill:Wind:
Aussen-T/F 3126 17-12-2010 09:00:00 -1.92 C 3.01 g/m*3 -1.92 C 0 km/h
3127 17-12-2010 10:00:00 -1.66 C 2.95 g/m*3 -1.66 C 0 km/h
3128 17-12-2010 11:00:00 -1.2 C 2.74 g/m*3 -1.2 C 0 km/h
3129 17-12-2010 12:00:00 -1.14 C 2.52 g/m*3 -1.14 C 0 km/h
3130 17-12-2010 13:00:00 -1.22 C 2.43 g/m*3 -1.22 C 0 km/h
3131 17-12-2010 14:00:00 -1.4 C 2.66 g/m*3 -1.4 C 0 km/h
3132 17-12-2010 15:00:00 -1.82 C 2.98 g/m*3 -1.82 C 0 km/h
3133 17-12-2010 16:00:00 -2.08 C 3 g/m*3 -2.08 C 0 km/h
3134 17-12-2010 17:00:00 -4.06 C 2.8 g/m*3 -4.06 C 0 km/h
3135 17-12-2010 18:00:00 -5.22 C 2.69 g/m*3 -5.22 C 0 km/h
3136 17-12-2010 19:00:00 -6.48 C 2.51 g/m*3 -6.48 C 0 km/h
3137 17-12-2010 20:00:00 -6.58 C 2.52 g/m*3 -6.58 C 0 km/h
3138 17-12-2010 21:00:00 -6.94 C 2.44 g/m*3 -6.94 C 0 km/h
3139 17-12-2010 22:00:00 -6.92 C 2.44 g/m*3 -6.92 C 0 km/h
3140 17-12-2010 23:00:00 -5.9 C 2.66 g/m*3 -5.9 C 0 km/h
3141 18-12-2010 00:00:00 -4.74 C 2.93 g/m*3 -4.74 C 0 km/h
3142 18-12-2010 01:00:00 -4.44 C 2.9 g/m*3 -4.44 C 0 km/h
3143 18-12-2010 02:00:00 -5.28 C 2.7 g/m*3 -5.28 C 0 km/h
3144 18-12-2010 03:00:00 -4.36 C 2.87 g/m*3 -4.36 C 0 km/h
3145 18-12-2010 04:00:00 -4.36 C 2.94 g/m*3 -4.36 C 0 km/h
3146 18-12-2010 05:00:00 -4.44 C 2.98 g/m*3 -4.44 C 0 km/h
3147 18-12-2010 06:00:00 -4.34 C 3.01 g/m*3 -4.34 C 0 km/h
3148 18-12-2010 07:00:00 -5.26 C 2.81 g/m*3 -5.26 C 0 km/h
3149 18-12-2010 08:00:00 -5.34 C 2.8 g/m*3 -5.34 C 0 km/h
3150 18-12-2010 09:00:00 -4.84 C 2.73 g/m*3 -4.84 C 0 km/h
Sensor: Nr:Datum:Temp:Abs-Feuchte:Windchill:Wind:
Aussen-T/F 3151 18-12-2010 10:00:00 -3.82 C 2.68 g/m*3 -3.82 C 0 km/h
3152 18-12-2010 11:00:00 -3.48 C 2.59 g/m*3 -3.48 C 0 km/h
3153 18-12-2010 12:00:00 -3.28 C 2.46 g/m*3 -3.28 C 0 km/h
3154 18-12-2010 13:00:00 -2.96 C 2.36 g/m*3 -2.96 C 0 km/h
3155 18-12-2010 14:00:00 -3.84 C 2.29 g/m*3 -3.84 C 0 km/h
3156 18-12-2010 15:00:00 -5.48 C 2.31 g/m*3 -5.48 C 0 km/h
3157 18-12-2010 16:00:00 -7.06 C 2.27 g/m*3 -7.06 C 0 km/h
3158 18-12-2010 17:00:00 -7.56 C 2.29 g/m*3 -7.56 C 0 km/h
3159 18-12-2010 18:00:00 -6.74 C 2.48 g/m*3 -6.74 C 0 km/h
3160 18-12-2010 19:00:00 -5.34 C 2.79 g/m*3 -5.34 C 0 km/h
3161 18-12-2010 20:00:00 -4.36 C 2.97 g/m*3 -4.36 C 0 km/h
3162 18-12-2010 21:00:00 -3.98 C 3.05 g/m*3 -3.98 C 0 km/h
3163 18-12-2010 22:00:00 -3.42 C 3.2 g/m*3 -3.42 C 0 km/h
3164 18-12-2010 23:00:00 -3.08 C 3.28 g/m*3 -3.08 C 0 km/h
3165 19-12-2010 00:00:00 -2.56 C 3.41 g/m*3 -2.56 C 0 km/h
3166 19-12-2010 01:00:00 -2.44 C 3.53 g/m*3 -2.44 C 0 km/h
3167 19-12-2010 02:00:00 -2.5 C 3.54 g/m*3 -2.5 C 0 km/h
3168 19-12-2010 03:00:00 -2.7 C 3.49 g/m*3 -2.7 C 0 km/h
3169 19-12-2010 04:00:00 -2.46 C 3.55 g/m*3 -2.46 C 0 km/h
3170 19-12-2010 05:00:00 -1.02 C 3.67 g/m*3 -1.02 C 0 km/h
3171 19-12-2010 06:00:00 -1.64 C 3.24 g/m*3 -1.64 C 0 km/h
3172 19-12-2010 07:00:00 -2.58 C 3.19 g/m*3 -2.58 C 0 km/h
3173 19-12-2010 08:00:00 -2.5 C 3.2 g/m*3 -2.5 C 0 km/h
3174 19-12-2010 09:00:00 -2.04 C 3.37 g/m*3 -2.04 C 0 km/h
3175 19-12-2010 10:00:00 -0.94 C 3.41 g/m*3 -0.94 C 0 km/h
Sensor: Nr:Datum:Temp:Abs-Feuchte:Windchill:Wind:
Aussen-T/F 3176 19-12-2010 11:00:00 -0.38 C 3.56 g/m*3 -0.38 C 0 km/h
3177 19-12-2010 12:00:00 0.3 C 3.6 g/m*3 0.3 C 0 km/h
3178 19-12-2010 13:00:00 0.14 C 3.71 g/m*3 0.14 C 0 km/h
3179 19-12-2010 14:00:00 -0.18 C 3.94 g/m*3 -0.18 C 0 km/h
3180 19-12-2010 15:00:00 -0.4 C 4.08 g/m*3 -0.4 C 0 km/h
3181 19-12-2010 16:00:00 -0.3 C 4.23 g/m*3 -0.3 C 0 km/h
3182 19-12-2010 17:00:00 -0.2 C 4.33 g/m*3 -0.2 C 0 km/h
3183 19-12-2010 18:00:00 -0.18 C 4.36 g/m*3 -0.18 C 0 km/h
3184 19-12-2010 19:00:00 -0.04 C 4.45 g/m*3 -0.04 C 0 km/h
3185 19-12-2010 20:00:00 0.08 C 4.49 g/m*3 0.08 C 0 km/h
3186 19-12-2010 21:00:00 1.1 C 4.84 g/m*3 1.1 C 0 km/h
3187 19-12-2010 22:00:00 1.92 C 5.06 g/m*3 1.92 C 0 km/h
3188 19-12-2010 23:00:00 4.42 C 5.05 g/m*3 4.42 C 0 km/h
3189 20-12-2010 00:00:00 4.02 C 4.62 g/m*3 4.02 C 0 km/h
3190 20-12-2010 01:00:00 1.68 C 4.43 g/m*3 1.68 C 0 km/h
3191 20-12-2010 02:00:00 0.42 C 3.7 g/m*3 0.42 C 0 km/h
3192 20-12-2010 03:00:00 -0.08 C 3.63 g/m*3 -0.08 C 0 km/h
3193 20-12-2010 04:00:00 -0.44 C 3.67 g/m*3 -0.44 C 0 km/h
3194 20-12-2010 05:00:00 -1.02 C 3.56 g/m*3 -1.02 C 0 km/h
3195 20-12-2010 06:00:00 -1.66 C 3.46 g/m*3 -1.66 C 0 km/h
3196 20-12-2010 07:00:00 -2.6 C 3.38 g/m*3 -2.6 C 0 km/h
3197 20-12-2010 08:00:00 -2.42 C 3.54 g/m*3 -2.42 C 0 km/h
3198 20-12-2010 09:00:00 -1.8 C 3.59 g/m*3 -1.8 C 0 km/h
3199 20-12-2010 10:00:00 -1.22 C 3.33 g/m*3 -1.22 C 0 km/h
3200 20-12-2010 11:00:00 -0.8 C 3.28 g/m*3 -0.8 C 0 km/h
Sensor: Nr:Datum:Temp:Abs-Feuchte:Windchill:Wind:
Aussen-T/F 3201 20-12-2010 12:00:00 -1.06 C 3.27 g/m*3 -1.06 C 0 km/h
3202 20-12-2010 13:00:00 -0.92 C 3.28 g/m*3 -0.92 C 0 km/h
3203 20-12-2010 14:00:00 -0.98 C 3.26 g/m*3 -0.98 C 0 km/h
3204 20-12-2010 15:00:00 -1.08 C 3.26 g/m*3 -1.08 C 0 km/h
3205 20-12-2010 16:00:00 -3.04 C 3.05 g/m*3